PWSweather.com
Personal Weather Stations
Station Observations
BOOMEPH
Weather On The Hill Or Not, Ephrata, PA 17522

Weather On The Hill Or NotEphrata, PA 17522

Lat: 40.17243, Lon: -76.180815

Elevation: 597

Station Type: Ambient WS 1080

High Low Average
Temperature 35.4°F1.9°F 23.0°F-5.0°F 27.9°F-2.3°F
Dew Point 9.5°F-12.5°F -6.3°F-21.3°F 1.2°F-17.1°F
Winds 15.9 mph N25.6 mph N Calm Calm 3.9 mph 6.3 mph
Wind Gusts 25.9 mph41.7 mph -- 9.2 mph14.8 mph
Humidity 55% 17% 33%
Pressure 30.41 in1029.80 in 29.99 in1015.60 in -
Precipitation 0.00 in0.00 in - -
Hour Temp Dew Point Humidity Winds Wind Gusts Pressure Precip Precip Rate Daily Precip Total
12:00 AM 28.2°F-2.1°C -0.6°F-18.1°C 28% 4.5 mph N7.2 kmh N 12.1 mph19.5 kmh 29.99 in1015.6 mb 0.00 in0.0 mm 0.00 in/hr0.0 mm/hr 0.00 in0.0 mm
12:01 AM 28.2°F-2.1°C -0.6°F-18.1°C 28% 5.4 mph NNE8.7 kmh NNE 12.1 mph19.5 kmh 29.99 in1015.6 mb 0.00 in0.0 mm 0.00 in/hr0.0 mm/hr 0.00 in0.0 mm
12:02 AM 28.4°F-2.0°C 3.0°F-16.1°C 33% 3.8 mph N6.1 kmh N 12.1 mph19.5 kmh 29.99 in1015.6 mb 0.00 in0.0 mm 0.00 in/hr0.0 mm/hr 0.00 in0.0 mm
12:03 AM 28.2°F-2.1°C -0.6°F-18.1°C 28% 8.3 mph N13.4 kmh N 12.1 mph19.5 kmh 29.99 in1015.6 mb 0.00 in0.0 mm 0.00 in/hr0.0 mm/hr 0.00 in0.0 mm
12:04 AM 28.2°F-2.1°C -0.6°F-18.1°C 28% 3.8 mph N6.1 kmh N 12.1 mph19.5 kmh 29.99 in1015.6 mb 0.00 in0.0 mm 0.00 in/hr0.0 mm/hr 0.00 in0.0 mm
12:05 AM 28.2°F-2.1°C -0.6°F-18.1°C 28% 4.5 mph N7.2 kmh N 11.4 mph18.3 kmh 29.99 in1015.6 mb 0.00 in0.0 mm 0.00 in/hr0.0 mm/hr 0.00 in0.0 mm
12:06 AM 28.2°F-2.1°C -0.6°F-18.1°C 28% 3.8 mph N6.1 kmh N 11.4 mph18.3 kmh 29.99 in1015.6 mb 0.00 in0.0 mm 0.00 in/hr0.0 mm/hr 0.00 in0.0 mm
12:07 AM 28.0°F-2.2°C -0.8°F-18.2°C 28% 4.5 mph N7.2 kmh N 11.4 mph18.3 kmh 29.99 in1015.6 mb 0.00 in0.0 mm 0.00 in/hr0.0 mm/hr 0.00 in0.0 mm
12:08 AM 28.0°F-2.2°C -0.8°F-18.2°C 28% 6.0 mph NNW9.7 kmh NNW 11.4 mph18.3 kmh 29.99 in1015.6 mb 0.00 in0.0 mm 0.00 in/hr0.0 mm/hr 0.00 in0.0 mm
12:09 AM 28.2°F-2.1°C -0.6°F-18.1°C 28% 5.4 mph N8.7 kmh N 11.4 mph18.3 kmh 29.99 in1015.6 mb 0.00 in0.0 mm 0.00 in/hr0.0 mm/hr 0.00 in0.0 mm
12:10 AM 28.0°F-2.2°C -0.8°F-18.2°C 28% 6.0 mph NNW9.7 kmh NNW 11.4 mph18.3 kmh 29.99 in1015.6 mb 0.00 in0.0 mm 0.00 in/hr0.0 mm/hr 0.00 in0.0 mm
12:11 AM 28.2°F-2.1°C -1.4°F-18.6°C 27% 4.5 mph NNW7.2 kmh NNW 11.4 mph18.3 kmh 29.99 in1015.6 mb 0.00 in0.0 mm 0.00 in/hr0.0 mm/hr 0.00 in0.0 mm
12:12 AM 28.0°F-2.2°C -1.6°F-18.7°C 27% 6.9 mph NNW11.1 kmh NNW 11.4 mph18.3 kmh 29.99 in1015.6 mb 0.00 in0.0 mm 0.00 in/hr0.0 mm/hr 0.00 in0.0 mm
12:13 AM 28.2°F-2.1°C -1.4°F-18.6°C 27% 5.4 mph NNW8.7 kmh NNW 11.4 mph18.3 kmh 29.99 in1015.6 mb 0.00 in0.0 mm 0.00 in/hr0.0 mm/hr 0.00 in0.0 mm
12:14 AM 28.0°F-2.2°C -2.4°F-19.1°C 26% 6.9 mph NNW11.1 kmh NNW 11.4 mph18.3 kmh 29.99 in1015.6 mb 0.00 in0.0 mm 0.00 in/hr0.0 mm/hr 0.00 in0.0 mm
12:15 AM 28.2°F-2.1°C -2.2°F-19.0°C 26% 4.5 mph N7.2 kmh N 10.7 mph17.2 kmh 29.99 in1015.6 mb 0.00 in0.0 mm 0.00 in/hr0.0 mm/hr 0.00 in0.0 mm
12:16 AM 28.0°F-2.2°C -2.4°F-19.1°C 26% 3.8 mph N6.1 kmh N 10.7 mph17.2 kmh 29.99 in1015.6 mb 0.00 in0.0 mm 0.00 in/hr0.0 mm/hr 0.00 in0.0 mm
12:17 AM 28.0°F-2.2°C -2.4°F-19.1°C 26% 7.6 mph N12.2 kmh N 13.6 mph21.9 kmh 29.99 in1015.6 mb 0.00 in0.0 mm 0.00 in/hr0.0 mm/hr 0.00 in0.0 mm
12:18 AM 28.2°F-2.1°C -2.2°F-19.0°C 26% 6.9 mph N11.1 kmh N 13.6 mph21.9 kmh 29.99 in1015.6 mb 0.00 in0.0 mm 0.00 in/hr0.0 mm/hr 0.00 in0.0 mm
12:19 AM 28.2°F-2.1°C -3.0°F-19.4°C 25% 6.0 mph N9.7 kmh N 13.6 mph21.9 kmh 30.00 in1015.9 mb 0.00 in0.0 mm 0.00 in/hr0.0 mm/hr 0.00 in0.0 mm
12:20 AM 28.2°F-2.1°C -3.0°F-19.4°C 25% 6.9 mph N11.1 kmh N 13.6 mph21.9 kmh 29.99 in1015.6 mb 0.00 in0.0 mm 0.00 in/hr0.0 mm/hr 0.00 in0.0 mm
12:21 AM 28.0°F-2.2°C -3.2°F-19.6°C 25% 5.4 mph NNW8.7 kmh NNW 13.6 mph21.9 kmh 29.99 in1015.6 mb 0.00 in0.0 mm 0.00 in/hr0.0 mm/hr 0.00 in0.0 mm
12:22 AM 28.0°F-2.2°C -3.2°F-19.6°C 25% 8.3 mph NNW13.4 kmh NNW 13.6 mph21.9 kmh 29.99 in1015.6 mb 0.00 in0.0 mm 0.00 in/hr0.0 mm/hr 0.00 in0.0 mm
12:23 AM 28.4°F-2.0°C -0.5°F-18.1°C 28% 6.9 mph N11.1 kmh N 13.6 mph21.9 kmh 29.99 in1015.6 mb 0.00 in0.0 mm 0.00 in/hr0.0 mm/hr 0.00 in0.0 mm
12:24 AM 28.4°F-2.0°C -0.5°F-18.1°C 28% 7.6 mph N12.2 kmh N 13.6 mph21.9 kmh 29.99 in1015.6 mb 0.00 in0.0 mm 0.00 in/hr0.0 mm/hr 0.00 in0.0 mm
12:25 AM 28.2°F-2.1°C -4.8°F-20.4°C 23% 4.5 mph N7.2 kmh N 13.6 mph21.9 kmh 29.99 in1015.6 mb 0.00 in0.0 mm 0.00 in/hr0.0 mm/hr 0.00 in0.0 mm
12:26 AM 28.2°F-2.1°C -4.8°F-20.4°C 23% 5.4 mph N8.7 kmh N 13.6 mph21.9 kmh 29.99 in1015.6 mb 0.00 in0.0 mm 0.00 in/hr0.0 mm/hr 0.00 in0.0 mm
12:27 AM 28.2°F-2.1°C -4.8°F-20.4°C 23% 4.5 mph N7.2 kmh N 13.6 mph21.9 kmh 30.00 in1015.9 mb 0.00 in0.0 mm 0.00 in/hr0.0 mm/hr 0.00 in0.0 mm
12:28 AM 28.0°F-2.2°C -4.9°F-20.5°C 23% 6.0 mph N9.7 kmh N 11.4 mph18.3 kmh 29.99 in1015.6 mb 0.00 in0.0 mm 0.00 in/hr0.0 mm/hr 0.00 in0.0 mm
12:29 AM 28.0°F-2.2°C -4.9°F-20.5°C 23% 7.6 mph N12.2 kmh N 11.4 mph18.3 kmh 29.99 in1015.6 mb 0.00 in0.0 mm 0.00 in/hr0.0 mm/hr 0.00 in0.0 mm
12:30 AM 28.2°F-2.1°C -4.8°F-20.4°C 23% 6.9 mph N11.1 kmh N 13.6 mph21.9 kmh 30.00 in1015.9 mb 0.00 in0.0 mm 0.00 in/hr0.0 mm/hr 0.00 in0.0 mm
12:31 AM 28.2°F-2.1°C -4.8°F-20.4°C 23% 6.9 mph N11.1 kmh N 13.6 mph21.9 kmh 30.00 in1015.9 mb 0.00 in0.0 mm 0.00 in/hr0.0 mm/hr 0.00 in0.0 mm
12:32 AM 28.2°F-2.1°C -4.8°F-20.4°C 23% 6.9 mph N11.1 kmh N 13.6 mph21.9 kmh 29.99 in1015.6 mb 0.00 in0.0 mm 0.00 in/hr0.0 mm/hr 0.00 in0.0 mm
12:33 AM 28.2°F-2.1°C -4.8°F-20.4°C 23% 6.9 mph N11.1 kmh N 13.6 mph21.9 kmh 30.00 in1015.9 mb 0.00 in0.0 mm 0.00 in/hr0.0 mm/hr 0.00 in0.0 mm
12:34 AM 28.2°F-2.1°C -4.8°F-20.4°C 23% 6.9 mph N11.1 kmh N 13.6 mph21.9 kmh 30.00 in1015.9 mb 0.00 in0.0 mm 0.00 in/hr0.0 mm/hr 0.00 in0.0 mm
12:35 AM 28.2°F-2.1°C -4.8°F-20.4°C 23% 6.9 mph NNW11.1 kmh NNW 13.6 mph21.9 kmh 30.00 in1015.9 mb 0.00 in0.0 mm 0.00 in/hr0.0 mm/hr 0.00 in0.0 mm
12:36 AM 28.0°F-2.2°C -4.9°F-20.5°C 23% 4.5 mph NNW7.2 kmh NNW 13.6 mph21.9 kmh 30.00 in1015.9 mb 0.00 in0.0 mm 0.00 in/hr0.0 mm/hr 0.00 in0.0 mm
12:37 AM 27.9°F-2.3°C -5.1°F-20.6°C 23% 5.4 mph NNW8.7 kmh NNW 13.6 mph21.9 kmh 30.00 in1015.9 mb 0.00 in0.0 mm 0.00 in/hr0.0 mm/hr 0.00 in0.0 mm
12:38 AM 27.9°F-2.3°C -5.1°F-20.6°C 23% 6.9 mph NNW11.1 kmh NNW 13.6 mph21.9 kmh 30.00 in1015.9 mb 0.00 in0.0 mm 0.00 in/hr0.0 mm/hr 0.00 in0.0 mm
12:39 AM 28.0°F-2.2°C -4.9°F-20.5°C 23% 5.4 mph NNW8.7 kmh NNW 13.6 mph21.9 kmh 30.00 in1015.9 mb 0.00 in0.0 mm 0.00 in/hr0.0 mm/hr 0.00 in0.0 mm
12:40 AM 27.9°F-2.3°C -5.1°F-20.6°C 23% 4.5 mph NNW7.2 kmh NNW 13.6 mph21.9 kmh 30.00 in1015.9 mb 0.00 in0.0 mm 0.00 in/hr0.0 mm/hr 0.00 in0.0 mm
12:41 AM 27.9°F-2.3°C -5.1°F-20.6°C 23% 5.4 mph NNW8.7 kmh NNW 13.6 mph21.9 kmh 30.00 in1015.9 mb 0.00 in0.0 mm 0.00 in/hr0.0 mm/hr 0.00 in0.0 mm
12:42 AM 27.7°F-2.4°C -5.2°F-20.7°C 23% 5.4 mph NNW8.7 kmh NNW 13.6 mph21.9 kmh 30.00 in1015.9 mb 0.00 in0.0 mm 0.00 in/hr0.0 mm/hr 0.00 in0.0 mm
12:43 AM 27.7°F-2.4°C -5.2°F-20.7°C 23% 6.0 mph NNW9.7 kmh NNW 13.6 mph21.9 kmh 30.00 in1015.9 mb 0.00 in0.0 mm 0.00 in/hr0.0 mm/hr 0.00 in0.0 mm
12:44 AM 27.7°F-2.4°C -5.2°F-20.7°C 23% 3.8 mph NNW6.1 kmh NNW 13.6 mph21.9 kmh 29.99 in1015.6 mb 0.00 in0.0 mm 0.00 in/hr0.0 mm/hr 0.00 in0.0 mm
12:45 AM 27.7°F-2.4°C -5.2°F-20.7°C 23% 4.5 mph NNW7.2 kmh NNW 10.7 mph17.2 kmh 30.00 in1015.9 mb 0.00 in0.0 mm 0.00 in/hr0.0 mm/hr 0.00 in0.0 mm
12:46 AM 27.7°F-2.4°C -5.2°F-20.7°C 23% 4.5 mph NNW7.2 kmh NNW 10.7 mph17.2 kmh 30.00 in1015.9 mb 0.00 in0.0 mm 0.00 in/hr0.0 mm/hr 0.00 in0.0 mm
12:47 AM 27.5°F-2.5°C -5.4°F-20.8°C 23% 5.4 mph NNW8.7 kmh NNW 10.7 mph17.2 kmh 29.99 in1015.6 mb 0.00 in0.0 mm 0.00 in/hr0.0 mm/hr 0.00 in0.0 mm
12:48 AM 27.5°F-2.5°C -5.4°F-20.8°C 23% 3.1 mph NNW5.0 kmh NNW 10.7 mph17.2 kmh 30.00 in1015.9 mb 0.00 in0.0 mm 0.00 in/hr0.0 mm/hr 0.00 in0.0 mm
12:49 AM 27.3°F-2.6°C -3.8°F-19.9°C 25% 4.5 mph NW7.2 kmh NW 10.7 mph17.2 kmh 30.00 in1015.9 mb 0.00 in0.0 mm 0.00 in/hr0.0 mm/hr 0.00 in0.0 mm
12:50 AM 27.3°F-2.6°C -3.0°F-19.4°C 26% 3.8 mph NW6.1 kmh NW 10.7 mph17.2 kmh 30.00 in1015.9 mb 0.00 in0.0 mm 0.00 in/hr0.0 mm/hr 0.00 in0.0 mm
12:51 AM 27.3°F-2.6°C -3.0°F-19.4°C 26% 4.5 mph NW7.2 kmh NW 10.7 mph17.2 kmh 30.00 in1015.9 mb 0.00 in0.0 mm 0.00 in/hr0.0 mm/hr 0.00 in0.0 mm
12:52 AM 27.3°F-2.6°C -3.0°F-19.4°C 26% 4.5 mph NW7.2 kmh NW 10.7 mph17.2 kmh 30.00 in1015.9 mb 0.00 in0.0 mm 0.00 in/hr0.0 mm/hr 0.00 in0.0 mm
12:53 AM 27.3°F-2.6°C -3.0°F-19.4°C 26% 4.5 mph NW7.2 kmh NW 10.7 mph17.2 kmh 30.00 in1015.9 mb 0.00 in0.0 mm 0.00 in/hr0.0 mm/hr 0.00 in0.0 mm
12:54 AM 27.3°F-2.6°C -2.2°F-19.0°C 27% 5.4 mph NNW8.7 kmh NNW 10.7 mph17.2 kmh 30.00 in1015.9 mb 0.00 in0.0 mm 0.00 in/hr0.0 mm/hr 0.00 in0.0 mm
12:55 AM 27.3°F-2.6°C -2.2°F-19.0°C 27% 3.8 mph NW6.1 kmh NW 10.7 mph17.2 kmh 30.00 in1015.9 mb 0.00 in0.0 mm 0.00 in/hr0.0 mm/hr 0.00 in0.0 mm
12:56 AM 27.1°F-2.7°C -1.6°F-18.7°C 28% 5.4 mph NW8.7 kmh NW 10.7 mph17.2 kmh 30.00 in1015.9 mb 0.00 in0.0 mm 0.00 in/hr0.0 mm/hr 0.00 in0.0 mm
12:57 AM 27.5°F-2.5°C -2.0°F-18.9°C 27% 6.9 mph NW11.1 kmh NW 12.1 mph19.5 kmh 30.00 in1015.9 mb 0.00 in0.0 mm 0.00 in/hr0.0 mm/hr 0.00 in0.0 mm
12:58 AM 27.5°F-2.5°C -2.0°F-18.9°C 27% 6.0 mph NW9.7 kmh NW 12.1 mph19.5 kmh 30.00 in1015.9 mb 0.00 in0.0 mm 0.00 in/hr0.0 mm/hr 0.00 in0.0 mm
12:59 AM 27.5°F-2.5°C -2.0°F-18.9°C 27% 6.9 mph NW11.1 kmh NW 12.1 mph19.5 kmh 30.00 in1015.9 mb 0.00 in0.0 mm 0.00 in/hr0.0 mm/hr 0.00 in0.0 mm
01:00 AM 27.5°F-2.5°C -2.0°F-18.9°C 27% 4.5 mph NNW7.2 kmh NNW 12.1 mph19.5 kmh 29.99 in1015.6 mb 0.00 in0.0 mm 0.00 in/hr0.0 mm/hr 0.00 in0.0 mm
01:01 AM 27.3°F-2.6°C -2.2°F-19.0°C 27% 6.0 mph NNW9.7 kmh NNW 12.1 mph19.5 kmh 29.99 in1015.6 mb 0.00 in0.0 mm 0.00 in/hr0.0 mm/hr 0.00 in0.0 mm
01:02 AM 27.3°F-2.6°C -2.2°F-19.0°C 27% 6.0 mph NNW9.7 kmh NNW 12.1 mph19.5 kmh 30.00 in1015.9 mb 0.00 in0.0 mm 0.00 in/hr0.0 mm/hr 0.00 in0.0 mm
01:03 AM 27.1°F-2.7°C -2.3°F-19.1°C 27% 6.9 mph NNW11.1 kmh NNW 12.1 mph19.5 kmh 30.00 in1015.9 mb 0.00 in0.0 mm 0.00 in/hr0.0 mm/hr 0.00 in0.0 mm
01:04 AM 27.3°F-2.6°C -2.2°F-19.0°C 27% 7.6 mph NNW12.2 kmh NNW 12.1 mph19.5 kmh 29.99 in1015.6 mb 0.00 in0.0 mm 0.00 in/hr0.0 mm/hr 0.00 in0.0 mm
01:05 AM 27.3°F-2.6°C -2.2°F-19.0°C 27% 7.6 mph NNW12.2 kmh NNW 13.0 mph20.9 kmh 30.00 in1015.9 mb 0.00 in0.0 mm 0.00 in/hr0.0 mm/hr 0.00 in0.0 mm
01:06 AM 27.3°F-2.6°C -2.2°F-19.0°C 27% 4.5 mph NNW7.2 kmh NNW 13.0 mph20.9 kmh 30.00 in1015.9 mb 0.00 in0.0 mm 0.00 in/hr0.0 mm/hr 0.00 in0.0 mm
01:07 AM 27.3°F-2.6°C -2.2°F-19.0°C 27% 6.0 mph NNW9.7 kmh NNW 13.0 mph20.9 kmh 30.00 in1015.9 mb 0.00 in0.0 mm 0.00 in/hr0.0 mm/hr 0.00 in0.0 mm
01:08 AM 27.3°F-2.6°C -2.2°F-19.0°C 27% 4.5 mph N7.2 kmh N 13.0 mph20.9 kmh 30.00 in1015.9 mb 0.00 in0.0 mm 0.00 in/hr0.0 mm/hr 0.00 in0.0 mm
01:09 AM 27.3°F-2.6°C -2.2°F-19.0°C 27% 6.9 mph N11.1 kmh N 13.0 mph20.9 kmh 30.00 in1015.9 mb 0.00 in0.0 mm 0.00 in/hr0.0 mm/hr 0.00 in0.0 mm
01:10 AM 27.3°F-2.6°C -2.2°F-19.0°C 27% 5.4 mph NNW8.7 kmh NNW 13.0 mph20.9 kmh 30.00 in1015.9 mb 0.00 in0.0 mm 0.00 in/hr0.0 mm/hr 0.00 in0.0 mm
01:11 AM 27.1°F-2.7°C -2.3°F-19.1°C 27% 6.9 mph NNW11.1 kmh NNW 13.0 mph20.9 kmh 30.00 in1015.9 mb 0.00 in0.0 mm 0.00 in/hr0.0 mm/hr 0.00 in0.0 mm
01:12 AM 27.3°F-2.6°C -2.2°F-19.0°C 27% 6.0 mph NNW9.7 kmh NNW 13.0 mph20.9 kmh 30.00 in1015.9 mb 0.00 in0.0 mm 0.00 in/hr0.0 mm/hr 0.00 in0.0 mm
01:13 AM 27.1°F-2.7°C -2.3°F-19.1°C 27% 6.9 mph NNW11.1 kmh NNW 13.0 mph20.9 kmh 30.00 in1015.9 mb 0.00 in0.0 mm 0.00 in/hr0.0 mm/hr 0.00 in0.0 mm
01:14 AM 27.3°F-2.6°C -2.2°F-19.0°C 27% 5.4 mph N8.7 kmh N 13.0 mph20.9 kmh 30.00 in1015.9 mb 0.00 in0.0 mm 0.00 in/hr0.0 mm/hr 0.00 in0.0 mm
01:15 AM 27.1°F-2.7°C -2.3°F-19.1°C 27% 5.4 mph N8.7 kmh N 13.0 mph20.9 kmh 30.00 in1015.9 mb 0.00 in0.0 mm 0.00 in/hr0.0 mm/hr 0.00 in0.0 mm
01:16 AM 27.1°F-2.7°C -2.3°F-19.1°C 27% 6.9 mph N11.1 kmh N 9.8 mph15.8 kmh 30.00 in1015.9 mb 0.00 in0.0 mm 0.00 in/hr0.0 mm/hr 0.00 in0.0 mm
01:17 AM 27.1°F-2.7°C -2.3°F-19.1°C 27% 5.4 mph N8.7 kmh N 9.8 mph15.8 kmh 30.00 in1015.9 mb 0.00 in0.0 mm 0.00 in/hr0.0 mm/hr 0.00 in0.0 mm
01:18 AM 27.1°F-2.7°C -2.3°F-19.1°C 27% 7.6 mph NNW12.2 kmh NNW 10.7 mph17.2 kmh 30.00 in1015.9 mb 0.00 in0.0 mm 0.00 in/hr0.0 mm/hr 0.00 in0.0 mm
01:19 AM 27.1°F-2.7°C -2.3°F-19.1°C 27% 5.4 mph NNW8.7 kmh NNW 10.7 mph17.2 kmh 30.00 in1015.9 mb 0.00 in0.0 mm 0.00 in/hr0.0 mm/hr 0.00 in0.0 mm
01:20 AM 27.1°F-2.7°C -2.3°F-19.1°C 27% 6.0 mph NNW9.7 kmh NNW 10.7 mph17.2 kmh 30.00 in1015.9 mb 0.00 in0.0 mm 0.00 in/hr0.0 mm/hr 0.00 in0.0 mm
01:21 AM 27.0°F-2.8°C -2.5°F-19.2°C 27% 6.0 mph NNW9.7 kmh NNW 10.7 mph17.2 kmh 30.00 in1015.9 mb 0.00 in0.0 mm 0.00 in/hr0.0 mm/hr 0.00 in0.0 mm
01:22 AM 27.1°F-2.7°C -2.3°F-19.1°C 27% 5.4 mph NNW8.7 kmh NNW 10.7 mph17.2 kmh 30.00 in1015.9 mb 0.00 in0.0 mm 0.00 in/hr0.0 mm/hr 0.00 in0.0 mm
01:23 AM 27.0°F-2.8°C -1.7°F-18.7°C 28% 6.0 mph NNW9.7 kmh NNW 10.7 mph17.2 kmh 30.00 in1015.9 mb 0.00 in0.0 mm 0.00 in/hr0.0 mm/hr 0.00 in0.0 mm
01:24 AM 27.0°F-2.8°C -1.7°F-18.7°C 28% 5.4 mph NNW8.7 kmh NNW 10.7 mph17.2 kmh 30.00 in1015.9 mb 0.00 in0.0 mm 0.00 in/hr0.0 mm/hr 0.00 in0.0 mm
01:25 AM 26.8°F-2.9°C -1.9°F-18.8°C 28% 7.6 mph NNW12.2 kmh NNW 10.7 mph17.2 kmh 30.00 in1015.9 mb 0.00 in0.0 mm 0.00 in/hr0.0 mm/hr 0.00 in0.0 mm
01:26 AM 27.0°F-2.8°C -1.7°F-18.7°C 28% 6.0 mph NNW9.7 kmh NNW 10.7 mph17.2 kmh 30.00 in1015.9 mb 0.00 in0.0 mm 0.00 in/hr0.0 mm/hr 0.00 in0.0 mm
01:27 AM 27.0°F-2.8°C -2.5°F-19.2°C 27% 6.9 mph NNW11.1 kmh NNW 10.7 mph17.2 kmh 30.00 in1015.9 mb 0.00 in0.0 mm 0.00 in/hr0.0 mm/hr 0.00 in0.0 mm
01:28 AM 27.1°F-2.7°C -1.6°F-18.7°C 28% 6.9 mph NNW11.1 kmh NNW 10.7 mph17.2 kmh 30.00 in1015.9 mb 0.00 in0.0 mm 0.00 in/hr0.0 mm/hr 0.00 in0.0 mm
01:29 AM 27.0°F-2.8°C -2.5°F-19.2°C 27% 6.9 mph NNW11.1 kmh NNW 11.4 mph18.3 kmh 30.00 in1015.9 mb 0.00 in0.0 mm 0.00 in/hr0.0 mm/hr 0.00 in0.0 mm
01:30 AM 27.0°F-2.8°C -2.5°F-19.2°C 27% 5.4 mph NNW8.7 kmh NNW 11.4 mph18.3 kmh 30.00 in1015.9 mb 0.00 in0.0 mm 0.00 in/hr0.0 mm/hr 0.00 in0.0 mm
01:31 AM 27.0°F-2.8°C -2.5°F-19.2°C 27% 5.4 mph NNW8.7 kmh NNW 11.4 mph18.3 kmh 30.00 in1015.9 mb 0.00 in0.0 mm 0.00 in/hr0.0 mm/hr 0.00 in0.0 mm
01:32 AM 27.0°F-2.8°C -2.5°F-19.2°C 27% 6.0 mph NNW9.7 kmh NNW 11.4 mph18.3 kmh 30.00 in1015.9 mb 0.00 in0.0 mm 0.00 in/hr0.0 mm/hr 0.00 in0.0 mm
01:33 AM 27.0°F-2.8°C -2.5°F-19.2°C 27% 6.0 mph NNW9.7 kmh NNW 11.4 mph18.3 kmh 30.00 in1015.9 mb 0.00 in0.0 mm 0.00 in/hr0.0 mm/hr 0.00 in0.0 mm
01:34 AM 27.0°F-2.8°C -2.5°F-19.2°C 27% 6.9 mph NNW11.1 kmh NNW 11.4 mph18.3 kmh 30.00 in1015.9 mb 0.00 in0.0 mm 0.00 in/hr0.0 mm/hr 0.00 in0.0 mm
01:35 AM 26.8°F-2.9°C -2.7°F-19.3°C 27% 5.4 mph NNW8.7 kmh NNW 11.4 mph18.3 kmh 30.00 in1015.9 mb 0.00 in0.0 mm 0.00 in/hr0.0 mm/hr 0.00 in0.0 mm
01:36 AM 26.8°F-2.9°C -1.9°F-18.8°C 28% 4.5 mph NNW7.2 kmh NNW 11.4 mph18.3 kmh 30.00 in1015.9 mb 0.00 in0.0 mm 0.00 in/hr0.0 mm/hr 0.00 in0.0 mm
01:37 AM 27.0°F-2.8°C -2.5°F-19.2°C 27% 5.4 mph NNW8.7 kmh NNW 11.4 mph18.3 kmh 30.01 in1016.3 mb 0.00 in0.0 mm 0.00 in/hr0.0 mm/hr 0.00 in0.0 mm
01:38 AM 26.8°F-2.9°C -1.9°F-18.8°C 28% 4.5 mph N7.2 kmh N 11.4 mph18.3 kmh 30.01 in1016.3 mb 0.00 in0.0 mm 0.00 in/hr0.0 mm/hr 0.00 in0.0 mm
01:39 AM 26.8°F-2.9°C -1.9°F-18.8°C 28% 9.2 mph N14.8 kmh N 13.0 mph20.9 kmh 30.01 in1016.3 mb 0.00 in0.0 mm 0.00 in/hr0.0 mm/hr 0.00 in0.0 mm
01:40 AM 27.0°F-2.8°C -1.7°F-18.7°C 28% 6.0 mph N9.7 kmh N 14.5 mph23.3 kmh 30.01 in1016.3 mb 0.00 in0.0 mm 0.00 in/hr0.0 mm/hr 0.00 in0.0 mm
01:41 AM 27.0°F-2.8°C -2.5°F-19.2°C 27% 6.0 mph N9.7 kmh N 14.5 mph23.3 kmh 30.01 in1016.3 mb 0.00 in0.0 mm 0.00 in/hr0.0 mm/hr 0.00 in0.0 mm
01:42 AM 27.0°F-2.8°C -2.5°F-19.2°C 27% 4.5 mph N7.2 kmh N 14.5 mph23.3 kmh 30.01 in1016.3 mb 0.00 in0.0 mm 0.00 in/hr0.0 mm/hr 0.00 in0.0 mm
01:43 AM 26.8°F-2.9°C -2.7°F-19.3°C 27% 6.0 mph N9.7 kmh N 14.5 mph23.3 kmh 30.01 in1016.3 mb 0.00 in0.0 mm 0.00 in/hr0.0 mm/hr 0.00 in0.0 mm
01:44 AM 26.8°F-2.9°C -1.9°F-18.8°C 28% 6.9 mph N11.1 kmh N 14.5 mph23.3 kmh 30.01 in1016.3 mb 0.00 in0.0 mm 0.00 in/hr0.0 mm/hr 0.00 in0.0 mm
01:45 AM 26.8°F-2.9°C -1.9°F-18.8°C 28% 6.0 mph N9.7 kmh N 14.5 mph23.3 kmh 30.01 in1016.3 mb 0.00 in0.0 mm 0.00 in/hr0.0 mm/hr 0.00 in0.0 mm
01:46 AM 26.8°F-2.9°C -1.9°F-18.8°C 28% 6.0 mph N9.7 kmh N 14.5 mph23.3 kmh 30.01 in1016.3 mb 0.00 in0.0 mm 0.00 in/hr0.0 mm/hr 0.00 in0.0 mm
01:47 AM 26.8°F-2.9°C -1.9°F-18.8°C 28% 4.5 mph N7.2 kmh N 14.5 mph23.3 kmh 30.01 in1016.3 mb 0.00 in0.0 mm 0.00 in/hr0.0 mm/hr 0.00 in0.0 mm
01:48 AM 26.8°F-2.9°C -2.7°F-19.3°C 27% 6.9 mph N11.1 kmh N 14.5 mph23.3 kmh 30.01 in1016.3 mb 0.00 in0.0 mm 0.00 in/hr0.0 mm/hr 0.00 in0.0 mm
01:49 AM 27.0°F-2.8°C -2.5°F-19.2°C 27% 6.0 mph N9.7 kmh N 14.5 mph23.3 kmh 30.01 in1016.3 mb 0.00 in0.0 mm 0.00 in/hr0.0 mm/hr 0.00 in0.0 mm
01:50 AM 27.0°F-2.8°C -2.5°F-19.2°C 27% 6.0 mph N9.7 kmh N 11.4 mph18.3 kmh 30.01 in1016.3 mb 0.00 in0.0 mm 0.00 in/hr0.0 mm/hr 0.00 in0.0 mm
01:51 AM 27.0°F-2.8°C -2.5°F-19.2°C 27% 3.8 mph N6.1 kmh N 11.4 mph18.3 kmh 30.01 in1016.3 mb 0.00 in0.0 mm 0.00 in/hr0.0 mm/hr 0.00 in0.0 mm
01:52 AM 26.8°F-2.9°C -2.7°F-19.3°C 27% 4.5 mph N7.2 kmh N 11.4 mph18.3 kmh 30.01 in1016.3 mb 0.00 in0.0 mm 0.00 in/hr0.0 mm/hr 0.00 in0.0 mm
01:53 AM 26.8°F-2.9°C -2.7°F-19.3°C 27% 5.4 mph N8.7 kmh N 11.4 mph18.3 kmh 30.02 in1016.6 mb 0.00 in0.0 mm 0.00 in/hr0.0 mm/hr 0.00 in0.0 mm
01:54 AM 26.8°F-2.9°C -2.7°F-19.3°C 27% 3.8 mph N6.1 kmh N 11.4 mph18.3 kmh 30.02 in1016.6 mb 0.00 in0.0 mm 0.00 in/hr0.0 mm/hr 0.00 in0.0 mm
01:55 AM 26.6°F-3.0°C -2.8°F-19.3°C 27% 4.5 mph N7.2 kmh N 9.2 mph14.8 kmh 30.02 in1016.6 mb 0.00 in0.0 mm 0.00 in/hr0.0 mm/hr 0.00 in0.0 mm
01:56 AM 26.8°F-2.9°C -2.7°F-19.3°C 27% 4.5 mph N7.2 kmh N 9.2 mph14.8 kmh 30.02 in1016.6 mb 0.00 in0.0 mm 0.00 in/hr0.0 mm/hr 0.00 in0.0 mm
01:57 AM 26.8°F-2.9°C -2.7°F-19.3°C 27% 6.0 mph NNW9.7 kmh NNW 13.0 mph20.9 kmh 30.02 in1016.6 mb 0.00 in0.0 mm 0.00 in/hr0.0 mm/hr 0.00 in0.0 mm
01:58 AM 26.8°F-2.9°C -2.7°F-19.3°C 27% 3.8 mph NNW6.1 kmh NNW 13.0 mph20.9 kmh 30.02 in1016.6 mb 0.00 in0.0 mm 0.00 in/hr0.0 mm/hr 0.00 in0.0 mm
01:59 AM 26.8°F-2.9°C -2.7°F-19.3°C 27% 5.4 mph NNW8.7 kmh NNW 13.0 mph20.9 kmh 30.02 in1016.6 mb 0.00 in0.0 mm 0.00 in/hr0.0 mm/hr 0.00 in0.0 mm
02:00 AM 26.8°F-2.9°C -2.7°F-19.3°C 27% 3.1 mph NNW5.0 kmh NNW 13.0 mph20.9 kmh 30.02 in1016.6 mb 0.00 in0.0 mm 0.00 in/hr0.0 mm/hr 0.00 in0.0 mm
02:01 AM 26.8°F-2.9°C -1.9°F-18.8°C 28% 4.5 mph NNW7.2 kmh NNW 13.0 mph20.9 kmh 30.02 in1016.6 mb 0.00 in0.0 mm 0.00 in/hr0.0 mm/hr 0.00 in0.0 mm
02:02 AM 26.6°F-3.0°C -2.0°F-18.9°C 28% 5.4 mph NNW8.7 kmh NNW 13.0 mph20.9 kmh 30.02 in1016.6 mb 0.00 in0.0 mm 0.00 in/hr0.0 mm/hr 0.00 in0.0 mm
02:03 AM 26.6°F-3.0°C -2.0°F-18.9°C 28% 6.0 mph NNW9.7 kmh NNW 13.0 mph20.9 kmh 30.02 in1016.6 mb 0.00 in0.0 mm 0.00 in/hr0.0 mm/hr 0.00 in0.0 mm
02:04 AM 26.8°F-2.9°C -1.9°F-18.8°C 28% 3.8 mph NNW6.1 kmh NNW 13.0 mph20.9 kmh 30.02 in1016.6 mb 0.00 in0.0 mm 0.00 in/hr0.0 mm/hr 0.00 in0.0 mm
02:05 AM 26.6°F-3.0°C -2.0°F-18.9°C 28% 4.5 mph NNW7.2 kmh NNW 13.0 mph20.9 kmh 30.02 in1016.6 mb 0.00 in0.0 mm 0.00 in/hr0.0 mm/hr 0.00 in0.0 mm
02:06 AM 26.6°F-3.0°C -2.0°F-18.9°C 28% 4.5 mph NNW7.2 kmh NNW 13.0 mph20.9 kmh 30.02 in1016.6 mb 0.00 in0.0 mm 0.00 in/hr0.0 mm/hr 0.00 in0.0 mm
02:07 AM 26.6°F-3.0°C -2.0°F-18.9°C 28% 3.1 mph NNW5.0 kmh NNW 13.0 mph20.9 kmh 30.02 in1016.6 mb 0.00 in0.0 mm 0.00 in/hr0.0 mm/hr 0.00 in0.0 mm
02:08 AM 26.4°F-3.1°C -0.8°F-18.2°C 30% 2.2 mph NNW3.5 kmh NNW 9.8 mph15.8 kmh 30.02 in1016.6 mb 0.00 in0.0 mm 0.00 in/hr0.0 mm/hr 0.00 in0.0 mm
02:09 AM 26.4°F-3.1°C -0.8°F-18.2°C 30% 2.2 mph NNW3.5 kmh NNW 9.8 mph15.8 kmh 30.02 in1016.6 mb 0.00 in0.0 mm 0.00 in/hr0.0 mm/hr 0.00 in0.0 mm
02:10 AM 26.4°F-3.1°C -0.8°F-18.2°C 30% 3.1 mph NNW5.0 kmh NNW 9.8 mph15.8 kmh 30.02 in1016.6 mb 0.00 in0.0 mm 0.00 in/hr0.0 mm/hr 0.00 in0.0 mm
02:11 AM 26.2°F-3.2°C -0.9°F-18.3°C 30% 3.1 mph N5.0 kmh N 7.6 mph12.2 kmh 30.02 in1016.6 mb 0.00 in0.0 mm 0.00 in/hr0.0 mm/hr 0.00 in0.0 mm
02:12 AM 26.1°F-3.3°C -0.4°F-18.0°C 31% 3.8 mph N6.1 kmh N 7.6 mph12.2 kmh 30.03 in1016.9 mb 0.00 in0.0 mm 0.00 in/hr0.0 mm/hr 0.00 in0.0 mm
02:13 AM 26.2°F-3.2°C -0.2°F-17.9°C 31% 3.8 mph N6.1 kmh N 6.9 mph11.1 kmh 30.03 in1016.9 mb 0.00 in0.0 mm 0.00 in/hr0.0 mm/hr 0.00 in0.0 mm
02:14 AM 26.4°F-3.1°C -0.1°F-17.8°C 31% 4.5 mph N7.2 kmh N 8.3 mph13.4 kmh 30.03 in1016.9 mb 0.00 in0.0 mm 0.00 in/hr0.0 mm/hr 0.00 in0.0 mm
02:15 AM 26.4°F-3.1°C -0.1°F-17.8°C 31% 3.8 mph NNW6.1 kmh NNW 8.3 mph13.4 kmh 30.02 in1016.6 mb 0.00 in0.0 mm 0.00 in/hr0.0 mm/hr 0.00 in0.0 mm
02:16 AM 26.2°F-3.2°C -0.2°F-17.9°C 31% 3.8 mph NNW6.1 kmh NNW 8.3 mph13.4 kmh 30.03 in1016.9 mb 0.00 in0.0 mm 0.00 in/hr0.0 mm/hr 0.00 in0.0 mm
02:17 AM 26.2°F-3.2°C -0.2°F-17.9°C 31% 3.8 mph NNW6.1 kmh NNW 8.3 mph13.4 kmh 30.03 in1016.9 mb 0.00 in0.0 mm 0.00 in/hr0.0 mm/hr 0.00 in0.0 mm
02:18 AM 26.2°F-3.2°C -0.2°F-17.9°C 31% 3.8 mph NNW6.1 kmh NNW 8.3 mph13.4 kmh 30.03 in1016.9 mb 0.00 in0.0 mm 0.00 in/hr0.0 mm/hr 0.00 in0.0 mm
02:19 AM 26.2°F-3.2°C -0.2°F-17.9°C 31% 3.8 mph NNW6.1 kmh NNW 8.3 mph13.4 kmh 30.03 in1016.9 mb 0.00 in0.0 mm 0.00 in/hr0.0 mm/hr 0.00 in0.0 mm
02:20 AM 26.2°F-3.2°C -0.2°F-17.9°C 31% 3.1 mph NNW5.0 kmh NNW 8.3 mph13.4 kmh 30.03 in1016.9 mb 0.00 in0.0 mm 0.00 in/hr0.0 mm/hr 0.00 in0.0 mm
02:21 AM 26.2°F-3.2°C -0.2°F-17.9°C 31% 3.8 mph NNW6.1 kmh NNW 8.3 mph13.4 kmh 30.03 in1016.9 mb 0.00 in0.0 mm 0.00 in/hr0.0 mm/hr 0.00 in0.0 mm
02:22 AM 26.2°F-3.2°C -0.2°F-17.9°C 31% 2.2 mph NW3.5 kmh NW 8.3 mph13.4 kmh 30.03 in1016.9 mb 0.00 in0.0 mm 0.00 in/hr0.0 mm/hr 0.00 in0.0 mm
02:23 AM 26.2°F-3.2°C -0.2°F-17.9°C 31% 3.8 mph NW6.1 kmh NW 8.3 mph13.4 kmh 30.03 in1016.9 mb 0.00 in0.0 mm 0.00 in/hr0.0 mm/hr 0.00 in0.0 mm
02:24 AM 26.2°F-3.2°C -0.2°F-17.9°C 31% 3.1 mph NNW5.0 kmh NNW 8.3 mph13.4 kmh 30.03 in1016.9 mb 0.00 in0.0 mm 0.00 in/hr0.0 mm/hr 0.00 in0.0 mm
02:25 AM 26.2°F-3.2°C -0.2°F-17.9°C 31% 2.2 mph NNW3.5 kmh NNW 6.9 mph11.1 kmh 30.03 in1016.9 mb 0.00 in0.0 mm 0.00 in/hr0.0 mm/hr 0.00 in0.0 mm
02:26 AM 26.1°F-3.3°C -0.4°F-18.0°C 31% 2.2 mph NNW3.5 kmh NNW 6.9 mph11.1 kmh 30.03 in1016.9 mb 0.00 in0.0 mm 0.00 in/hr0.0 mm/hr 0.00 in0.0 mm
02:27 AM 26.1°F-3.3°C -0.4°F-18.0°C 31% 2.2 mph NNW3.5 kmh NNW 6.9 mph11.1 kmh 30.03 in1016.9 mb 0.00 in0.0 mm 0.00 in/hr0.0 mm/hr 0.00 in0.0 mm
02:28 AM 26.1°F-3.3°C -0.4°F-18.0°C 31% 2.2 mph NNW3.5 kmh NNW 6.9 mph11.1 kmh 30.03 in1016.9 mb 0.00 in0.0 mm 0.00 in/hr0.0 mm/hr 0.00 in0.0 mm
02:29 AM 25.9°F-3.4°C -0.5°F-18.1°C 31% 1.6 mph NNW2.6 kmh NNW 6.9 mph11.1 kmh 30.03 in1016.9 mb 0.00 in0.0 mm 0.00 in/hr0.0 mm/hr 0.00 in0.0 mm
02:30 AM 25.9°F-3.4°C -0.5°F-18.1°C 31% 3.1 mph NNW5.0 kmh NNW 6.9 mph11.1 kmh 30.03 in1016.9 mb 0.00 in0.0 mm 0.00 in/hr0.0 mm/hr 0.00 in0.0 mm
02:31 AM 25.9°F-3.4°C -0.5°F-18.1°C 31% 3.1 mph NNW5.0 kmh NNW 6.9 mph11.1 kmh 30.03 in1016.9 mb 0.00 in0.0 mm 0.00 in/hr0.0 mm/hr 0.00 in0.0 mm
02:32 AM 25.9°F-3.4°C 0.1°F-17.7°C 32% 3.1 mph NNW5.0 kmh NNW 6.9 mph11.1 kmh 30.03 in1016.9 mb 0.00 in0.0 mm 0.00 in/hr0.0 mm/hr 0.00 in0.0 mm
02:33 AM 25.9°F-3.4°C 0.1°F-17.7°C 32% 1.6 mph NNW2.6 kmh NNW 6.9 mph11.1 kmh 30.04 in1017.3 mb 0.00 in0.0 mm 0.00 in/hr0.0 mm/hr 0.00 in0.0 mm
02:34 AM 25.7°F-3.5°C 0.0°F-17.8°C 32% 4.5 mph NNW7.2 kmh NNW 6.9 mph11.1 kmh 30.04 in1017.3 mb 0.00 in0.0 mm 0.00 in/hr0.0 mm/hr 0.00 in0.0 mm
02:35 AM 25.9°F-3.4°C 0.1°F-17.7°C 32% 3.1 mph NNW5.0 kmh NNW 6.0 mph9.7 kmh 30.03 in1016.9 mb 0.00 in0.0 mm 0.00 in/hr0.0 mm/hr 0.00 in0.0 mm
02:36 AM 25.9°F-3.4°C 0.1°F-17.7°C 32% 3.8 mph NNW6.1 kmh NNW 6.0 mph9.7 kmh 30.04 in1017.3 mb 0.00 in0.0 mm 0.00 in/hr0.0 mm/hr 0.00 in0.0 mm
02:37 AM 25.9°F-3.4°C 0.1°F-17.7°C 32% 2.2 mph NNW3.5 kmh NNW 6.0 mph9.7 kmh 30.04 in1017.3 mb 0.00 in0.0 mm 0.00 in/hr0.0 mm/hr 0.00 in0.0 mm
02:38 AM 25.7°F-3.5°C 0.0°F-17.8°C 32% 2.2 mph NNW3.5 kmh NNW 6.0 mph9.7 kmh 30.03 in1016.9 mb 0.00 in0.0 mm 0.00 in/hr0.0 mm/hr 0.00 in0.0 mm
02:39 AM 25.7°F-3.5°C 0.0°F-17.8°C 32% 3.8 mph N6.1 kmh N 6.9 mph11.1 kmh 30.04 in1017.3 mb 0.00 in0.0 mm 0.00 in/hr0.0 mm/hr 0.00 in0.0 mm
02:40 AM 25.9°F-3.4°C 0.1°F-17.7°C 32% 3.1 mph N5.0 kmh N 6.9 mph11.1 kmh 30.04 in1017.3 mb 0.00 in0.0 mm 0.00 in/hr0.0 mm/hr 0.00 in0.0 mm
02:41 AM 25.9°F-3.4°C 0.1°F-17.7°C 32% 3.1 mph N5.0 kmh N 6.9 mph11.1 kmh 30.04 in1017.3 mb 0.00 in0.0 mm 0.00 in/hr0.0 mm/hr 0.00 in0.0 mm
02:42 AM 25.9°F-3.4°C 0.1°F-17.7°C 32% 3.1 mph N5.0 kmh N 6.9 mph11.1 kmh 30.04 in1017.3 mb 0.00 in0.0 mm 0.00 in/hr0.0 mm/hr 0.00 in0.0 mm
02:43 AM 25.9°F-3.4°C 0.1°F-17.7°C 32% 2.2 mph N3.5 kmh N 6.9 mph11.1 kmh 30.04 in1017.3 mb 0.00 in0.0 mm 0.00 in/hr0.0 mm/hr 0.00 in0.0 mm
02:44 AM 25.9°F-3.4°C 0.1°F-17.7°C 32% 3.8 mph N6.1 kmh N 6.9 mph11.1 kmh 30.04 in1017.3 mb 0.00 in0.0 mm 0.00 in/hr0.0 mm/hr 0.00 in0.0 mm
02:45 AM 25.9°F-3.4°C 0.1°F-17.7°C 32% 2.2 mph N3.5 kmh N 6.9 mph11.1 kmh 30.04 in1017.3 mb 0.00 in0.0 mm 0.00 in/hr0.0 mm/hr 0.00 in0.0 mm
02:46 AM 25.7°F-3.5°C 0.0°F-17.8°C 32% 2.2 mph NNW3.5 kmh NNW 6.9 mph11.1 kmh 30.04 in1017.3 mb 0.00 in0.0 mm 0.00 in/hr0.0 mm/hr 0.00 in0.0 mm
02:47 AM 25.7°F-3.5°C 0.6°F-17.4°C 33% 2.2 mph NNW3.5 kmh NNW 6.9 mph11.1 kmh 30.04 in1017.3 mb 0.00 in0.0 mm 0.00 in/hr0.0 mm/hr 0.00 in0.0 mm
02:48 AM 25.5°F-3.6°C 0.5°F-17.5°C 33% 1.6 mph NNW2.6 kmh NNW 6.9 mph11.1 kmh 30.04 in1017.3 mb 0.00 in0.0 mm 0.00 in/hr0.0 mm/hr 0.00 in0.0 mm
02:49 AM 25.5°F-3.6°C 0.5°F-17.5°C 33% 3.1 mph NNW5.0 kmh NNW 6.9 mph11.1 kmh 30.04 in1017.3 mb 0.00 in0.0 mm 0.00 in/hr0.0 mm/hr 0.00 in0.0 mm
02:50 AM 25.5°F-3.6°C 0.5°F-17.5°C 33% 2.2 mph NNW3.5 kmh NNW 5.4 mph8.7 kmh 30.04 in1017.3 mb 0.00 in0.0 mm 0.00 in/hr0.0 mm/hr 0.00 in0.0 mm
02:51 AM 25.5°F-3.6°C 0.5°F-17.5°C 33% 3.1 mph NNW5.0 kmh NNW 5.4 mph8.7 kmh 30.04 in1017.3 mb 0.00 in0.0 mm 0.00 in/hr0.0 mm/hr 0.00 in0.0 mm
02:52 AM 25.5°F-3.6°C 1.7°F-16.8°C 35% 1.6 mph NNW2.6 kmh NNW 5.4 mph8.7 kmh 30.04 in1017.3 mb 0.00 in0.0 mm 0.00 in/hr0.0 mm/hr 0.00 in0.0 mm
02:53 AM 25.5°F-3.6°C 1.7°F-16.8°C 35% 3.1 mph NNW5.0 kmh NNW 5.4 mph8.7 kmh 30.04 in1017.3 mb 0.00 in0.0 mm 0.00 in/hr0.0 mm/hr 0.00 in0.0 mm
02:54 AM 25.5°F-3.6°C 1.7°F-16.8°C 35% 3.1 mph NNW5.0 kmh NNW 5.4 mph8.7 kmh 30.04 in1017.3 mb 0.00 in0.0 mm 0.00 in/hr0.0 mm/hr 0.00 in0.0 mm
02:55 AM 25.5°F-3.6°C 1.7°F-16.8°C 35% 3.1 mph NNW5.0 kmh NNW 5.4 mph8.7 kmh 30.04 in1017.3 mb 0.00 in0.0 mm 0.00 in/hr0.0 mm/hr 0.00 in0.0 mm
02:56 AM 25.5°F-3.6°C 1.7°F-16.8°C 35% 2.2 mph NNW3.5 kmh NNW 5.4 mph8.7 kmh 30.04 in1017.3 mb 0.00 in0.0 mm 0.00 in/hr0.0 mm/hr 0.00 in0.0 mm
02:57 AM 25.5°F-3.6°C 1.7°F-16.8°C 35% 3.1 mph NNW5.0 kmh NNW 6.9 mph11.1 kmh 30.04 in1017.3 mb 0.00 in0.0 mm 0.00 in/hr0.0 mm/hr 0.00 in0.0 mm
02:58 AM 25.5°F-3.6°C 1.7°F-16.8°C 35% 3.8 mph NNW6.1 kmh NNW 6.9 mph11.1 kmh 30.04 in1017.3 mb 0.00 in0.0 mm 0.00 in/hr0.0 mm/hr 0.00 in0.0 mm
02:59 AM 25.7°F-3.5°C 1.9°F-16.7°C 35% 2.2 mph NNW3.5 kmh NNW 6.9 mph11.1 kmh 30.04 in1017.3 mb 0.00 in0.0 mm 0.00 in/hr0.0 mm/hr 0.00 in0.0 mm
03:00 AM 25.5°F-3.6°C 1.7°F-16.8°C 35% 1.6 mph NNW2.6 kmh NNW 6.9 mph11.1 kmh 30.04 in1017.3 mb 0.00 in0.0 mm 0.00 in/hr0.0 mm/hr 0.00 in0.0 mm
03:01 AM 25.3°F-3.7°C 1.6°F-16.9°C 35% 2.2 mph NNW3.5 kmh NNW 6.9 mph11.1 kmh 30.04 in1017.3 mb 0.00 in0.0 mm 0.00 in/hr0.0 mm/hr 0.00 in0.0 mm
03:02 AM 25.3°F-3.7°C 1.6°F-16.9°C 35% 1.6 mph NNW2.6 kmh NNW 6.9 mph11.1 kmh 30.04 in1017.3 mb 0.00 in0.0 mm 0.00 in/hr0.0 mm/hr 0.00 in0.0 mm
03:03 AM 25.2°F-3.8°C 1.4°F-17.0°C 35% 3.1 mph NNW5.0 kmh NNW 6.9 mph11.1 kmh 30.04 in1017.3 mb 0.00 in0.0 mm 0.00 in/hr0.0 mm/hr 0.00 in0.0 mm
03:04 AM 25.3°F-3.7°C 2.2°F-16.6°C 36% 3.1 mph NW5.0 kmh NW 6.9 mph11.1 kmh 30.04 in1017.3 mb 0.00 in0.0 mm 0.00 in/hr0.0 mm/hr 0.00 in0.0 mm
03:05 AM 25.3°F-3.7°C 2.2°F-16.6°C 36% 2.2 mph NNW3.5 kmh NNW 6.9 mph11.1 kmh 30.04 in1017.3 mb 0.00 in0.0 mm 0.00 in/hr0.0 mm/hr 0.00 in0.0 mm
03:06 AM 25.2°F-3.8°C 2.0°F-16.7°C 36% 4.5 mph NNW7.2 kmh NNW 6.9 mph11.1 kmh 30.04 in1017.3 mb 0.00 in0.0 mm 0.00 in/hr0.0 mm/hr 0.00 in0.0 mm
03:07 AM 25.5°F-3.6°C 2.3°F-16.5°C 36% 3.1 mph NNW5.0 kmh NNW 6.9 mph11.1 kmh 30.05 in1017.6 mb 0.00 in0.0 mm 0.00 in/hr0.0 mm/hr 0.00 in0.0 mm
03:08 AM 25.5°F-3.6°C 2.3°F-16.5°C 36% 3.8 mph NNW6.1 kmh NNW 6.9 mph11.1 kmh 30.04 in1017.3 mb 0.00 in0.0 mm 0.00 in/hr0.0 mm/hr 0.00 in0.0 mm
03:09 AM 25.3°F-3.7°C 2.2°F-16.6°C 36% 3.1 mph NNW5.0 kmh NNW 6.9 mph11.1 kmh 30.04 in1017.3 mb 0.00 in0.0 mm 0.00 in/hr0.0 mm/hr 0.00 in0.0 mm
03:10 AM 25.3°F-3.7°C 2.2°F-16.6°C 36% 3.1 mph N5.0 kmh N 6.9 mph11.1 kmh 30.04 in1017.3 mb 0.00 in0.0 mm 0.00 in/hr0.0 mm/hr 0.00 in0.0 mm
03:11 AM 25.2°F-3.8°C 2.0°F-16.7°C 36% 3.8 mph NNW6.1 kmh NNW 7.6 mph12.2 kmh 30.05 in1017.6 mb 0.00 in0.0 mm 0.00 in/hr0.0 mm/hr 0.00 in0.0 mm
03:12 AM 25.2°F-3.8°C 2.0°F-16.7°C 36% 3.8 mph NNW6.1 kmh NNW 7.6 mph12.2 kmh 30.05 in1017.6 mb 0.00 in0.0 mm 0.00 in/hr0.0 mm/hr 0.00 in0.0 mm
03:13 AM 25.3°F-3.7°C 2.8°F-16.2°C 37% 3.8 mph NNW6.1 kmh NNW 7.6 mph12.2 kmh 30.04 in1017.3 mb 0.00 in0.0 mm 0.00 in/hr0.0 mm/hr 0.00 in0.0 mm
03:14 AM 25.2°F-3.8°C 2.6°F-16.3°C 37% 3.8 mph NNW6.1 kmh NNW 7.6 mph12.2 kmh 30.04 in1017.3 mb 0.00 in0.0 mm 0.00 in/hr0.0 mm/hr 0.00 in0.0 mm
03:15 AM 25.2°F-3.8°C 2.6°F-16.3°C 37% 3.8 mph NNW6.1 kmh NNW 7.6 mph12.2 kmh 30.05 in1017.6 mb 0.00 in0.0 mm 0.00 in/hr0.0 mm/hr 0.00 in0.0 mm
03:16 AM 25.2°F-3.8°C 2.6°F-16.3°C 37% 3.8 mph NNW6.1 kmh NNW 7.6 mph12.2 kmh 30.05 in1017.6 mb 0.00 in0.0 mm 0.00 in/hr0.0 mm/hr 0.00 in0.0 mm
03:17 AM 25.0°F-3.9°C 2.4°F-16.4°C 37% 5.4 mph NNW8.7 kmh NNW 7.6 mph12.2 kmh 30.05 in1017.6 mb 0.00 in0.0 mm 0.00 in/hr0.0 mm/hr 0.00 in0.0 mm
03:18 AM 25.2°F-3.8°C 2.6°F-16.3°C 37% 3.1 mph NW5.0 kmh NW 7.6 mph12.2 kmh 30.04 in1017.3 mb 0.00 in0.0 mm 0.00 in/hr0.0 mm/hr 0.00 in0.0 mm
03:19 AM 25.0°F-3.9°C 2.4°F-16.4°C 37% 3.1 mph NW5.0 kmh NW 7.6 mph12.2 kmh 30.05 in1017.6 mb 0.00 in0.0 mm 0.00 in/hr0.0 mm/hr 0.00 in0.0 mm
03:20 AM 25.0°F-3.9°C 3.0°F-16.1°C 38% 3.8 mph NW6.1 kmh NW 7.6 mph12.2 kmh 30.05 in1017.6 mb 0.00 in0.0 mm 0.00 in/hr0.0 mm/hr 0.00 in0.0 mm
03:21 AM 25.2°F-3.8°C 3.2°F-16.0°C 38% 3.1 mph NW5.0 kmh NW 6.9 mph11.1 kmh 30.05 in1017.6 mb 0.00 in0.0 mm 0.00 in/hr0.0 mm/hr 0.00 in0.0 mm
03:22 AM 25.0°F-3.9°C 3.0°F-16.1°C 38% 3.1 mph NNW5.0 kmh NNW 6.9 mph11.1 kmh 30.05 in1017.6 mb 0.00 in0.0 mm 0.00 in/hr0.0 mm/hr 0.00 in0.0 mm
03:23 AM 25.0°F-3.9°C 3.0°F-16.1°C 38% 3.8 mph NNW6.1 kmh NNW 6.9 mph11.1 kmh 30.05 in1017.6 mb 0.00 in0.0 mm 0.00 in/hr0.0 mm/hr 0.00 in0.0 mm
03:24 AM 25.0°F-3.9°C 3.0°F-16.1°C 38% 3.1 mph NNW5.0 kmh NNW 6.9 mph11.1 kmh 30.05 in1017.6 mb 0.00 in0.0 mm 0.00 in/hr0.0 mm/hr 0.00 in0.0 mm
03:25 AM 25.0°F-3.9°C 3.0°F-16.1°C 38% 2.2 mph NNW3.5 kmh NNW 6.9 mph11.1 kmh 30.05 in1017.6 mb 0.00 in0.0 mm 0.00 in/hr0.0 mm/hr 0.00 in0.0 mm
03:26 AM 25.0°F-3.9°C 3.0°F-16.1°C 38% 3.8 mph NNW6.1 kmh NNW 6.9 mph11.1 kmh 30.05 in1017.6 mb 0.00 in0.0 mm 0.00 in/hr0.0 mm/hr 0.00 in0.0 mm
03:27 AM 25.0°F-3.9°C 3.0°F-16.1°C 38% 2.2 mph NNW3.5 kmh NNW 6.9 mph11.1 kmh 30.05 in1017.6 mb 0.00 in0.0 mm 0.00 in/hr0.0 mm/hr 0.00 in0.0 mm
03:28 AM 24.8°F-4.0°C 2.9°F-16.2°C 38% 3.1 mph NNW5.0 kmh NNW 6.9 mph11.1 kmh 30.05 in1017.6 mb 0.00 in0.0 mm 0.00 in/hr0.0 mm/hr 0.00 in0.0 mm
03:29 AM 25.0°F-3.9°C 4.1°F-15.5°C 40% 2.2 mph NNW3.5 kmh NNW 6.9 mph11.1 kmh 30.05 in1017.6 mb 0.00 in0.0 mm 0.00 in/hr0.0 mm/hr 0.00 in0.0 mm
03:30 AM 24.8°F-4.0°C 4.0°F-15.6°C 40% 1.6 mph NNW2.6 kmh NNW 6.9 mph11.1 kmh 30.05 in1017.6 mb 0.00 in0.0 mm 0.00 in/hr0.0 mm/hr 0.00 in0.0 mm
03:31 AM 24.6°F-4.1°C 4.3°F-15.4°C 41% 3.8 mph NNW6.1 kmh NNW 6.0 mph9.7 kmh 30.05 in1017.6 mb 0.00 in0.0 mm 0.00 in/hr0.0 mm/hr 0.00 in0.0 mm
03:32 AM 24.8°F-4.0°C 4.0°F-15.6°C 40% 3.1 mph NNW5.0 kmh NNW 6.0 mph9.7 kmh 30.05 in1017.6 mb 0.00 in0.0 mm 0.00 in/hr0.0 mm/hr 0.00 in0.0 mm
03:33 AM 24.8°F-4.0°C 4.5°F-15.3°C 41% 2.2 mph NNW3.5 kmh NNW 6.0 mph9.7 kmh 30.05 in1017.6 mb 0.00 in0.0 mm 0.00 in/hr0.0 mm/hr 0.00 in0.0 mm
03:34 AM 24.6°F-4.1°C 4.9°F-15.1°C 42% 3.1 mph NNW5.0 kmh NNW 6.0 mph9.7 kmh 30.05 in1017.6 mb 0.00 in0.0 mm 0.00 in/hr0.0 mm/hr 0.00 in0.0 mm
03:35 AM 24.6°F-4.1°C 5.4°F-14.8°C 43% 2.2 mph NNW3.5 kmh NNW 6.0 mph9.7 kmh 30.05 in1017.6 mb 0.00 in0.0 mm 0.00 in/hr0.0 mm/hr 0.00 in0.0 mm
03:36 AM 24.6°F-4.1°C 5.4°F-14.8°C 43% 2.2 mph NNW3.5 kmh NNW 6.0 mph9.7 kmh 30.05 in1017.6 mb 0.00 in0.0 mm 0.00 in/hr0.0 mm/hr 0.00 in0.0 mm
03:37 AM 24.6°F-4.1°C 5.4°F-14.8°C 43% 3.1 mph NNW5.0 kmh NNW 6.0 mph9.7 kmh 30.05 in1017.6 mb 0.00 in0.0 mm 0.00 in/hr0.0 mm/hr 0.00 in0.0 mm
03:38 AM 24.6°F-4.1°C 5.4°F-14.8°C 43% 3.8 mph NNW6.1 kmh NNW 5.4 mph8.7 kmh 30.05 in1017.6 mb 0.00 in0.0 mm 0.00 in/hr0.0 mm/hr 0.00 in0.0 mm
03:39 AM 24.6°F-4.1°C 5.4°F-14.8°C 43% 4.5 mph NNW7.2 kmh NNW 6.0 mph9.7 kmh 30.05 in1017.6 mb 0.00 in0.0 mm 0.00 in/hr0.0 mm/hr 0.00 in0.0 mm
03:40 AM 24.6°F-4.1°C 5.4°F-14.8°C 43% 4.5 mph NNW7.2 kmh NNW 6.0 mph9.7 kmh 30.05 in1017.6 mb 0.00 in0.0 mm 0.00 in/hr0.0 mm/hr 0.00 in0.0 mm
03:41 AM 24.8°F-4.0°C 5.0°F-15.0°C 42% 3.8 mph NNW6.1 kmh NNW 6.0 mph9.7 kmh 30.05 in1017.6 mb 0.00 in0.0 mm 0.00 in/hr0.0 mm/hr 0.00 in0.0 mm
03:42 AM 24.8°F-4.0°C 5.0°F-15.0°C 42% 3.1 mph NNW5.0 kmh NNW 6.0 mph9.7 kmh 30.06 in1017.9 mb 0.00 in0.0 mm 0.00 in/hr0.0 mm/hr 0.00 in0.0 mm
03:43 AM 24.6°F-4.1°C 5.4°F-14.8°C 43% 3.1 mph NNW5.0 kmh NNW 6.0 mph9.7 kmh 30.05 in1017.6 mb 0.00 in0.0 mm 0.00 in/hr0.0 mm/hr 0.00 in0.0 mm
03:44 AM 24.8°F-4.0°C 5.0°F-15.0°C 42% 3.8 mph NNW6.1 kmh NNW 6.0 mph9.7 kmh 30.06 in1017.9 mb 0.00 in0.0 mm 0.00 in/hr0.0 mm/hr 0.00 in0.0 mm
03:45 AM 24.8°F-4.0°C 5.0°F-15.0°C 42% 2.2 mph NNW3.5 kmh NNW 6.0 mph9.7 kmh 30.06 in1017.9 mb 0.00 in0.0 mm 0.00 in/hr0.0 mm/hr 0.00 in0.0 mm
03:46 AM 24.8°F-4.0°C 5.0°F-15.0°C 42% 4.5 mph NNW7.2 kmh NNW 6.9 mph11.1 kmh 30.05 in1017.6 mb 0.00 in0.0 mm 0.00 in/hr0.0 mm/hr 0.00 in0.0 mm
03:47 AM 24.8°F-4.0°C 5.0°F-15.0°C 42% 3.1 mph NNW5.0 kmh NNW 6.9 mph11.1 kmh 30.06 in1017.9 mb 0.00 in0.0 mm 0.00 in/hr0.0 mm/hr 0.00 in0.0 mm
03:48 AM 24.8°F-4.0°C 5.0°F-15.0°C 42% 3.8 mph NNW6.1 kmh NNW 6.9 mph11.1 kmh 30.06 in1017.9 mb 0.00 in0.0 mm 0.00 in/hr0.0 mm/hr 0.00 in0.0 mm
03:49 AM 25.0°F-3.9°C 4.7°F-15.2°C 41% 3.1 mph NNW5.0 kmh NNW 6.9 mph11.1 kmh 30.06 in1017.9 mb 0.00 in0.0 mm 0.00 in/hr0.0 mm/hr 0.00 in0.0 mm
03:50 AM 25.0°F-3.9°C 4.7°F-15.2°C 41% 4.5 mph N7.2 kmh N 7.6 mph12.2 kmh 30.06 in1017.9 mb 0.00 in0.0 mm 0.00 in/hr0.0 mm/hr 0.00 in0.0 mm
03:51 AM 25.0°F-3.9°C 4.1°F-15.5°C 40% 3.8 mph N6.1 kmh N 7.6 mph12.2 kmh 30.06 in1017.9 mb 0.00 in0.0 mm 0.00 in/hr0.0 mm/hr 0.00 in0.0 mm
03:52 AM 25.0°F-3.9°C 4.1°F-15.5°C 40% 3.8 mph N6.1 kmh N 7.6 mph12.2 kmh 30.06 in1017.9 mb 0.00 in0.0 mm 0.00 in/hr0.0 mm/hr 0.00 in0.0 mm
03:53 AM 25.0°F-3.9°C 4.1°F-15.5°C 40% 3.8 mph N6.1 kmh N 7.6 mph12.2 kmh 30.06 in1017.9 mb 0.00 in0.0 mm 0.00 in/hr0.0 mm/hr 0.00 in0.0 mm
03:54 AM 25.0°F-3.9°C 4.1°F-15.5°C 40% 6.0 mph N9.7 kmh N 7.6 mph12.2 kmh 30.06 in1017.9 mb 0.00 in0.0 mm 0.00 in/hr0.0 mm/hr 0.00 in0.0 mm
03:55 AM 25.2°F-3.8°C 4.3°F-15.4°C 40% 4.5 mph N7.2 kmh N 7.6 mph12.2 kmh 30.06 in1017.9 mb 0.00 in0.0 mm 0.00 in/hr0.0 mm/hr 0.00 in0.0 mm
03:56 AM 25.0°F-3.9°C 3.0°F-16.1°C 38% 3.8 mph N6.1 kmh N 7.6 mph12.2 kmh 30.06 in1017.9 mb 0.00 in0.0 mm 0.00 in/hr0.0 mm/hr 0.00 in0.0 mm
03:57 AM 25.2°F-3.8°C 3.2°F-16.0°C 38% 3.1 mph N5.0 kmh N 7.6 mph12.2 kmh 30.06 in1017.9 mb 0.00 in0.0 mm 0.00 in/hr0.0 mm/hr 0.00 in0.0 mm
03:58 AM 25.0°F-3.9°C 3.0°F-16.1°C 38% 3.1 mph N5.0 kmh N 7.6 mph12.2 kmh 30.06 in1017.9 mb 0.00 in0.0 mm 0.00 in/hr0.0 mm/hr 0.00 in0.0 mm
03:59 AM 25.0°F-3.9°C 3.0°F-16.1°C 38% 5.4 mph N8.7 kmh N 7.6 mph12.2 kmh 30.06 in1017.9 mb 0.00 in0.0 mm 0.00 in/hr0.0 mm/hr 0.00 in0.0 mm
04:00 AM 25.0°F-3.9°C 3.0°F-16.1°C 38% 5.4 mph N8.7 kmh N 7.6 mph12.2 kmh 30.07 in1018.3 mb 0.00 in0.0 mm 0.00 in/hr0.0 mm/hr 0.00 in0.0 mm
04:01 AM 25.0°F-3.9°C 3.0°F-16.1°C 38% 3.1 mph NNW5.0 kmh NNW 7.6 mph12.2 kmh 30.06 in1017.9 mb 0.00 in0.0 mm 0.00 in/hr0.0 mm/hr 0.00 in0.0 mm
04:02 AM 25.0°F-3.9°C 3.0°F-16.1°C 38% 3.1 mph NNW5.0 kmh NNW 7.6 mph12.2 kmh 30.06 in1017.9 mb 0.00 in0.0 mm 0.00 in/hr0.0 mm/hr 0.00 in0.0 mm
04:03 AM 25.0°F-3.9°C 3.0°F-16.1°C 38% 3.8 mph NNW6.1 kmh NNW 7.6 mph12.2 kmh 30.06 in1017.9 mb 0.00 in0.0 mm 0.00 in/hr0.0 mm/hr 0.00 in0.0 mm
04:04 AM 25.0°F-3.9°C 3.0°F-16.1°C 38% 3.8 mph NNW6.1 kmh NNW 7.6 mph12.2 kmh 30.06 in1017.9 mb 0.00 in0.0 mm 0.00 in/hr0.0 mm/hr 0.00 in0.0 mm
04:05 AM 25.0°F-3.9°C 3.0°F-16.1°C 38% 3.1 mph NNW5.0 kmh NNW 7.6 mph12.2 kmh 30.06 in1017.9 mb 0.00 in0.0 mm 0.00 in/hr0.0 mm/hr 0.00 in0.0 mm
04:06 AM 24.8°F-4.0°C 2.9°F-16.2°C 38% 4.5 mph NNW7.2 kmh NNW 7.6 mph12.2 kmh 30.06 in1017.9 mb 0.00 in0.0 mm 0.00 in/hr0.0 mm/hr 0.00 in0.0 mm
04:07 AM 25.0°F-3.9°C 3.0°F-16.1°C 38% 3.1 mph NNW5.0 kmh NNW 7.6 mph12.2 kmh 30.06 in1017.9 mb 0.00 in0.0 mm 0.00 in/hr0.0 mm/hr 0.00 in0.0 mm
04:08 AM 24.8°F-4.0°C 2.9°F-16.2°C 38% 2.2 mph NNW3.5 kmh NNW 7.6 mph12.2 kmh 30.06 in1017.9 mb 0.00 in0.0 mm 0.00 in/hr0.0 mm/hr 0.00 in0.0 mm
04:09 AM 24.8°F-4.0°C 2.9°F-16.2°C 38% 3.1 mph NNW5.0 kmh NNW 6.9 mph11.1 kmh 30.06 in1017.9 mb 0.00 in0.0 mm 0.00 in/hr0.0 mm/hr 0.00 in0.0 mm
04:10 AM 24.8°F-4.0°C 2.9°F-16.2°C 38% 3.8 mph NNW6.1 kmh NNW 6.9 mph11.1 kmh 30.07 in1018.3 mb 0.00 in0.0 mm 0.00 in/hr0.0 mm/hr 0.00 in0.0 mm
04:11 AM 24.8°F-4.0°C 2.9°F-16.2°C 38% 3.8 mph NNW6.1 kmh NNW 6.9 mph11.1 kmh 30.07 in1018.3 mb 0.00 in0.0 mm 0.00 in/hr0.0 mm/hr 0.00 in0.0 mm
04:12 AM 24.8°F-4.0°C 2.9°F-16.2°C 38% 3.8 mph NNW6.1 kmh NNW 6.9 mph11.1 kmh 30.07 in1018.3 mb 0.00 in0.0 mm 0.00 in/hr0.0 mm/hr 0.00 in0.0 mm
04:13 AM 24.8°F-4.0°C 2.9°F-16.2°C 38% 3.1 mph NNW5.0 kmh NNW 6.9 mph11.1 kmh 30.07 in1018.3 mb 0.00 in0.0 mm 0.00 in/hr0.0 mm/hr 0.00 in0.0 mm
04:14 AM 24.8°F-4.0°C 2.9°F-16.2°C 38% 5.4 mph NNW8.7 kmh NNW 6.9 mph11.1 kmh 30.07 in1018.3 mb 0.00 in0.0 mm 0.00 in/hr0.0 mm/hr 0.00 in0.0 mm
04:15 AM 24.8°F-4.0°C 2.9°F-16.2°C 38% 2.2 mph NNW3.5 kmh NNW 6.9 mph11.1 kmh 30.07 in1018.3 mb 0.00 in0.0 mm 0.00 in/hr0.0 mm/hr 0.00 in0.0 mm
04:16 AM 24.8°F-4.0°C 2.9°F-16.2°C 38% 2.2 mph NNW3.5 kmh NNW 6.9 mph11.1 kmh 30.07 in1018.3 mb 0.00 in0.0 mm 0.00 in/hr0.0 mm/hr 0.00 in0.0 mm
04:17 AM 24.6°F-4.1°C 4.3°F-15.4°C 41% 3.8 mph NNW6.1 kmh NNW 6.9 mph11.1 kmh 30.07 in1018.3 mb 0.00 in0.0 mm 0.00 in/hr0.0 mm/hr 0.00 in0.0 mm
04:18 AM 24.6°F-4.1°C 4.3°F-15.4°C 41% 2.2 mph NNW3.5 kmh NNW 6.9 mph11.1 kmh 30.07 in1018.3 mb 0.00 in0.0 mm 0.00 in/hr0.0 mm/hr 0.00 in0.0 mm
04:19 AM 24.6°F-4.1°C 4.3°F-15.4°C 41% 4.5 mph NNW7.2 kmh NNW 6.9 mph11.1 kmh 30.07 in1018.3 mb 0.00 in0.0 mm 0.00 in/hr0.0 mm/hr 0.00 in0.0 mm
04:20 AM 24.8°F-4.0°C 4.0°F-15.6°C 40% 3.8 mph NNW6.1 kmh NNW 6.9 mph11.1 kmh 30.07 in1018.3 mb 0.00 in0.0 mm 0.00 in/hr0.0 mm/hr 0.00 in0.0 mm
04:21 AM 24.8°F-4.0°C 4.0°F-15.6°C 40% 3.1 mph NNW5.0 kmh NNW 6.9 mph11.1 kmh 30.07 in1018.3 mb 0.00 in0.0 mm 0.00 in/hr0.0 mm/hr 0.00 in0.0 mm
04:22 AM 24.8°F-4.0°C 4.0°F-15.6°C 40% 3.8 mph NNW6.1 kmh NNW 6.9 mph11.1 kmh 30.07 in1018.3 mb 0.00 in0.0 mm 0.00 in/hr0.0 mm/hr 0.00 in0.0 mm
04:23 AM 24.6°F-4.1°C 4.3°F-15.4°C 41% 5.4 mph NNW8.7 kmh NNW 6.9 mph11.1 kmh 30.07 in1018.3 mb 0.00 in0.0 mm 0.00 in/hr0.0 mm/hr 0.00 in0.0 mm
04:24 AM 24.8°F-4.0°C 4.0°F-15.6°C 40% 3.8 mph NNW6.1 kmh NNW 6.9 mph11.1 kmh 30.07 in1018.3 mb 0.00 in0.0 mm 0.00 in/hr0.0 mm/hr 0.00 in0.0 mm
04:25 AM 24.8°F-4.0°C 4.0°F-15.6°C 40% 3.8 mph NNW6.1 kmh NNW 7.6 mph12.2 kmh 30.07 in1018.3 mb 0.00 in0.0 mm 0.00 in/hr0.0 mm/hr 0.00 in0.0 mm
04:26 AM 24.8°F-4.0°C 4.0°F-15.6°C 40% 2.2 mph NNW3.5 kmh NNW 7.6 mph12.2 kmh 30.07 in1018.3 mb 0.00 in0.0 mm 0.00 in/hr0.0 mm/hr 0.00 in0.0 mm
04:27 AM 24.6°F-4.1°C 4.3°F-15.4°C 41% 3.8 mph NNW6.1 kmh NNW 7.6 mph12.2 kmh 30.07 in1018.3 mb 0.00 in0.0 mm 0.00 in/hr0.0 mm/hr 0.00 in0.0 mm
04:28 AM 24.8°F-4.0°C 4.0°F-15.6°C 40% 6.0 mph NNW9.7 kmh NNW 7.6 mph12.2 kmh 30.07 in1018.3 mb 0.00 in0.0 mm 0.00 in/hr0.0 mm/hr 0.00 in0.0 mm
04:29 AM 24.8°F-4.0°C 4.0°F-15.6°C 40% 3.8 mph NNW6.1 kmh NNW 7.6 mph12.2 kmh 30.07 in1018.3 mb 0.00 in0.0 mm 0.00 in/hr0.0 mm/hr 0.00 in0.0 mm
04:30 AM 24.6°F-4.1°C 4.3°F-15.4°C 41% 2.2 mph NNW3.5 kmh NNW 7.6 mph12.2 kmh 30.07 in1018.3 mb 0.00 in0.0 mm 0.00 in/hr0.0 mm/hr 0.00 in0.0 mm
04:31 AM 24.6°F-4.1°C 4.3°F-15.4°C 41% 3.1 mph NNW5.0 kmh NNW 7.6 mph12.2 kmh 30.07 in1018.3 mb 0.00 in0.0 mm 0.00 in/hr0.0 mm/hr 0.00 in0.0 mm
04:32 AM 24.8°F-4.0°C 4.0°F-15.6°C 40% 4.5 mph NW7.2 kmh NW 7.6 mph12.2 kmh 30.07 in1018.3 mb 0.00 in0.0 mm 0.00 in/hr0.0 mm/hr 0.00 in0.0 mm
04:33 AM 24.8°F-4.0°C 4.0°F-15.6°C 40% 5.4 mph NW8.7 kmh NW 7.6 mph12.2 kmh 30.07 in1018.3 mb 0.00 in0.0 mm 0.00 in/hr0.0 mm/hr 0.00 in0.0 mm
04:34 AM 24.8°F-4.0°C 4.0°F-15.6°C 40% 4.5 mph NW7.2 kmh NW 7.6 mph12.2 kmh 30.07 in1018.3 mb 0.00 in0.0 mm 0.00 in/hr0.0 mm/hr 0.00 in0.0 mm
04:35 AM 24.8°F-4.0°C 4.0°F-15.6°C 40% 4.5 mph NW7.2 kmh NW 7.6 mph12.2 kmh 30.07 in1018.3 mb 0.00 in0.0 mm 0.00 in/hr0.0 mm/hr 0.00 in0.0 mm
04:36 AM 24.8°F-4.0°C 4.0°F-15.6°C 40% 4.5 mph NW7.2 kmh NW 7.6 mph12.2 kmh 30.08 in1018.6 mb 0.00 in0.0 mm 0.00 in/hr0.0 mm/hr 0.00 in0.0 mm
04:37 AM 24.8°F-4.0°C 4.0°F-15.6°C 40% 3.8 mph NNW6.1 kmh NNW 7.6 mph12.2 kmh 30.08 in1018.6 mb 0.00 in0.0 mm 0.00 in/hr0.0 mm/hr 0.00 in0.0 mm
04:38 AM 24.8°F-4.0°C 4.0°F-15.6°C 40% 4.5 mph NNW7.2 kmh NNW 7.6 mph12.2 kmh 30.08 in1018.6 mb 0.00 in0.0 mm 0.00 in/hr0.0 mm/hr 0.00 in0.0 mm
04:39 AM 24.8°F-4.0°C 4.0°F-15.6°C 40% 6.9 mph NNW11.1 kmh NNW 9.8 mph15.8 kmh 30.08 in1018.6 mb 0.00 in0.0 mm 0.00 in/hr0.0 mm/hr 0.00 in0.0 mm
04:40 AM 25.0°F-3.9°C 4.1°F-15.5°C 40% 5.4 mph NW8.7 kmh NW 9.8 mph15.8 kmh 30.08 in1018.6 mb 0.00 in0.0 mm 0.00 in/hr0.0 mm/hr 0.00 in0.0 mm
04:41 AM 24.8°F-4.0°C 4.0°F-15.6°C 40% 3.1 mph NW5.0 kmh NW 9.8 mph15.8 kmh 30.08 in1018.6 mb 0.00 in0.0 mm 0.00 in/hr0.0 mm/hr 0.00 in0.0 mm
04:42 AM 24.8°F-4.0°C 4.0°F-15.6°C 40% 3.1 mph NNW5.0 kmh NNW 9.8 mph15.8 kmh 30.08 in1018.6 mb 0.00 in0.0 mm 0.00 in/hr0.0 mm/hr 0.00 in0.0 mm
04:43 AM 24.8°F-4.0°C 4.0°F-15.6°C 40% 2.2 mph NNW3.5 kmh NNW 9.8 mph15.8 kmh 30.08 in1018.6 mb 0.00 in0.0 mm 0.00 in/hr0.0 mm/hr 0.00 in0.0 mm
04:44 AM 24.6°F-4.1°C 4.3°F-15.4°C 41% 3.1 mph NNW5.0 kmh NNW 9.8 mph15.8 kmh 30.08 in1018.6 mb 0.00 in0.0 mm 0.00 in/hr0.0 mm/hr 0.00 in0.0 mm
04:45 AM 24.8°F-4.0°C 4.0°F-15.6°C 40% 3.8 mph NW6.1 kmh NW 9.8 mph15.8 kmh 30.08 in1018.6 mb 0.00 in0.0 mm 0.00 in/hr0.0 mm/hr 0.00 in0.0 mm
04:46 AM 24.8°F-4.0°C 4.0°F-15.6°C 40% 3.8 mph NW6.1 kmh NW 9.8 mph15.8 kmh 30.08 in1018.6 mb 0.00 in0.0 mm 0.00 in/hr0.0 mm/hr 0.00 in0.0 mm
04:47 AM 24.8°F-4.0°C 4.0°F-15.6°C 40% 3.8 mph NW6.1 kmh NW 9.8 mph15.8 kmh 30.09 in1019.0 mb 0.00 in0.0 mm 0.00 in/hr0.0 mm/hr 0.00 in0.0 mm
04:48 AM 24.8°F-4.0°C 4.0°F-15.6°C 40% 3.8 mph NW6.1 kmh NW 9.8 mph15.8 kmh 30.08 in1018.6 mb 0.00 in0.0 mm 0.00 in/hr0.0 mm/hr 0.00 in0.0 mm
04:49 AM 24.8°F-4.0°C 4.0°F-15.6°C 40% 3.8 mph NW6.1 kmh NW 7.6 mph12.2 kmh 30.08 in1018.6 mb 0.00 in0.0 mm 0.00 in/hr0.0 mm/hr 0.00 in0.0 mm
04:50 AM 24.8°F-4.0°C 4.0°F-15.6°C 40% 3.8 mph NW6.1 kmh NW 7.6 mph12.2 kmh 30.08 in1018.6 mb 0.00 in0.0 mm 0.00 in/hr0.0 mm/hr 0.00 in0.0 mm
04:51 AM 24.8°F-4.0°C 4.0°F-15.6°C 40% 3.8 mph NW6.1 kmh NW 7.6 mph12.2 kmh 30.09 in1019.0 mb 0.00 in0.0 mm 0.00 in/hr0.0 mm/hr 0.00 in0.0 mm
04:52 AM 24.8°F-4.0°C 4.0°F-15.6°C 40% 3.8 mph NW6.1 kmh NW 7.6 mph12.2 kmh 30.09 in1019.0 mb 0.00 in0.0 mm 0.00 in/hr0.0 mm/hr 0.00 in0.0 mm
04:53 AM 24.8°F-4.0°C 4.0°F-15.6°C 40% 3.8 mph WNW6.1 kmh WNW 7.6 mph12.2 kmh 30.09 in1019.0 mb 0.00 in0.0 mm 0.00 in/hr0.0 mm/hr 0.00 in0.0 mm
04:54 AM 24.8°F-4.0°C 4.0°F-15.6°C 40% 3.8 mph WNW6.1 kmh WNW 7.6 mph12.2 kmh 30.09 in1019.0 mb 0.00 in0.0 mm 0.00 in/hr0.0 mm/hr 0.00 in0.0 mm
04:55 AM 24.6°F-4.1°C 4.3°F-15.4°C 41% 3.1 mph WNW5.0 kmh WNW 6.0 mph9.7 kmh 30.09 in1019.0 mb 0.00 in0.0 mm 0.00 in/hr0.0 mm/hr 0.00 in0.0 mm
04:56 AM 24.6°F-4.1°C 4.3°F-15.4°C 41% 1.6 mph NW2.6 kmh NW 6.0 mph9.7 kmh 30.09 in1019.0 mb 0.00 in0.0 mm 0.00 in/hr0.0 mm/hr 0.00 in0.0 mm
04:57 AM 24.6°F-4.1°C 4.3°F-15.4°C 41% 3.1 mph NW5.0 kmh NW 6.0 mph9.7 kmh 30.09 in1019.0 mb 0.00 in0.0 mm 0.00 in/hr0.0 mm/hr 0.00 in0.0 mm
04:58 AM 24.6°F-4.1°C 4.3°F-15.4°C 41% 5.4 mph NW8.7 kmh NW 7.6 mph12.2 kmh 30.09 in1019.0 mb 0.00 in0.0 mm 0.00 in/hr0.0 mm/hr 0.00 in0.0 mm
04:59 AM 24.6°F-4.1°C 4.3°F-15.4°C 41% 3.8 mph NW6.1 kmh NW 7.6 mph12.2 kmh 30.09 in1019.0 mb 0.00 in0.0 mm 0.00 in/hr0.0 mm/hr 0.00 in0.0 mm
05:00 AM 24.6°F-4.1°C 4.9°F-15.1°C 42% 3.1 mph NW5.0 kmh NW 7.6 mph12.2 kmh 30.09 in1019.0 mb 0.00 in0.0 mm 0.00 in/hr0.0 mm/hr 0.00 in0.0 mm
05:01 AM 24.6°F-4.1°C 4.9°F-15.1°C 42% 3.1 mph NW5.0 kmh NW 7.6 mph12.2 kmh 30.09 in1019.0 mb 0.00 in0.0 mm 0.00 in/hr0.0 mm/hr 0.00 in0.0 mm
05:02 AM 24.6°F-4.1°C 4.9°F-15.1°C 42% 3.1 mph NNW5.0 kmh NNW 7.6 mph12.2 kmh 30.09 in1019.0 mb 0.00 in0.0 mm 0.00 in/hr0.0 mm/hr 0.00 in0.0 mm
05:03 AM 24.6°F-4.1°C 4.9°F-15.1°C 42% 3.1 mph NNW5.0 kmh NNW 7.6 mph12.2 kmh 30.09 in1019.0 mb 0.00 in0.0 mm 0.00 in/hr0.0 mm/hr 0.00 in0.0 mm
05:04 AM 24.6°F-4.1°C 4.9°F-15.1°C 42% 3.1 mph NNW5.0 kmh NNW 7.6 mph12.2 kmh 30.09 in1019.0 mb 0.00 in0.0 mm 0.00 in/hr0.0 mm/hr 0.00 in0.0 mm
05:05 AM 24.6°F-4.1°C 4.9°F-15.1°C 42% 3.1 mph NNW5.0 kmh NNW 7.6 mph12.2 kmh 30.09 in1019.0 mb 0.00 in0.0 mm 0.00 in/hr0.0 mm/hr 0.00 in0.0 mm
05:06 AM 24.6°F-4.1°C 4.9°F-15.1°C 42% 3.1 mph NNW5.0 kmh NNW 7.6 mph12.2 kmh 30.09 in1019.0 mb 0.00 in0.0 mm 0.00 in/hr0.0 mm/hr 0.00 in0.0 mm
05:07 AM 24.6°F-4.1°C 4.9°F-15.1°C 42% 3.1 mph NNW5.0 kmh NNW 7.6 mph12.2 kmh 30.09 in1019.0 mb 0.00 in0.0 mm 0.00 in/hr0.0 mm/hr 0.00 in0.0 mm
05:08 AM 24.3°F-4.3°C 5.0°F-15.0°C 43% 0.7 mph NNW1.1 kmh NNW 7.6 mph12.2 kmh 30.09 in1019.0 mb 0.00 in0.0 mm 0.00 in/hr0.0 mm/hr 0.00 in0.0 mm
05:09 AM 24.3°F-4.3°C 5.0°F-15.0°C 43% 2.2 mph NNW3.5 kmh NNW 5.4 mph8.7 kmh 30.09 in1019.0 mb 0.00 in0.0 mm 0.00 in/hr0.0 mm/hr 0.00 in0.0 mm
05:10 AM 24.3°F-4.3°C 5.0°F-15.0°C 43% 2.2 mph NNW3.5 kmh NNW 5.4 mph8.7 kmh 30.09 in1019.0 mb 0.00 in0.0 mm 0.00 in/hr0.0 mm/hr 0.00 in0.0 mm
05:11 AM 24.4°F-4.2°C 5.2°F-14.9°C 43% 2.2 mph NNW3.5 kmh NNW 5.4 mph8.7 kmh 30.09 in1019.0 mb 0.00 in0.0 mm 0.00 in/hr0.0 mm/hr 0.00 in0.0 mm
05:12 AM 24.4°F-4.2°C 5.2°F-14.9°C 43% 3.8 mph NNW6.1 kmh NNW 5.4 mph8.7 kmh 30.09 in1019.0 mb 0.00 in0.0 mm 0.00 in/hr0.0 mm/hr 0.00 in0.0 mm
05:13 AM 24.4°F-4.2°C 5.2°F-14.9°C 43% 1.6 mph NNW2.6 kmh NNW 5.4 mph8.7 kmh 30.10 in1019.3 mb 0.00 in0.0 mm 0.00 in/hr0.0 mm/hr 0.00 in0.0 mm
05:14 AM 24.3°F-4.3°C 5.0°F-15.0°C 43% 1.6 mph NNW2.6 kmh NNW 5.4 mph8.7 kmh 30.10 in1019.3 mb 0.00 in0.0 mm 0.00 in/hr0.0 mm/hr 0.00 in0.0 mm
05:15 AM 24.3°F-4.3°C 5.0°F-15.0°C 43% 1.6 mph NW2.6 kmh NW 5.4 mph8.7 kmh 30.10 in1019.3 mb 0.00 in0.0 mm 0.00 in/hr0.0 mm/hr 0.00 in0.0 mm
05:16 AM 24.1°F-4.4°C 4.9°F-15.1°C 43% 1.6 mph NW2.6 kmh NW 5.4 mph8.7 kmh 30.10 in1019.3 mb 0.00 in0.0 mm 0.00 in/hr0.0 mm/hr 0.00 in0.0 mm
05:17 AM 24.3°F-4.3°C 5.0°F-15.0°C 43% 3.1 mph NW5.0 kmh NW 5.4 mph8.7 kmh 30.10 in1019.3 mb 0.00 in0.0 mm 0.00 in/hr0.0 mm/hr 0.00 in0.0 mm
05:18 AM 24.3°F-4.3°C 5.0°F-15.0°C 43% 1.6 mph NW2.6 kmh NW 5.4 mph8.7 kmh 30.10 in1019.3 mb 0.00 in0.0 mm 0.00 in/hr0.0 mm/hr 0.00 in0.0 mm
05:19 AM 24.1°F-4.4°C 4.9°F-15.1°C 43% 3.1 mph NW5.0 kmh NW 5.4 mph8.7 kmh 30.10 in1019.3 mb 0.00 in0.0 mm 0.00 in/hr0.0 mm/hr 0.00 in0.0 mm
05:20 AM 24.3°F-4.3°C 5.0°F-15.0°C 43% 3.8 mph NW6.1 kmh NW 5.4 mph8.7 kmh 30.10 in1019.3 mb 0.00 in0.0 mm 0.00 in/hr0.0 mm/hr 0.00 in0.0 mm
05:21 AM 24.3°F-4.3°C 5.0°F-15.0°C 43% 1.6 mph NW2.6 kmh NW 5.4 mph8.7 kmh 30.10 in1019.3 mb 0.00 in0.0 mm 0.00 in/hr0.0 mm/hr 0.00 in0.0 mm
05:22 AM 24.1°F-4.4°C 4.9°F-15.1°C 43% 2.2 mph WNW3.5 kmh WNW 5.4 mph8.7 kmh 30.10 in1019.3 mb 0.00 in0.0 mm 0.00 in/hr0.0 mm/hr 0.00 in0.0 mm
05:23 AM 24.1°F-4.4°C 4.9°F-15.1°C 43% 0.7 mph WNW1.1 kmh WNW 5.4 mph8.7 kmh 30.10 in1019.3 mb 0.00 in0.0 mm 0.00 in/hr0.0 mm/hr 0.00 in0.0 mm
05:24 AM 24.1°F-4.4°C 4.9°F-15.1°C 43% 2.2 mph WNW3.5 kmh WNW 5.4 mph8.7 kmh 30.10 in1019.3 mb 0.00 in0.0 mm 0.00 in/hr0.0 mm/hr 0.00 in0.0 mm
05:25 AM 24.1°F-4.4°C 4.9°F-15.1°C 43% 2.2 mph NW3.5 kmh NW 5.4 mph8.7 kmh 30.10 in1019.3 mb 0.00 in0.0 mm 0.00 in/hr0.0 mm/hr 0.00 in0.0 mm
05:26 AM 24.1°F-4.4°C 4.9°F-15.1°C 43% 1.6 mph NW2.6 kmh NW 5.4 mph8.7 kmh 30.10 in1019.3 mb 0.00 in0.0 mm 0.00 in/hr0.0 mm/hr 0.00 in0.0 mm
05:27 AM 24.1°F-4.4°C 4.9°F-15.1°C 43% 2.2 mph NW3.5 kmh NW 5.4 mph8.7 kmh 30.11 in1019.6 mb 0.00 in0.0 mm 0.00 in/hr0.0 mm/hr 0.00 in0.0 mm
05:28 AM 24.1°F-4.4°C 4.9°F-15.1°C 43% 1.6 mph WNW2.6 kmh WNW 5.4 mph8.7 kmh 30.11 in1019.6 mb 0.00 in0.0 mm 0.00 in/hr0.0 mm/hr 0.00 in0.0 mm
05:29 AM 23.9°F-4.5°C 4.7°F-15.2°C 43% 1.6 mph WNW2.6 kmh WNW 5.4 mph8.7 kmh 30.11 in1019.6 mb 0.00 in0.0 mm 0.00 in/hr0.0 mm/hr 0.00 in0.0 mm
05:30 AM 23.9°F-4.5°C 4.7°F-15.2°C 43% 0.7 mph WNW1.1 kmh WNW 5.4 mph8.7 kmh 30.11 in1019.6 mb 0.00 in0.0 mm 0.00 in/hr0.0 mm/hr 0.00 in0.0 mm
05:31 AM 23.9°F-4.5°C 4.7°F-15.2°C 43% Calm Calm 4.5 mph7.2 kmh 30.11 in1019.6 mb 0.00 in0.0 mm 0.00 in/hr0.0 mm/hr 0.00 in0.0 mm
05:32 AM 23.9°F-4.5°C 4.7°F-15.2°C 43% 1.6 mph W2.6 kmh W 5.4 mph8.7 kmh 30.11 in1019.6 mb 0.00 in0.0 mm 0.00 in/hr0.0 mm/hr 0.00 in0.0 mm
05:33 AM 23.9°F-4.5°C 4.7°F-15.2°C 43% 2.2 mph W3.5 kmh W 5.4 mph8.7 kmh 30.11 in1019.6 mb 0.00 in0.0 mm 0.00 in/hr0.0 mm/hr 0.00 in0.0 mm
05:34 AM 23.9°F-4.5°C 4.7°F-15.2°C 43% 1.6 mph WSW2.6 kmh WSW 5.4 mph8.7 kmh 30.11 in1019.6 mb 0.00 in0.0 mm 0.00 in/hr0.0 mm/hr 0.00 in0.0 mm
05:35 AM 23.9°F-4.5°C 4.7°F-15.2°C 43% 1.6 mph WSW2.6 kmh WSW 5.4 mph8.7 kmh 30.11 in1019.6 mb 0.00 in0.0 mm 0.00 in/hr0.0 mm/hr 0.00 in0.0 mm
05:36 AM 23.9°F-4.5°C 4.7°F-15.2°C 43% 0.7 mph WSW1.1 kmh WSW 5.4 mph8.7 kmh 30.11 in1019.6 mb 0.00 in0.0 mm 0.00 in/hr0.0 mm/hr 0.00 in0.0 mm
05:37 AM 23.7°F-4.6°C 4.6°F-15.2°C 43% 1.6 mph WSW2.6 kmh WSW 5.4 mph8.7 kmh 30.11 in1019.6 mb 0.00 in0.0 mm 0.00 in/hr0.0 mm/hr 0.00 in0.0 mm
05:38 AM 23.7°F-4.6°C 4.6°F-15.2°C 43% 1.6 mph WSW2.6 kmh WSW 5.4 mph8.7 kmh 30.11 in1019.6 mb 0.00 in0.0 mm 0.00 in/hr0.0 mm/hr 0.00 in0.0 mm
05:39 AM 23.7°F-4.6°C 4.6°F-15.2°C 43% 1.6 mph WSW2.6 kmh WSW 5.4 mph8.7 kmh 30.11 in1019.6 mb 0.00 in0.0 mm 0.00 in/hr0.0 mm/hr 0.00 in0.0 mm
05:40 AM 23.7°F-4.6°C 4.6°F-15.2°C 43% 0.7 mph W1.1 kmh W 5.4 mph8.7 kmh 30.11 in1019.6 mb 0.00 in0.0 mm 0.00 in/hr0.0 mm/hr 0.00 in0.0 mm
05:41 AM 23.7°F-4.6°C 4.6°F-15.2°C 43% 2.2 mph W3.5 kmh W 5.4 mph8.7 kmh 30.11 in1019.6 mb 0.00 in0.0 mm 0.00 in/hr0.0 mm/hr 0.00 in0.0 mm
05:42 AM 23.7°F-4.6°C 4.6°F-15.2°C 43% 0.7 mph W1.1 kmh W 5.4 mph8.7 kmh 30.11 in1019.6 mb 0.00 in0.0 mm 0.00 in/hr0.0 mm/hr 0.00 in0.0 mm
05:43 AM 23.7°F-4.6°C 4.6°F-15.2°C 43% 1.6 mph WNW2.6 kmh WNW 5.4 mph8.7 kmh 30.11 in1019.6 mb 0.00 in0.0 mm 0.00 in/hr0.0 mm/hr 0.00 in0.0 mm
05:44 AM 23.7°F-4.6°C 4.6°F-15.2°C 43% 1.6 mph WNW2.6 kmh WNW 3.8 mph6.1 kmh 30.11 in1019.6 mb 0.00 in0.0 mm 0.00 in/hr0.0 mm/hr 0.00 in0.0 mm
05:45 AM 23.5°F-4.7°C 4.4°F-15.3°C 43% 1.6 mph WNW2.6 kmh WNW 3.8 mph6.1 kmh 30.11 in1019.6 mb 0.00 in0.0 mm 0.00 in/hr0.0 mm/hr 0.00 in0.0 mm
05:46 AM 23.5°F-4.7°C 4.4°F-15.3°C 43% 2.2 mph WNW3.5 kmh WNW 3.8 mph6.1 kmh 30.11 in1019.6 mb 0.00 in0.0 mm 0.00 in/hr0.0 mm/hr 0.00 in0.0 mm
05:47 AM 23.7°F-4.6°C 4.6°F-15.2°C 43% 3.1 mph WNW5.0 kmh WNW 5.4 mph8.7 kmh 30.11 in1019.6 mb 0.00 in0.0 mm 0.00 in/hr0.0 mm/hr 0.00 in0.0 mm
05:48 AM 23.7°F-4.6°C 4.6°F-15.2°C 43% 2.2 mph W3.5 kmh W 5.4 mph8.7 kmh 30.11 in1019.6 mb 0.00 in0.0 mm 0.00 in/hr0.0 mm/hr 0.00 in0.0 mm
05:49 AM 23.7°F-4.6°C 5.5°F-14.7°C 45% 2.2 mph WNW3.5 kmh WNW 5.4 mph8.7 kmh 30.11 in1019.6 mb 0.00 in0.0 mm 0.00 in/hr0.0 mm/hr 0.00 in0.0 mm
05:50 AM 23.5°F-4.7°C 5.4°F-14.8°C 45% 1.6 mph W2.6 kmh W 5.4 mph8.7 kmh 30.11 in1019.6 mb 0.00 in0.0 mm 0.00 in/hr0.0 mm/hr 0.00 in0.0 mm
05:51 AM 23.5°F-4.7°C 5.4°F-14.8°C 45% 0.7 mph W1.1 kmh W 5.4 mph8.7 kmh 30.12 in1020.0 mb 0.00 in0.0 mm 0.00 in/hr0.0 mm/hr 0.00 in0.0 mm
05:52 AM 23.4°F-4.8°C 5.2°F-14.9°C 45% 1.6 mph W2.6 kmh W 5.4 mph8.7 kmh 30.11 in1019.6 mb 0.00 in0.0 mm 0.00 in/hr0.0 mm/hr 0.00 in0.0 mm
05:53 AM 23.5°F-4.7°C 5.4°F-14.8°C 45% 1.6 mph W2.6 kmh W 5.4 mph8.7 kmh 30.11 in1019.6 mb 0.00 in0.0 mm 0.00 in/hr0.0 mm/hr 0.00 in0.0 mm
05:54 AM 23.5°F-4.7°C 5.4°F-14.8°C 45% 0.7 mph W1.1 kmh W 5.4 mph8.7 kmh 30.12 in1020.0 mb 0.00 in0.0 mm 0.00 in/hr0.0 mm/hr 0.00 in0.0 mm
05:55 AM 23.5°F-4.7°C 5.4°F-14.8°C 45% 3.1 mph W5.0 kmh W 6.0 mph9.7 kmh 30.12 in1020.0 mb 0.00 in0.0 mm 0.00 in/hr0.0 mm/hr 0.00 in0.0 mm
05:56 AM 23.5°F-4.7°C 5.4°F-14.8°C 45% 1.6 mph W2.6 kmh W 6.0 mph9.7 kmh 30.12 in1020.0 mb 0.00 in0.0 mm 0.00 in/hr0.0 mm/hr 0.00 in0.0 mm
05:57 AM 23.7°F-4.6°C 5.5°F-14.7°C 45% 0.7 mph W1.1 kmh W 6.0 mph9.7 kmh 30.12 in1020.0 mb 0.00 in0.0 mm 0.00 in/hr0.0 mm/hr 0.00 in0.0 mm
05:58 AM 23.5°F-4.7°C 5.4°F-14.8°C 45% 1.6 mph WNW2.6 kmh WNW 6.0 mph9.7 kmh 30.12 in1020.0 mb 0.00 in0.0 mm 0.00 in/hr0.0 mm/hr 0.00 in0.0 mm
05:59 AM 23.5°F-4.7°C 5.4°F-14.8°C 45% 2.2 mph WNW3.5 kmh WNW 6.0 mph9.7 kmh 30.12 in1020.0 mb 0.00 in0.0 mm 0.00 in/hr0.0 mm/hr 0.00 in0.0 mm
06:00 AM 23.5°F-4.7°C 5.4°F-14.8°C 45% 1.6 mph NW2.6 kmh NW 6.0 mph9.7 kmh 30.13 in1020.3 mb 0.00 in0.0 mm 0.00 in/hr0.0 mm/hr 0.00 in0.0 mm
06:01 AM 23.5°F-4.7°C 5.4°F-14.8°C 45% 2.2 mph NW3.5 kmh NW 6.0 mph9.7 kmh 30.12 in1020.0 mb 0.00 in0.0 mm 0.00 in/hr0.0 mm/hr 0.00 in0.0 mm
06:02 AM 23.5°F-4.7°C 5.4°F-14.8°C 45% 2.2 mph NW3.5 kmh NW 6.0 mph9.7 kmh 30.13 in1020.3 mb 0.00 in0.0 mm 0.00 in/hr0.0 mm/hr 0.00 in0.0 mm
06:03 AM 23.5°F-4.7°C 5.4°F-14.8°C 45% 1.6 mph NW2.6 kmh NW 6.0 mph9.7 kmh 30.13 in1020.3 mb 0.00 in0.0 mm 0.00 in/hr0.0 mm/hr 0.00 in0.0 mm
06:04 AM 23.5°F-4.7°C 5.4°F-14.8°C 45% Calm Calm 6.0 mph9.7 kmh 30.12 in1020.0 mb 0.00 in0.0 mm 0.00 in/hr0.0 mm/hr 0.00 in0.0 mm
06:05 AM 23.4°F-4.8°C 5.2°F-14.9°C 45% 1.6 mph NW2.6 kmh NW 4.5 mph7.2 kmh 30.12 in1020.0 mb 0.00 in0.0 mm 0.00 in/hr0.0 mm/hr 0.00 in0.0 mm
06:06 AM 23.4°F-4.8°C 5.2°F-14.9°C 45% 1.6 mph NW2.6 kmh NW 4.5 mph7.2 kmh 30.12 in1020.0 mb 0.00 in0.0 mm 0.00 in/hr0.0 mm/hr 0.00 in0.0 mm
06:07 AM 23.4°F-4.8°C 5.2°F-14.9°C 45% 1.6 mph NW2.6 kmh NW 4.5 mph7.2 kmh 30.12 in1020.0 mb 0.00 in0.0 mm 0.00 in/hr0.0 mm/hr 0.00 in0.0 mm
06:08 AM 23.2°F-4.9°C 5.0°F-15.0°C 45% Calm Calm 4.5 mph7.2 kmh 30.13 in1020.3 mb 0.00 in0.0 mm 0.00 in/hr0.0 mm/hr 0.00 in0.0 mm
06:09 AM 23.2°F-4.9°C 5.0°F-15.0°C 45% Calm Calm 4.5 mph7.2 kmh 30.12 in1020.0 mb 0.00 in0.0 mm 0.00 in/hr0.0 mm/hr 0.00 in0.0 mm
06:10 AM 23.0°F-5.0°C 4.9°F-15.1°C 45% Calm Calm 4.5 mph7.2 kmh 30.13 in1020.3 mb 0.00 in0.0 mm 0.00 in/hr0.0 mm/hr 0.00 in0.0 mm
06:11 AM 23.0°F-5.0°C 5.4°F-14.8°C 46% 0.7 mph NNW1.1 kmh NNW 4.5 mph7.2 kmh 30.13 in1020.3 mb 0.00 in0.0 mm 0.00 in/hr0.0 mm/hr 0.00 in0.0 mm
06:12 AM 23.2°F-4.9°C 5.5°F-14.7°C 46% 0.7 mph NNW1.1 kmh NNW 3.8 mph6.1 kmh 30.13 in1020.3 mb 0.00 in0.0 mm 0.00 in/hr0.0 mm/hr 0.00 in0.0 mm
06:13 AM 23.2°F-4.9°C 5.5°F-14.7°C 46% 2.2 mph NNW3.5 kmh NNW 3.8 mph6.1 kmh 30.13 in1020.3 mb 0.00 in0.0 mm 0.00 in/hr0.0 mm/hr 0.00 in0.0 mm
06:14 AM 23.2°F-4.9°C 5.5°F-14.7°C 46% 1.6 mph NNW2.6 kmh NNW 3.1 mph5.0 kmh 30.13 in1020.3 mb 0.00 in0.0 mm 0.00 in/hr0.0 mm/hr 0.00 in0.0 mm
06:15 AM 23.2°F-4.9°C 5.5°F-14.7°C 46% 1.6 mph NNW2.6 kmh NNW 3.8 mph6.1 kmh 30.13 in1020.3 mb 0.00 in0.0 mm 0.00 in/hr0.0 mm/hr 0.00 in0.0 mm
06:16 AM 23.2°F-4.9°C 5.5°F-14.7°C 46% Calm Calm 3.8 mph6.1 kmh 30.13 in1020.3 mb 0.00 in0.0 mm 0.00 in/hr0.0 mm/hr 0.00 in0.0 mm
06:17 AM 23.0°F-5.0°C 5.4°F-14.8°C 46% Calm Calm 3.8 mph6.1 kmh 30.13 in1020.3 mb 0.00 in0.0 mm 0.00 in/hr0.0 mm/hr 0.00 in0.0 mm
06:18 AM 23.0°F-5.0°C 5.4°F-14.8°C 46% 1.6 mph NNW2.6 kmh NNW 3.8 mph6.1 kmh 30.13 in1020.3 mb 0.00 in0.0 mm 0.00 in/hr0.0 mm/hr 0.00 in0.0 mm
06:19 AM 23.2°F-4.9°C 5.5°F-14.7°C 46% 0.7 mph NNW1.1 kmh NNW 3.8 mph6.1 kmh 30.13 in1020.3 mb 0.00 in0.0 mm 0.00 in/hr0.0 mm/hr 0.00 in0.0 mm
06:20 AM 23.2°F-4.9°C 5.5°F-14.7°C 46% 2.2 mph N3.5 kmh N 4.5 mph7.2 kmh 30.13 in1020.3 mb 0.00 in0.0 mm 0.00 in/hr0.0 mm/hr 0.00 in0.0 mm
06:21 AM 23.2°F-4.9°C 5.5°F-14.7°C 46% 1.6 mph N2.6 kmh N 4.5 mph7.2 kmh 30.13 in1020.3 mb 0.00 in0.0 mm 0.00 in/hr0.0 mm/hr 0.00 in0.0 mm
06:22 AM 23.2°F-4.9°C 5.5°F-14.7°C 46% 1.6 mph N2.6 kmh N 4.5 mph7.2 kmh 30.14 in1020.7 mb 0.00 in0.0 mm 0.00 in/hr0.0 mm/hr 0.00 in0.0 mm
06:23 AM 23.2°F-4.9°C 5.5°F-14.7°C 46% 2.2 mph NNW3.5 kmh NNW 4.5 mph7.2 kmh 30.14 in1020.7 mb 0.00 in0.0 mm 0.00 in/hr0.0 mm/hr 0.00 in0.0 mm
06:24 AM 23.2°F-4.9°C 5.5°F-14.7°C 46% 1.6 mph NNW2.6 kmh NNW 4.5 mph7.2 kmh 30.13 in1020.3 mb 0.00 in0.0 mm 0.00 in/hr0.0 mm/hr 0.00 in0.0 mm
06:25 AM 23.2°F-4.9°C 5.5°F-14.7°C 46% 2.2 mph NNW3.5 kmh NNW 4.5 mph7.2 kmh 30.13 in1020.3 mb 0.00 in0.0 mm 0.00 in/hr0.0 mm/hr 0.00 in0.0 mm
06:26 AM 23.2°F-4.9°C 5.5°F-14.7°C 46% 2.2 mph N3.5 kmh N 4.5 mph7.2 kmh 30.14 in1020.7 mb 0.00 in0.0 mm 0.00 in/hr0.0 mm/hr 0.00 in0.0 mm
06:27 AM 23.2°F-4.9°C 5.5°F-14.7°C 46% 1.6 mph N2.6 kmh N 4.5 mph7.2 kmh 30.14 in1020.7 mb 0.00 in0.0 mm 0.00 in/hr0.0 mm/hr 0.00 in0.0 mm
06:28 AM 23.2°F-4.9°C 6.0°F-14.4°C 47% 1.6 mph NNW2.6 kmh NNW 4.5 mph7.2 kmh 30.14 in1020.7 mb 0.00 in0.0 mm 0.00 in/hr0.0 mm/hr 0.00 in0.0 mm
06:29 AM 23.2°F-4.9°C 6.0°F-14.4°C 47% 2.2 mph N3.5 kmh N 4.5 mph7.2 kmh 30.14 in1020.7 mb 0.00 in0.0 mm 0.00 in/hr0.0 mm/hr 0.00 in0.0 mm
06:30 AM 23.4°F-4.8°C 6.2°F-14.3°C 47% 1.6 mph NNW2.6 kmh NNW 3.8 mph6.1 kmh 30.14 in1020.7 mb 0.00 in0.0 mm 0.00 in/hr0.0 mm/hr 0.00 in0.0 mm
06:31 AM 23.2°F-4.9°C 6.0°F-14.4°C 47% 1.6 mph NW2.6 kmh NW 3.8 mph6.1 kmh 30.14 in1020.7 mb 0.00 in0.0 mm 0.00 in/hr0.0 mm/hr 0.00 in0.0 mm
06:32 AM 23.2°F-4.9°C 6.0°F-14.4°C 47% 1.6 mph NW2.6 kmh NW 3.8 mph6.1 kmh 30.14 in1020.7 mb 0.00 in0.0 mm 0.00 in/hr0.0 mm/hr 0.00 in0.0 mm
06:33 AM 23.2°F-4.9°C 6.0°F-14.4°C 47% 1.6 mph NNW2.6 kmh NNW 3.8 mph6.1 kmh 30.14 in1020.7 mb 0.00 in0.0 mm 0.00 in/hr0.0 mm/hr 0.00 in0.0 mm
06:34 AM 23.2°F-4.9°C 6.0°F-14.4°C 47% Calm Calm 3.8 mph6.1 kmh 30.14 in1020.7 mb 0.00 in0.0 mm 0.00 in/hr0.0 mm/hr 0.00 in0.0 mm
06:35 AM 23.0°F-5.0°C 5.8°F-14.6°C 47% 0.7 mph NNW1.1 kmh NNW 3.8 mph6.1 kmh 30.14 in1020.7 mb 0.00 in0.0 mm 0.00 in/hr0.0 mm/hr 0.00 in0.0 mm
06:36 AM 23.2°F-4.9°C 6.0°F-14.4°C 47% 0.7 mph NW1.1 kmh NW 3.8 mph6.1 kmh 30.14 in1020.7 mb 0.00 in0.0 mm 0.00 in/hr0.0 mm/hr 0.00 in0.0 mm
06:37 AM 23.0°F-5.0°C 5.8°F-14.6°C 47% 2.2 mph NW3.5 kmh NW 3.8 mph6.1 kmh 30.14 in1020.7 mb 0.00 in0.0 mm 0.00 in/hr0.0 mm/hr 0.00 in0.0 mm
06:38 AM 23.2°F-4.9°C 6.0°F-14.4°C 47% 1.6 mph NNW2.6 kmh NNW 3.8 mph6.1 kmh 30.14 in1020.7 mb 0.00 in0.0 mm 0.00 in/hr0.0 mm/hr 0.00 in0.0 mm
06:39 AM 23.2°F-4.9°C 6.0°F-14.4°C 47% Calm Calm 3.8 mph6.1 kmh 30.14 in1020.7 mb 0.00 in0.0 mm 0.00 in/hr0.0 mm/hr 0.00 in0.0 mm
06:40 AM 23.2°F-4.9°C 6.0°F-14.4°C 47% 0.7 mph NW1.1 kmh NW 3.8 mph6.1 kmh 30.14 in1020.7 mb 0.00 in0.0 mm 0.00 in/hr0.0 mm/hr 0.00 in0.0 mm
06:41 AM 23.2°F-4.9°C 6.0°F-14.4°C 47% 2.2 mph NW3.5 kmh NW 3.8 mph6.1 kmh 30.15 in1021.0 mb 0.00 in0.0 mm 0.00 in/hr0.0 mm/hr 0.00 in0.0 mm
06:42 AM 23.2°F-4.9°C 6.0°F-14.4°C 47% 2.2 mph NW3.5 kmh NW 3.8 mph6.1 kmh 30.15 in1021.0 mb 0.00 in0.0 mm 0.00 in/hr0.0 mm/hr 0.00 in0.0 mm
06:43 AM 23.2°F-4.9°C 6.0°F-14.4°C 47% Calm Calm 3.8 mph6.1 kmh 30.15 in1021.0 mb 0.00 in0.0 mm 0.00 in/hr0.0 mm/hr 0.00 in0.0 mm
06:44 AM 23.2°F-4.9°C 6.0°F-14.4°C 47% Calm Calm 3.8 mph6.1 kmh 30.15 in1021.0 mb 0.00 in0.0 mm 0.00 in/hr0.0 mm/hr 0.00 in0.0 mm
06:45 AM 23.2°F-4.9°C 6.5°F-14.2°C 48% 0.7 mph NW1.1 kmh NW 3.8 mph6.1 kmh 30.15 in1021.0 mb 0.00 in0.0 mm 0.00 in/hr0.0 mm/hr 0.00 in0.0 mm
06:46 AM 23.2°F-4.9°C 6.5°F-14.2°C 48% 0.7 mph NW1.1 kmh NW 3.8 mph6.1 kmh 30.15 in1021.0 mb 0.00 in0.0 mm 0.00 in/hr0.0 mm/hr 0.00 in0.0 mm
06:47 AM 23.2°F-4.9°C 6.5°F-14.2°C 48% 2.2 mph NW3.5 kmh NW 3.8 mph6.1 kmh 30.15 in1021.0 mb 0.00 in0.0 mm 0.00 in/hr0.0 mm/hr 0.00 in0.0 mm
06:48 AM 23.2°F-4.9°C 6.5°F-14.2°C 48% 2.2 mph N3.5 kmh N 3.8 mph6.1 kmh 30.15 in1021.0 mb 0.00 in0.0 mm 0.00 in/hr0.0 mm/hr 0.00 in0.0 mm
06:49 AM 23.4°F-4.8°C 6.6°F-14.1°C 48% Calm Calm 3.8 mph6.1 kmh 30.15 in1021.0 mb 0.00 in0.0 mm 0.00 in/hr0.0 mm/hr 0.00 in0.0 mm
06:50 AM 23.4°F-4.8°C 6.6°F-14.1°C 48% 1.6 mph N2.6 kmh N 5.4 mph8.7 kmh 30.15 in1021.0 mb 0.00 in0.0 mm 0.00 in/hr0.0 mm/hr 0.00 in0.0 mm
06:51 AM 23.4°F-4.8°C 6.6°F-14.1°C 48% 3.1 mph N5.0 kmh N 5.4 mph8.7 kmh 30.16 in1021.3 mb 0.00 in0.0 mm 0.00 in/hr0.0 mm/hr 0.00 in0.0 mm
06:52 AM 23.4°F-4.8°C 6.6°F-14.1°C 48% 4.5 mph N7.2 kmh N 9.2 mph14.8 kmh 30.15 in1021.0 mb 0.00 in0.0 mm 0.00 in/hr0.0 mm/hr 0.00 in0.0 mm
06:53 AM 23.9°F-4.5°C 7.1°F-13.8°C 48% 4.5 mph N7.2 kmh N 9.2 mph14.8 kmh 30.15 in1021.0 mb 0.00 in0.0 mm 0.00 in/hr0.0 mm/hr 0.00 in0.0 mm
06:54 AM 23.9°F-4.5°C 6.7°F-14.1°C 47% 3.1 mph N5.0 kmh N 9.2 mph14.8 kmh 30.15 in1021.0 mb 0.00 in0.0 mm 0.00 in/hr0.0 mm/hr 0.00 in0.0 mm
06:55 AM 23.9°F-4.5°C 6.7°F-14.1°C 47% 3.1 mph N5.0 kmh N 9.2 mph14.8 kmh 30.16 in1021.3 mb 0.00 in0.0 mm 0.00 in/hr0.0 mm/hr 0.00 in0.0 mm
06:56 AM 23.9°F-4.5°C 6.7°F-14.1°C 47% 3.8 mph N6.1 kmh N 9.2 mph14.8 kmh 30.16 in1021.3 mb 0.00 in0.0 mm 0.00 in/hr0.0 mm/hr 0.00 in0.0 mm
06:57 AM 23.7°F-4.6°C 6.5°F-14.2°C 47% 3.1 mph N5.0 kmh N 9.2 mph14.8 kmh 30.16 in1021.3 mb 0.00 in0.0 mm 0.00 in/hr0.0 mm/hr 0.00 in0.0 mm
06:58 AM 23.7°F-4.6°C 6.5°F-14.2°C 47% 2.2 mph N3.5 kmh N 9.2 mph14.8 kmh 30.16 in1021.3 mb 0.00 in0.0 mm 0.00 in/hr0.0 mm/hr 0.00 in0.0 mm
06:59 AM 23.7°F-4.6°C 6.5°F-14.2°C 47% 5.4 mph N8.7 kmh N 9.2 mph14.8 kmh 30.16 in1021.3 mb 0.00 in0.0 mm 0.00 in/hr0.0 mm/hr 0.00 in0.0 mm
07:00 AM 23.9°F-4.5°C 6.7°F-14.1°C 47% 3.1 mph NNW5.0 kmh NNW 9.2 mph14.8 kmh 30.16 in1021.3 mb 0.00 in0.0 mm 0.00 in/hr0.0 mm/hr 0.00 in0.0 mm
07:01 AM 23.9°F-4.5°C 6.7°F-14.1°C 47% 3.1 mph NNW5.0 kmh NNW 9.2 mph14.8 kmh 30.16 in1021.3 mb 0.00 in0.0 mm 0.00 in/hr0.0 mm/hr 0.00 in0.0 mm
07:02 AM 23.9°F-4.5°C 6.7°F-14.1°C 47% 3.1 mph NNW5.0 kmh NNW 8.3 mph13.4 kmh 30.16 in1021.3 mb 0.00 in0.0 mm 0.00 in/hr0.0 mm/hr 0.00 in0.0 mm
07:03 AM 23.9°F-4.5°C 6.7°F-14.1°C 47% 3.1 mph NW5.0 kmh NW 7.6 mph12.2 kmh 30.16 in1021.3 mb 0.00 in0.0 mm 0.00 in/hr0.0 mm/hr 0.00 in0.0 mm
07:04 AM 23.9°F-4.5°C 6.7°F-14.1°C 47% 3.1 mph NW5.0 kmh NW 6.9 mph11.1 kmh 30.16 in1021.3 mb 0.00 in0.0 mm 0.00 in/hr0.0 mm/hr 0.00 in0.0 mm
07:05 AM 23.9°F-4.5°C 6.7°F-14.1°C 47% 3.1 mph NW5.0 kmh NW 6.9 mph11.1 kmh 30.16 in1021.3 mb 0.00 in0.0 mm 0.00 in/hr0.0 mm/hr 0.00 in0.0 mm
07:06 AM 23.9°F-4.5°C 6.7°F-14.1°C 47% 3.1 mph NW5.0 kmh NW 6.9 mph11.1 kmh 30.16 in1021.3 mb 0.00 in0.0 mm 0.00 in/hr0.0 mm/hr 0.00 in0.0 mm
07:07 AM 23.9°F-4.5°C 6.7°F-14.1°C 47% 3.1 mph NW5.0 kmh NW 6.9 mph11.1 kmh 30.16 in1021.3 mb 0.00 in0.0 mm 0.00 in/hr0.0 mm/hr 0.00 in0.0 mm
07:08 AM 23.5°F-4.7°C 6.3°F-14.3°C 47% 0.7 mph NW1.1 kmh NW 6.9 mph11.1 kmh 30.16 in1021.3 mb 0.00 in0.0 mm 0.00 in/hr0.0 mm/hr 0.00 in0.0 mm
07:09 AM 23.5°F-4.7°C 6.3°F-14.3°C 47% 3.8 mph WNW6.1 kmh WNW 4.5 mph7.2 kmh 30.16 in1021.3 mb 0.00 in0.0 mm 0.00 in/hr0.0 mm/hr 0.00 in0.0 mm
07:10 AM 23.5°F-4.7°C 6.3°F-14.3°C 47% 5.4 mph WNW8.7 kmh WNW 9.2 mph14.8 kmh 30.16 in1021.3 mb 0.00 in0.0 mm 0.00 in/hr0.0 mm/hr 0.00 in0.0 mm
07:11 AM 23.7°F-4.6°C 6.5°F-14.2°C 47% 0.7 mph W1.1 kmh W 9.2 mph14.8 kmh 30.16 in1021.3 mb 0.00 in0.0 mm 0.00 in/hr0.0 mm/hr 0.00 in0.0 mm
07:12 AM 23.7°F-4.6°C 6.5°F-14.2°C 47% 1.6 mph W2.6 kmh W 9.2 mph14.8 kmh 30.16 in1021.3 mb 0.00 in0.0 mm 0.00 in/hr0.0 mm/hr 0.00 in0.0 mm
07:13 AM 23.5°F-4.7°C 6.3°F-14.3°C 47% 1.6 mph W2.6 kmh W 9.2 mph14.8 kmh 30.16 in1021.3 mb 0.00 in0.0 mm 0.00 in/hr0.0 mm/hr 0.00 in0.0 mm
07:14 AM 23.5°F-4.7°C 6.3°F-14.3°C 47% 3.1 mph W5.0 kmh W 9.2 mph14.8 kmh 30.16 in1021.3 mb 0.00 in0.0 mm 0.00 in/hr0.0 mm/hr 0.00 in0.0 mm
07:15 AM 23.7°F-4.6°C 6.5°F-14.2°C 47% 3.1 mph WNW5.0 kmh WNW 9.2 mph14.8 kmh 30.16 in1021.3 mb 0.00 in0.0 mm 0.00 in/hr0.0 mm/hr 0.00 in0.0 mm
07:16 AM 23.9°F-4.5°C 6.7°F-14.1°C 47% 2.2 mph WNW3.5 kmh WNW 9.2 mph14.8 kmh 30.17 in1021.7 mb 0.00 in0.0 mm 0.00 in/hr0.0 mm/hr 0.00 in0.0 mm
07:17 AM 23.7°F-4.6°C 6.5°F-14.2°C 47% 3.1 mph WNW5.0 kmh WNW 9.2 mph14.8 kmh 30.16 in1021.3 mb 0.00 in0.0 mm 0.00 in/hr0.0 mm/hr 0.00 in0.0 mm
07:18 AM 23.9°F-4.5°C 6.7°F-14.1°C 47% 2.2 mph NW3.5 kmh NW 9.2 mph14.8 kmh 30.17 in1021.7 mb 0.00 in0.0 mm 0.00 in/hr0.0 mm/hr 0.00 in0.0 mm
07:19 AM 23.9°F-4.5°C 6.2°F-14.3°C 46% 2.2 mph NW3.5 kmh NW 9.2 mph14.8 kmh 30.17 in1021.7 mb 0.00 in0.0 mm 0.00 in/hr0.0 mm/hr 0.00 in0.0 mm
07:20 AM 23.9°F-4.5°C 6.2°F-14.3°C 46% Calm Calm 9.2 mph14.8 kmh 30.17 in1021.7 mb 0.00 in0.0 mm 0.00 in/hr0.0 mm/hr 0.00 in0.0 mm
07:21 AM 23.7°F-4.6°C 6.0°F-14.4°C 46% 0.7 mph NW1.1 kmh NW 7.6 mph12.2 kmh 30.17 in1021.7 mb 0.00 in0.0 mm 0.00 in/hr0.0 mm/hr 0.00 in0.0 mm
07:22 AM 23.7°F-4.6°C 6.0°F-14.4°C 46% 2.2 mph NNW3.5 kmh NNW 7.6 mph12.2 kmh 30.17 in1021.7 mb 0.00 in0.0 mm 0.00 in/hr0.0 mm/hr 0.00 in0.0 mm
07:23 AM 23.9°F-4.5°C 6.2°F-14.3°C 46% 2.2 mph NNW3.5 kmh NNW 7.6 mph12.2 kmh 30.17 in1021.7 mb 0.00 in0.0 mm 0.00 in/hr0.0 mm/hr 0.00 in0.0 mm
07:24 AM 23.7°F-4.6°C 6.0°F-14.4°C 46% 1.6 mph NNW2.6 kmh NNW 7.6 mph12.2 kmh 30.17 in1021.7 mb 0.00 in0.0 mm 0.00 in/hr0.0 mm/hr 0.00 in0.0 mm
07:25 AM 23.7°F-4.6°C 6.0°F-14.4°C 46% 2.2 mph NNW3.5 kmh NNW 6.0 mph9.7 kmh 30.17 in1021.7 mb 0.00 in0.0 mm 0.00 in/hr0.0 mm/hr 0.00 in0.0 mm
07:26 AM 23.7°F-4.6°C 6.0°F-14.4°C 46% 1.6 mph NW2.6 kmh NW 6.0 mph9.7 kmh 30.17 in1021.7 mb 0.00 in0.0 mm 0.00 in/hr0.0 mm/hr 0.00 in0.0 mm
07:27 AM 23.7°F-4.6°C 6.0°F-14.4°C 46% 2.2 mph NW3.5 kmh NW 6.0 mph9.7 kmh 30.17 in1021.7 mb 0.00 in0.0 mm 0.00 in/hr0.0 mm/hr 0.00 in0.0 mm
07:28 AM 23.9°F-4.5°C 6.2°F-14.3°C 46% 2.2 mph NW3.5 kmh NW 5.4 mph8.7 kmh 30.17 in1021.7 mb 0.00 in0.0 mm 0.00 in/hr0.0 mm/hr 0.00 in0.0 mm
07:29 AM 23.9°F-4.5°C 6.2°F-14.3°C 46% 2.2 mph NW3.5 kmh NW 5.4 mph8.7 kmh 30.17 in1021.7 mb 0.00 in0.0 mm 0.00 in/hr0.0 mm/hr 0.00 in0.0 mm
07:30 AM 23.9°F-4.5°C 6.2°F-14.3°C 46% 3.1 mph NW5.0 kmh NW 5.4 mph8.7 kmh 30.17 in1021.7 mb 0.00 in0.0 mm 0.00 in/hr0.0 mm/hr 0.00 in0.0 mm
07:31 AM 23.9°F-4.5°C 6.2°F-14.3°C 46% 3.1 mph NW5.0 kmh NW 5.4 mph8.7 kmh 30.17 in1021.7 mb 0.00 in0.0 mm 0.00 in/hr0.0 mm/hr 0.00 in0.0 mm
07:32 AM 23.9°F-4.5°C 6.2°F-14.3°C 46% 1.6 mph NW2.6 kmh NW 5.4 mph8.7 kmh 30.18 in1022.0 mb 0.00 in0.0 mm 0.00 in/hr0.0 mm/hr 0.00 in0.0 mm
07:33 AM 23.9°F-4.5°C 6.2°F-14.3°C 46% 0.7 mph NW1.1 kmh NW 5.4 mph8.7 kmh 30.18 in1022.0 mb 0.00 in0.0 mm 0.00 in/hr0.0 mm/hr 0.00 in0.0 mm
07:34 AM 23.9°F-4.5°C 6.2°F-14.3°C 46% 0.7 mph NW1.1 kmh NW 5.4 mph8.7 kmh 30.18 in1022.0 mb 0.00 in0.0 mm 0.00 in/hr0.0 mm/hr 0.00 in0.0 mm
07:35 AM 23.9°F-4.5°C 6.2°F-14.3°C 46% 1.6 mph WNW2.6 kmh WNW 5.4 mph8.7 kmh 30.17 in1021.7 mb 0.00 in0.0 mm 0.00 in/hr0.0 mm/hr 0.00 in0.0 mm
07:36 AM 24.1°F-4.4°C 6.3°F-14.3°C 46% 2.2 mph NW3.5 kmh NW 5.4 mph8.7 kmh 30.18 in1022.0 mb 0.00 in0.0 mm 0.00 in/hr0.0 mm/hr 0.00 in0.0 mm
07:37 AM 24.3°F-4.3°C 6.5°F-14.2°C 46% 2.2 mph NW3.5 kmh NW 6.9 mph11.1 kmh 30.18 in1022.0 mb 0.00 in0.0 mm 0.00 in/hr0.0 mm/hr 0.00 in0.0 mm
07:38 AM 24.3°F-4.3°C 6.5°F-14.2°C 46% 2.2 mph NW3.5 kmh NW 6.9 mph11.1 kmh 30.18 in1022.0 mb 0.00 in0.0 mm 0.00 in/hr0.0 mm/hr 0.00 in0.0 mm
07:39 AM 24.3°F-4.3°C 6.5°F-14.2°C 46% 1.6 mph NW2.6 kmh NW 6.9 mph11.1 kmh 30.18 in1022.0 mb 0.00 in0.0 mm 0.00 in/hr0.0 mm/hr 0.00 in0.0 mm
07:40 AM 24.1°F-4.4°C 6.3°F-14.3°C 46% 2.2 mph NW3.5 kmh NW 6.9 mph11.1 kmh 30.18 in1022.0 mb 0.00 in0.0 mm 0.00 in/hr0.0 mm/hr 0.00 in0.0 mm
07:41 AM 24.3°F-4.3°C 6.5°F-14.2°C 46% 1.6 mph NW2.6 kmh NW 6.9 mph11.1 kmh 30.18 in1022.0 mb 0.00 in0.0 mm 0.00 in/hr0.0 mm/hr 0.00 in0.0 mm
07:42 AM 24.3°F-4.3°C 6.5°F-14.2°C 46% 1.6 mph NW2.6 kmh NW 6.9 mph11.1 kmh 30.18 in1022.0 mb 0.00 in0.0 mm 0.00 in/hr0.0 mm/hr 0.00 in0.0 mm
07:43 AM 24.3°F-4.3°C 6.5°F-14.2°C 46% 1.6 mph NW2.6 kmh NW 6.9 mph11.1 kmh 30.18 in1022.0 mb 0.00 in0.0 mm 0.00 in/hr0.0 mm/hr 0.00 in0.0 mm
07:44 AM 24.3°F-4.3°C 6.5°F-14.2°C 46% 3.1 mph NW5.0 kmh NW 6.9 mph11.1 kmh 30.18 in1022.0 mb 0.00 in0.0 mm 0.00 in/hr0.0 mm/hr 0.00 in0.0 mm
07:45 AM 24.6°F-4.1°C 6.8°F-14.0°C 46% 1.6 mph NW2.6 kmh NW 6.9 mph11.1 kmh 30.18 in1022.0 mb 0.00 in0.0 mm 0.00 in/hr0.0 mm/hr 0.00 in0.0 mm
07:46 AM 24.6°F-4.1°C 6.8°F-14.0°C 46% 1.6 mph NW2.6 kmh NW 6.9 mph11.1 kmh 30.18 in1022.0 mb 0.00 in0.0 mm 0.00 in/hr0.0 mm/hr 0.00 in0.0 mm
07:47 AM 24.8°F-4.0°C 6.5°F-14.2°C 45% 3.1 mph NW5.0 kmh NW 6.0 mph9.7 kmh 30.19 in1022.4 mb 0.00 in0.0 mm 0.00 in/hr0.0 mm/hr 0.00 in0.0 mm
07:48 AM 25.0°F-3.9°C 6.7°F-14.1°C 45% Calm Calm 6.0 mph9.7 kmh 30.19 in1022.4 mb 0.00 in0.0 mm 0.00 in/hr0.0 mm/hr 0.00 in0.0 mm
07:49 AM 25.2°F-3.8°C 6.9°F-13.9°C 45% 1.6 mph NW2.6 kmh NW 6.0 mph9.7 kmh 30.19 in1022.4 mb 0.00 in0.0 mm 0.00 in/hr0.0 mm/hr 0.00 in0.0 mm
07:50 AM 25.2°F-3.8°C 6.9°F-13.9°C 45% Calm Calm 6.0 mph9.7 kmh 30.19 in1022.4 mb 0.00 in0.0 mm 0.00 in/hr0.0 mm/hr 0.00 in0.0 mm
07:51 AM 25.2°F-3.8°C 6.9°F-13.9°C 45% 2.2 mph W3.5 kmh W 6.0 mph9.7 kmh 30.19 in1022.4 mb 0.00 in0.0 mm 0.00 in/hr0.0 mm/hr 0.00 in0.0 mm
07:52 AM 25.2°F-3.8°C 6.9°F-13.9°C 45% 3.1 mph W5.0 kmh W 6.9 mph11.1 kmh 30.19 in1022.4 mb 0.00 in0.0 mm 0.00 in/hr0.0 mm/hr 0.00 in0.0 mm
07:53 AM 25.0°F-3.9°C 5.7°F-14.6°C 43% Calm Calm 6.9 mph11.1 kmh 30.19 in1022.4 mb 0.00 in0.0 mm 0.00 in/hr0.0 mm/hr 0.00 in0.0 mm
07:54 AM 25.3°F-3.7°C 6.0°F-14.4°C 43% Calm Calm 6.9 mph11.1 kmh 30.19 in1022.4 mb 0.00 in0.0 mm 0.00 in/hr0.0 mm/hr 0.00 in0.0 mm
07:55 AM 25.3°F-3.7°C 6.0°F-14.4°C 43% 1.6 mph W2.6 kmh W 6.9 mph11.1 kmh 30.19 in1022.4 mb 0.00 in0.0 mm 0.00 in/hr0.0 mm/hr 0.00 in0.0 mm
07:56 AM 25.3°F-3.7°C 6.0°F-14.4°C 43% 1.6 mph WSW2.6 kmh WSW 6.9 mph11.1 kmh 30.19 in1022.4 mb 0.00 in0.0 mm 0.00 in/hr0.0 mm/hr 0.00 in0.0 mm
07:57 AM 25.0°F-3.9°C 5.7°F-14.6°C 43% 1.6 mph W2.6 kmh W 6.9 mph11.1 kmh 30.19 in1022.4 mb 0.00 in0.0 mm 0.00 in/hr0.0 mm/hr 0.00 in0.0 mm
07:58 AM 25.2°F-3.8°C 5.9°F-14.5°C 43% 0.7 mph WSW1.1 kmh WSW 6.9 mph11.1 kmh 30.19 in1022.4 mb 0.00 in0.0 mm 0.00 in/hr0.0 mm/hr 0.00 in0.0 mm
07:59 AM 25.3°F-3.7°C 6.0°F-14.4°C 43% Calm Calm 6.9 mph11.1 kmh 30.19 in1022.4 mb 0.00 in0.0 mm 0.00 in/hr0.0 mm/hr 0.00 in0.0 mm
08:00 AM 25.2°F-3.8°C 5.9°F-14.5°C 43% 0.7 mph WSW1.1 kmh WSW 6.9 mph11.1 kmh 30.19 in1022.4 mb 0.00 in0.0 mm 0.00 in/hr0.0 mm/hr 0.00 in0.0 mm
08:01 AM 25.2°F-3.8°C 5.9°F-14.5°C 43% 1.6 mph W2.6 kmh W 6.9 mph11.1 kmh 30.19 in1022.4 mb 0.00 in0.0 mm 0.00 in/hr0.0 mm/hr 0.00 in0.0 mm
08:02 AM 25.3°F-3.7°C 6.0°F-14.4°C 43% 1.6 mph W2.6 kmh W 6.0 mph9.7 kmh 30.19 in1022.4 mb 0.00 in0.0 mm 0.00 in/hr0.0 mm/hr 0.00 in0.0 mm
08:03 AM 25.5°F-3.6°C 6.2°F-14.3°C 43% 2.2 mph WNW3.5 kmh WNW 6.0 mph9.7 kmh 30.20 in1022.7 mb 0.00 in0.0 mm 0.00 in/hr0.0 mm/hr 0.00 in0.0 mm
08:04 AM 25.7°F-3.5°C 6.4°F-14.2°C 43% 2.2 mph WNW3.5 kmh WNW 6.0 mph9.7 kmh 30.20 in1022.7 mb 0.00 in0.0 mm 0.00 in/hr0.0 mm/hr 0.00 in0.0 mm
08:05 AM 25.5°F-3.6°C 6.2°F-14.3°C 43% 2.2 mph WNW3.5 kmh WNW 6.0 mph9.7 kmh 30.20 in1022.7 mb 0.00 in0.0 mm 0.00 in/hr0.0 mm/hr 0.00 in0.0 mm
08:06 AM 25.5°F-3.6°C 6.2°F-14.3°C 43% 2.2 mph NW3.5 kmh NW 6.0 mph9.7 kmh 30.20 in1022.7 mb 0.00 in0.0 mm 0.00 in/hr0.0 mm/hr 0.00 in0.0 mm
08:07 AM 25.5°F-3.6°C 6.2°F-14.3°C 43% 2.2 mph NW3.5 kmh NW 6.0 mph9.7 kmh 30.20 in1022.7 mb 0.00 in0.0 mm 0.00 in/hr0.0 mm/hr 0.00 in0.0 mm
08:08 AM 25.7°F-3.5°C 6.4°F-14.2°C 43% 2.2 mph NW3.5 kmh NW 3.8 mph6.1 kmh 30.20 in1022.7 mb 0.00 in0.0 mm 0.00 in/hr0.0 mm/hr 0.00 in0.0 mm
08:09 AM 25.7°F-3.5°C 6.4°F-14.2°C 43% 2.2 mph NW3.5 kmh NW 3.8 mph6.1 kmh 30.20 in1022.7 mb 0.00 in0.0 mm 0.00 in/hr0.0 mm/hr 0.00 in0.0 mm
08:10 AM 25.7°F-3.5°C 6.4°F-14.2°C 43% 3.1 mph NNW5.0 kmh NNW 4.5 mph7.2 kmh 30.20 in1022.7 mb 0.00 in0.0 mm 0.00 in/hr0.0 mm/hr 0.00 in0.0 mm
08:11 AM 25.7°F-3.5°C 6.4°F-14.2°C 43% 3.1 mph NNW5.0 kmh NNW 4.5 mph7.2 kmh 30.20 in1022.7 mb 0.00 in0.0 mm 0.00 in/hr0.0 mm/hr 0.00 in0.0 mm
08:12 AM 25.7°F-3.5°C 6.4°F-14.2°C 43% 4.5 mph NNW7.2 kmh NNW 6.9 mph11.1 kmh 30.21 in1023.0 mb 0.00 in0.0 mm 0.00 in/hr0.0 mm/hr 0.00 in0.0 mm
08:13 AM 25.7°F-3.5°C 6.4°F-14.2°C 43% 5.4 mph N8.7 kmh N 7.6 mph12.2 kmh 30.21 in1023.0 mb 0.00 in0.0 mm 0.00 in/hr0.0 mm/hr 0.00 in0.0 mm
08:14 AM 26.1°F-3.3°C 6.2°F-14.3°C 42% 3.8 mph N6.1 kmh N 7.6 mph12.2 kmh 30.21 in1023.0 mb 0.00 in0.0 mm 0.00 in/hr0.0 mm/hr 0.00 in0.0 mm
08:15 AM 26.2°F-3.2°C 6.3°F-14.3°C 42% 3.1 mph N5.0 kmh N 7.6 mph12.2 kmh 30.21 in1023.0 mb 0.00 in0.0 mm 0.00 in/hr0.0 mm/hr 0.00 in0.0 mm
08:16 AM 26.2°F-3.2°C 6.3°F-14.3°C 42% 3.1 mph N5.0 kmh N 7.6 mph12.2 kmh 30.21 in1023.0 mb 0.00 in0.0 mm 0.00 in/hr0.0 mm/hr 0.00 in0.0 mm
08:17 AM 26.2°F-3.2°C 6.3°F-14.3°C 42% 3.1 mph N5.0 kmh N 7.6 mph12.2 kmh 30.21 in1023.0 mb 0.00 in0.0 mm 0.00 in/hr0.0 mm/hr 0.00 in0.0 mm
08:18 AM 26.4°F-3.1°C 6.5°F-14.2°C 42% 2.2 mph N3.5 kmh N 7.6 mph12.2 kmh 30.21 in1023.0 mb 0.00 in0.0 mm 0.00 in/hr0.0 mm/hr 0.00 in0.0 mm
08:19 AM 26.6°F-3.0°C 6.1°F-14.4°C 41% 1.6 mph N2.6 kmh N 7.6 mph12.2 kmh 30.21 in1023.0 mb 0.00 in0.0 mm 0.00 in/hr0.0 mm/hr 0.00 in0.0 mm
08:20 AM 26.6°F-3.0°C 6.1°F-14.4°C 41% 3.1 mph N5.0 kmh N 7.6 mph12.2 kmh 30.21 in1023.0 mb 0.00 in0.0 mm 0.00 in/hr0.0 mm/hr 0.00 in0.0 mm
08:21 AM 26.8°F-2.9°C 6.3°F-14.3°C 41% 1.6 mph N2.6 kmh N 7.6 mph12.2 kmh 30.21 in1023.0 mb 0.00 in0.0 mm 0.00 in/hr0.0 mm/hr 0.00 in0.0 mm
08:22 AM 26.8°F-2.9°C 6.3°F-14.3°C 41% 3.1 mph N5.0 kmh N 7.6 mph12.2 kmh 30.21 in1023.0 mb 0.00 in0.0 mm 0.00 in/hr0.0 mm/hr 0.00 in0.0 mm
08:23 AM 26.8°F-2.9°C 6.3°F-14.3°C 41% 1.6 mph N2.6 kmh N 7.6 mph12.2 kmh 30.21 in1023.0 mb 0.00 in0.0 mm 0.00 in/hr0.0 mm/hr 0.00 in0.0 mm
08:24 AM 27.0°F-2.8°C 6.4°F-14.2°C 41% 3.1 mph N5.0 kmh N 6.0 mph9.7 kmh 30.21 in1023.0 mb 0.00 in0.0 mm 0.00 in/hr0.0 mm/hr 0.00 in0.0 mm
08:25 AM 26.8°F-2.9°C 5.7°F-14.6°C 40% 6.9 mph NNW11.1 kmh NNW 8.3 mph13.4 kmh 30.21 in1023.0 mb 0.00 in0.0 mm 0.00 in/hr0.0 mm/hr 0.00 in0.0 mm
08:26 AM 26.8°F-2.9°C 4.6°F-15.2°C 38% 3.1 mph NNW5.0 kmh NNW 8.3 mph13.4 kmh 30.21 in1023.0 mb 0.00 in0.0 mm 0.00 in/hr0.0 mm/hr 0.00 in0.0 mm
08:27 AM 27.0°F-2.8°C 4.8°F-15.1°C 38% 4.5 mph NNW7.2 kmh NNW 8.3 mph13.4 kmh 30.21 in1023.0 mb 0.00 in0.0 mm 0.00 in/hr0.0 mm/hr 0.00 in0.0 mm
08:28 AM 26.8°F-2.9°C 4.6°F-15.2°C 38% 6.0 mph NNW9.7 kmh NNW 9.2 mph14.8 kmh 30.22 in1023.4 mb 0.00 in0.0 mm 0.00 in/hr0.0 mm/hr 0.00 in0.0 mm
08:29 AM 26.6°F-3.0°C 2.7°F-16.3°C 35% 4.5 mph NW7.2 kmh NW 9.2 mph14.8 kmh 30.22 in1023.4 mb 0.00 in0.0 mm 0.00 in/hr0.0 mm/hr 0.00 in0.0 mm
08:30 AM 26.8°F-2.9°C 2.9°F-16.2°C 35% 4.5 mph NW7.2 kmh NW 9.2 mph14.8 kmh 30.22 in1023.4 mb 0.00 in0.0 mm 0.00 in/hr0.0 mm/hr 0.00 in0.0 mm
08:31 AM 27.0°F-2.8°C 3.0°F-16.1°C 35% 3.8 mph NW6.1 kmh NW 9.2 mph14.8 kmh 30.22 in1023.4 mb 0.00 in0.0 mm 0.00 in/hr0.0 mm/hr 0.00 in0.0 mm
08:32 AM 27.0°F-2.8°C 3.6°F-15.8°C 36% 4.5 mph NNW7.2 kmh NNW 9.2 mph14.8 kmh 30.22 in1023.4 mb 0.00 in0.0 mm 0.00 in/hr0.0 mm/hr 0.00 in0.0 mm
08:33 AM 27.0°F-2.8°C 3.6°F-15.8°C 36% 6.9 mph NNW11.1 kmh NNW 10.7 mph17.2 kmh 30.22 in1023.4 mb 0.00 in0.0 mm 0.00 in/hr0.0 mm/hr 0.00 in0.0 mm
08:34 AM 26.8°F-2.9°C 2.9°F-16.2°C 35% 6.0 mph NNW9.7 kmh NNW 10.7 mph17.2 kmh 30.22 in1023.4 mb 0.00 in0.0 mm 0.00 in/hr0.0 mm/hr 0.00 in0.0 mm
08:35 AM 27.0°F-2.8°C 3.0°F-16.1°C 35% 5.4 mph NNW8.7 kmh NNW 10.7 mph17.2 kmh 30.22 in1023.4 mb 0.00 in0.0 mm 0.00 in/hr0.0 mm/hr 0.00 in0.0 mm
08:36 AM 27.0°F-2.8°C 3.0°F-16.1°C 35% 4.5 mph NNW7.2 kmh NNW 10.7 mph17.2 kmh 30.22 in1023.4 mb 0.00 in0.0 mm 0.00 in/hr0.0 mm/hr 0.00 in0.0 mm
08:37 AM 27.1°F-2.7°C 1.9°F-16.7°C 33% 8.3 mph NNW13.4 kmh NNW 13.0 mph20.9 kmh 30.22 in1023.4 mb 0.00 in0.0 mm 0.00 in/hr0.0 mm/hr 0.00 in0.0 mm
08:38 AM 27.0°F-2.8°C 1.8°F-16.8°C 33% 9.2 mph NNW14.8 kmh NNW 15.2 mph24.5 kmh 30.22 in1023.4 mb 0.00 in0.0 mm 0.00 in/hr0.0 mm/hr 0.00 in0.0 mm
08:39 AM 27.0°F-2.8°C 1.1°F-17.2°C 32% 3.8 mph N6.1 kmh N 15.2 mph24.5 kmh 30.22 in1023.4 mb 0.00 in0.0 mm 0.00 in/hr0.0 mm/hr 0.00 in0.0 mm
08:40 AM 27.1°F-2.7°C 1.9°F-16.7°C 33% 8.3 mph N13.4 kmh N 15.2 mph24.5 kmh 30.23 in1023.7 mb 0.00 in0.0 mm 0.00 in/hr0.0 mm/hr 0.00 in0.0 mm
08:41 AM 27.3°F-2.6°C 2.1°F-16.6°C 33% 6.0 mph N9.7 kmh N 15.2 mph24.5 kmh 30.23 in1023.7 mb 0.00 in0.0 mm 0.00 in/hr0.0 mm/hr 0.00 in0.0 mm
08:42 AM 27.3°F-2.6°C 1.4°F-17.0°C 32% 3.8 mph N6.1 kmh N 15.2 mph24.5 kmh 30.23 in1023.7 mb 0.00 in0.0 mm 0.00 in/hr0.0 mm/hr 0.00 in0.0 mm
08:43 AM 27.5°F-2.5°C 2.2°F-16.6°C 33% 6.9 mph N11.1 kmh N 15.2 mph24.5 kmh 30.23 in1023.7 mb 0.00 in0.0 mm 0.00 in/hr0.0 mm/hr 0.00 in0.0 mm
08:44 AM 27.1°F-2.7°C 1.3°F-17.1°C 32% 6.9 mph N11.1 kmh N 15.2 mph24.5 kmh 30.23 in1023.7 mb 0.00 in0.0 mm 0.00 in/hr0.0 mm/hr 0.00 in0.0 mm
08:45 AM 27.0°F-2.8°C 0.4°F-17.6°C 31% 8.3 mph N13.4 kmh N 15.2 mph24.5 kmh 30.23 in1023.7 mb 0.00 in0.0 mm 0.00 in/hr0.0 mm/hr 0.00 in0.0 mm
08:46 AM 27.1°F-2.7°C 0.6°F-17.4°C 31% 8.3 mph N13.4 kmh N 15.2 mph24.5 kmh 30.23 in1023.7 mb 0.00 in0.0 mm 0.00 in/hr0.0 mm/hr 0.00 in0.0 mm
08:47 AM 27.1°F-2.7°C 0.6°F-17.4°C 31% 9.2 mph N14.8 kmh N 15.2 mph24.5 kmh 30.23 in1023.7 mb 0.00 in0.0 mm 0.00 in/hr0.0 mm/hr 0.00 in0.0 mm
08:48 AM 27.1°F-2.7°C 0.6°F-17.4°C 31% 7.6 mph N12.2 kmh N 14.5 mph23.3 kmh 30.23 in1023.7 mb 0.00 in0.0 mm 0.00 in/hr0.0 mm/hr 0.00 in0.0 mm
08:49 AM 27.3°F-2.6°C 0.7°F-17.4°C 31% 6.0 mph N9.7 kmh N 14.5 mph23.3 kmh 30.23 in1023.7 mb 0.00 in0.0 mm 0.00 in/hr0.0 mm/hr 0.00 in0.0 mm
08:50 AM 27.3°F-2.6°C 0.7°F-17.4°C 31% 4.5 mph N7.2 kmh N 14.5 mph23.3 kmh 30.23 in1023.7 mb 0.00 in0.0 mm 0.00 in/hr0.0 mm/hr 0.00 in0.0 mm
08:51 AM 27.3°F-2.6°C 0.7°F-17.4°C 31% 3.8 mph N6.1 kmh N 14.5 mph23.3 kmh 30.23 in1023.7 mb 0.00 in0.0 mm 0.00 in/hr0.0 mm/hr 0.00 in0.0 mm
08:52 AM 27.3°F-2.6°C 0.7°F-17.4°C 31% 7.6 mph N12.2 kmh N 14.5 mph23.3 kmh 30.23 in1023.7 mb 0.00 in0.0 mm 0.00 in/hr0.0 mm/hr 0.00 in0.0 mm
08:53 AM 27.3°F-2.6°C 0.7°F-17.4°C 31% 9.2 mph N14.8 kmh N 14.5 mph23.3 kmh 30.23 in1023.7 mb 0.00 in0.0 mm 0.00 in/hr0.0 mm/hr 0.00 in0.0 mm
08:54 AM 27.1°F-2.7°C -0.1°F-17.8°C 30% 5.4 mph N8.7 kmh N 14.5 mph23.3 kmh 30.23 in1023.7 mb 0.00 in0.0 mm 0.00 in/hr0.0 mm/hr 0.00 in0.0 mm
08:55 AM 27.5°F-2.5°C 0.2°F-17.7°C 30% 3.8 mph N6.1 kmh N 14.5 mph23.3 kmh 30.23 in1023.7 mb 0.00 in0.0 mm 0.00 in/hr0.0 mm/hr 0.00 in0.0 mm
08:56 AM 27.9°F-2.3°C 1.2°F-17.1°C 31% 5.4 mph N8.7 kmh N 14.5 mph23.3 kmh 30.23 in1023.7 mb 0.00 in0.0 mm 0.00 in/hr0.0 mm/hr 0.00 in0.0 mm
08:57 AM 27.9°F-2.3°C 1.2°F-17.1°C 31% 8.3 mph N13.4 kmh N 12.1 mph19.5 kmh 30.23 in1023.7 mb 0.00 in0.0 mm 0.00 in/hr0.0 mm/hr 0.00 in0.0 mm
08:58 AM 27.5°F-2.5°C 0.2°F-17.7°C 30% 6.9 mph N11.1 kmh N 12.1 mph19.5 kmh 30.23 in1023.7 mb 0.00 in0.0 mm 0.00 in/hr0.0 mm/hr 0.00 in0.0 mm
08:59 AM 27.5°F-2.5°C 0.2°F-17.7°C 30% 9.2 mph N14.8 kmh N 12.1 mph19.5 kmh 30.23 in1023.7 mb 0.00 in0.0 mm 0.00 in/hr0.0 mm/hr 0.00 in0.0 mm
09:00 AM 27.3°F-2.6°C 0.0°F-17.8°C 30% 7.6 mph N12.2 kmh N 12.1 mph19.5 kmh 30.23 in1023.7 mb 0.00 in0.0 mm 0.00 in/hr0.0 mm/hr 0.00 in0.0 mm
09:01 AM 27.3°F-2.6°C 0.0°F-17.8°C 30% 7.6 mph N12.2 kmh N 12.1 mph19.5 kmh 30.23 in1023.7 mb 0.00 in0.0 mm 0.00 in/hr0.0 mm/hr 0.00 in0.0 mm
09:02 AM 27.5°F-2.5°C 0.2°F-17.7°C 30% 5.4 mph NNW8.7 kmh NNW 12.1 mph19.5 kmh 30.23 in1023.7 mb 0.00 in0.0 mm 0.00 in/hr0.0 mm/hr 0.00 in0.0 mm
09:03 AM 27.9°F-2.3°C 0.5°F-17.5°C 30% 4.5 mph NNW7.2 kmh NNW 12.1 mph19.5 kmh 30.23 in1023.7 mb 0.00 in0.0 mm 0.00 in/hr0.0 mm/hr 0.00 in0.0 mm
09:04 AM 28.0°F-2.2°C 0.7°F-17.4°C 30% 3.8 mph NNW6.1 kmh NNW 12.1 mph19.5 kmh 30.23 in1023.7 mb 0.00 in0.0 mm 0.00 in/hr0.0 mm/hr 0.00 in0.0 mm
09:05 AM 28.2°F-2.1°C 1.5°F-16.9°C 31% 3.1 mph NNW5.0 kmh NNW 12.1 mph19.5 kmh 30.23 in1023.7 mb 0.00 in0.0 mm 0.00 in/hr0.0 mm/hr 0.00 in0.0 mm
09:06 AM 28.6°F-1.9°C 5.1°F-14.9°C 36% 3.8 mph NNW6.1 kmh NNW 12.1 mph19.5 kmh 30.24 in1024.0 mb 0.00 in0.0 mm 0.00 in/hr0.0 mm/hr 0.00 in0.0 mm
09:07 AM 28.4°F-2.0°C 4.3°F-15.4°C 35% 11.4 mph NNW18.3 kmh NNW 15.9 mph25.6 kmh 30.23 in1023.7 mb 0.00 in0.0 mm 0.00 in/hr0.0 mm/hr 0.00 in0.0 mm
09:08 AM 27.7°F-2.4°C 0.4°F-17.6°C 30% 7.6 mph NNW12.2 kmh NNW 15.9 mph25.6 kmh 30.24 in1024.0 mb 0.00 in0.0 mm 0.00 in/hr0.0 mm/hr 0.00 in0.0 mm
09:09 AM 27.7°F-2.4°C -1.1°F-18.4°C 28% 6.9 mph NNW11.1 kmh NNW 15.9 mph25.6 kmh 30.24 in1024.0 mb 0.00 in0.0 mm 0.00 in/hr0.0 mm/hr 0.00 in0.0 mm
09:10 AM 27.9°F-2.3°C -1.0°F-18.3°C 28% 8.3 mph N13.4 kmh N 15.9 mph25.6 kmh 30.24 in1024.0 mb 0.00 in0.0 mm 0.00 in/hr0.0 mm/hr 0.00 in0.0 mm
09:11 AM 27.9°F-2.3°C -1.0°F-18.3°C 28% 6.0 mph N9.7 kmh N 15.9 mph25.6 kmh 30.24 in1024.0 mb 0.00 in0.0 mm 0.00 in/hr0.0 mm/hr 0.00 in0.0 mm
09:12 AM 28.0°F-2.2°C -0.8°F-18.2°C 28% 4.5 mph NNE7.2 kmh NNE 15.9 mph25.6 kmh 30.23 in1023.7 mb 0.00 in0.0 mm 0.00 in/hr0.0 mm/hr 0.00 in0.0 mm
09:13 AM 28.0°F-2.2°C -0.8°F-18.2°C 28% 4.5 mph N7.2 kmh N 15.9 mph25.6 kmh 30.24 in1024.0 mb 0.00 in0.0 mm 0.00 in/hr0.0 mm/hr 0.00 in0.0 mm
09:14 AM 28.0°F-2.2°C -0.8°F-18.2°C 28% 6.0 mph N9.7 kmh N 15.9 mph25.6 kmh 30.24 in1024.0 mb 0.00 in0.0 mm 0.00 in/hr0.0 mm/hr 0.00 in0.0 mm
09:15 AM 28.2°F-2.1°C -0.6°F-18.1°C 28% 7.6 mph N12.2 kmh N 15.9 mph25.6 kmh 30.24 in1024.0 mb 0.00 in0.0 mm 0.00 in/hr0.0 mm/hr 0.00 in0.0 mm
09:16 AM 27.7°F-2.4°C -1.9°F-18.8°C 27% 8.3 mph N13.4 kmh N 15.9 mph25.6 kmh 30.23 in1023.7 mb 0.00 in0.0 mm 0.00 in/hr0.0 mm/hr 0.00 in0.0 mm
09:17 AM 27.9°F-2.3°C -1.7°F-18.7°C 27% 7.6 mph N12.2 kmh N 14.5 mph23.3 kmh 30.24 in1024.0 mb 0.00 in0.0 mm 0.00 in/hr0.0 mm/hr 0.00 in0.0 mm
09:18 AM 28.0°F-2.2°C -1.6°F-18.7°C 27% 7.6 mph N12.2 kmh N 14.5 mph23.3 kmh 30.24 in1024.0 mb 0.00 in0.0 mm 0.00 in/hr0.0 mm/hr 0.00 in0.0 mm
09:19 AM 28.0°F-2.2°C -1.6°F-18.7°C 27% 6.9 mph N11.1 kmh N 14.5 mph23.3 kmh 30.23 in1023.7 mb 0.00 in0.0 mm 0.00 in/hr0.0 mm/hr 0.00 in0.0 mm
09:20 AM 28.0°F-2.2°C -2.4°F-19.1°C 26% 11.4 mph NNW18.3 kmh NNW 16.8 mph27.0 kmh 30.24 in1024.0 mb 0.00 in0.0 mm 0.00 in/hr0.0 mm/hr 0.00 in0.0 mm
09:21 AM 27.9°F-2.3°C -2.5°F-19.2°C 26% 10.7 mph NNW17.2 kmh NNW 16.8 mph27.0 kmh 30.24 in1024.0 mb 0.00 in0.0 mm 0.00 in/hr0.0 mm/hr 0.00 in0.0 mm
09:22 AM 27.7°F-2.4°C -2.7°F-19.3°C 26% 10.7 mph NW17.2 kmh NW 16.8 mph27.0 kmh 30.24 in1024.0 mb 0.00 in0.0 mm 0.00 in/hr0.0 mm/hr 0.00 in0.0 mm
09:23 AM 27.9°F-2.3°C -2.5°F-19.2°C 26% 6.0 mph NNW9.7 kmh NNW 16.8 mph27.0 kmh 30.24 in1024.0 mb 0.00 in0.0 mm 0.00 in/hr0.0 mm/hr 0.00 in0.0 mm
09:24 AM 28.0°F-2.2°C -2.4°F-19.1°C 26% 7.6 mph NNW12.2 kmh NNW 16.8 mph27.0 kmh 30.24 in1024.0 mb 0.00 in0.0 mm 0.00 in/hr0.0 mm/hr 0.00 in0.0 mm
09:25 AM 28.4°F-2.0°C 1.7°F-16.8°C 31% 4.5 mph NNW7.2 kmh NNW 16.8 mph27.0 kmh 30.24 in1024.0 mb 0.00 in0.0 mm 0.00 in/hr0.0 mm/hr 0.00 in0.0 mm
09:26 AM 28.6°F-1.9°C 2.5°F-16.4°C 32% 7.6 mph N12.2 kmh N 16.8 mph27.0 kmh 30.24 in1024.0 mb 0.00 in0.0 mm 0.00 in/hr0.0 mm/hr 0.00 in0.0 mm
09:27 AM 28.2°F-2.1°C -2.2°F-19.0°C 26% 7.6 mph NNW12.2 kmh NNW 16.8 mph27.0 kmh 30.24 in1024.0 mb 0.00 in0.0 mm 0.00 in/hr0.0 mm/hr 0.00 in0.0 mm
09:28 AM 28.2°F-2.1°C -3.0°F-19.4°C 25% 4.5 mph NNW7.2 kmh NNW 16.8 mph27.0 kmh 30.24 in1024.0 mb 0.00 in0.0 mm 0.00 in/hr0.0 mm/hr 0.00 in0.0 mm
09:29 AM 28.6°F-1.9°C 1.1°F-17.2°C 30% 6.9 mph NNW11.1 kmh NNW 16.8 mph27.0 kmh 30.24 in1024.0 mb 0.00 in0.0 mm 0.00 in/hr0.0 mm/hr 0.00 in0.0 mm
09:30 AM 28.8°F-1.8°C 1.3°F-17.1°C 30% 8.3 mph N13.4 kmh N 16.8 mph27.0 kmh 30.24 in1024.0 mb 0.00 in0.0 mm 0.00 in/hr0.0 mm/hr 0.00 in0.0 mm
09:31 AM 28.6°F-1.9°C 1.1°F-17.2°C 30% 8.3 mph N13.4 kmh N 16.8 mph27.0 kmh 30.24 in1024.0 mb 0.00 in0.0 mm 0.00 in/hr0.0 mm/hr 0.00 in0.0 mm
09:32 AM 28.0°F-2.2°C -3.2°F-19.6°C 25% 10.7 mph N17.2 kmh N 15.2 mph24.5 kmh 30.24 in1024.0 mb 0.00 in0.0 mm 0.00 in/hr0.0 mm/hr 0.00 in0.0 mm
09:33 AM 28.2°F-2.1°C -3.0°F-19.4°C 25% 6.9 mph N11.1 kmh N 15.2 mph24.5 kmh 30.24 in1024.0 mb 0.00 in0.0 mm 0.00 in/hr0.0 mm/hr 0.00 in0.0 mm
09:34 AM 28.8°F-1.8°C 1.3°F-17.1°C 30% 13.0 mph N20.9 kmh N 17.4 mph28.0 kmh 30.25 in1024.4 mb 0.00 in0.0 mm 0.00 in/hr0.0 mm/hr 0.00 in0.0 mm
09:35 AM 28.4°F-2.0°C 1.0°F-17.2°C 30% 10.7 mph N17.2 kmh N 19.0 mph30.6 kmh 30.25 in1024.4 mb 0.00 in0.0 mm 0.00 in/hr0.0 mm/hr 0.00 in0.0 mm
09:36 AM 28.2°F-2.1°C -4.8°F-20.4°C 23% 5.4 mph N8.7 kmh N 19.0 mph30.6 kmh 30.25 in1024.4 mb 0.00 in0.0 mm 0.00 in/hr0.0 mm/hr 0.00 in0.0 mm
09:37 AM 28.4°F-2.0°C -0.5°F-18.1°C 28% 9.8 mph N15.8 kmh N 19.0 mph30.6 kmh 30.25 in1024.4 mb 0.00 in0.0 mm 0.00 in/hr0.0 mm/hr 0.00 in0.0 mm
09:38 AM 28.0°F-2.2°C -4.9°F-20.5°C 23% 12.1 mph N19.5 kmh N 19.0 mph30.6 kmh 30.25 in1024.4 mb 0.00 in0.0 mm 0.00 in/hr0.0 mm/hr 0.00 in0.0 mm
09:39 AM 28.0°F-2.2°C -4.9°F-20.5°C 23% 9.8 mph N15.8 kmh N 19.0 mph30.6 kmh 30.25 in1024.4 mb 0.00 in0.0 mm 0.00 in/hr0.0 mm/hr 0.00 in0.0 mm
09:40 AM 28.2°F-2.1°C -4.8°F-20.4°C 23% 9.8 mph N15.8 kmh N 19.0 mph30.6 kmh 30.25 in1024.4 mb 0.00 in0.0 mm 0.00 in/hr0.0 mm/hr 0.00 in0.0 mm
09:41 AM 28.4°F-2.0°C -0.5°F-18.1°C 28% 9.8 mph N15.8 kmh N 19.0 mph30.6 kmh 30.25 in1024.4 mb 0.00 in0.0 mm 0.00 in/hr0.0 mm/hr 0.00 in0.0 mm
09:42 AM 28.4°F-2.0°C -0.5°F-18.1°C 28% 8.3 mph N13.4 kmh N 19.0 mph30.6 kmh 30.25 in1024.4 mb 0.00 in0.0 mm 0.00 in/hr0.0 mm/hr 0.00 in0.0 mm
09:43 AM 28.4°F-2.0°C -0.5°F-18.1°C 28% 15.9 mph N25.6 kmh N 25.9 mph41.7 kmh 30.25 in1024.4 mb 0.00 in0.0 mm 0.00 in/hr0.0 mm/hr 0.00 in0.0 mm
09:44 AM 28.0°F-2.2°C -5.8°F-21.0°C 22% 13.0 mph NNE20.9 kmh NNE 25.9 mph41.7 kmh 30.25 in1024.4 mb 0.00 in0.0 mm 0.00 in/hr0.0 mm/hr 0.00 in0.0 mm
09:45 AM 28.0°F-2.2°C -5.8°F-21.0°C 22% 10.7 mph NNE17.2 kmh NNE 25.9 mph41.7 kmh 30.25 in1024.4 mb 0.00 in0.0 mm 0.00 in/hr0.0 mm/hr 0.00 in0.0 mm
09:46 AM 28.4°F-2.0°C -1.3°F-18.5°C 27% 13.0 mph NNE20.9 kmh NNE 25.9 mph41.7 kmh 30.25 in1024.4 mb 0.00 in0.0 mm 0.00 in/hr0.0 mm/hr 0.00 in0.0 mm
09:47 AM 28.4°F-2.0°C -1.3°F-18.5°C 27% 4.5 mph NNE7.2 kmh NNE 25.9 mph41.7 kmh 30.26 in1024.7 mb 0.00 in0.0 mm 0.00 in/hr0.0 mm/hr 0.00 in0.0 mm
09:48 AM 28.8°F-1.8°C -0.2°F-17.9°C 28% 6.9 mph NNE11.1 kmh NNE 25.9 mph41.7 kmh 30.25 in1024.4 mb 0.00 in0.0 mm 0.00 in/hr0.0 mm/hr 0.00 in0.0 mm
09:49 AM 29.1°F-1.6°C 0.1°F-17.7°C 28% 3.1 mph NNE5.0 kmh NNE 25.9 mph41.7 kmh 30.25 in1024.4 mb 0.00 in0.0 mm 0.00 in/hr0.0 mm/hr 0.00 in0.0 mm
09:50 AM 29.3°F-1.5°C 0.3°F-17.6°C 28% 6.0 mph NNE9.7 kmh NNE 25.9 mph41.7 kmh 30.25 in1024.4 mb 0.00 in0.0 mm 0.00 in/hr0.0 mm/hr 0.00 in0.0 mm
09:51 AM 29.1°F-1.6°C 0.1°F-17.7°C 28% 7.6 mph NNE12.2 kmh NNE 25.9 mph41.7 kmh 30.25 in1024.4 mb 0.00 in0.0 mm 0.00 in/hr0.0 mm/hr 0.00 in0.0 mm
09:52 AM 28.9°F-1.7°C -0.8°F-18.2°C 27% 9.2 mph NNE14.8 kmh NNE 25.9 mph41.7 kmh 30.25 in1024.4 mb 0.00 in0.0 mm 0.00 in/hr0.0 mm/hr 0.00 in0.0 mm
09:53 AM 29.3°F-1.5°C 0.3°F-17.6°C 28% 7.6 mph NNE12.2 kmh NNE 23.5 mph37.8 kmh 30.25 in1024.4 mb 0.00 in0.0 mm 0.00 in/hr0.0 mm/hr 0.00 in0.0 mm
09:54 AM 28.9°F-1.7°C 0.0°F-17.8°C 28% 9.2 mph NNE14.8 kmh NNE 20.6 mph33.2 kmh 30.26 in1024.7 mb 0.00 in0.0 mm 0.00 in/hr0.0 mm/hr 0.00 in0.0 mm
09:55 AM 28.9°F-1.7°C -0.8°F-18.2°C 27% 7.6 mph NNE12.2 kmh NNE 19.0 mph30.6 kmh 30.26 in1024.7 mb 0.00 in0.0 mm 0.00 in/hr0.0 mm/hr 0.00 in0.0 mm
09:56 AM 28.9°F-1.7°C 0.0°F-17.8°C 28% 6.9 mph N11.1 kmh N 19.0 mph30.6 kmh 30.26 in1024.7 mb 0.00 in0.0 mm 0.00 in/hr0.0 mm/hr 0.00 in0.0 mm
09:57 AM 28.8°F-1.8°C -0.2°F-17.9°C 28% 7.6 mph N12.2 kmh N 16.8 mph27.0 kmh 30.25 in1024.4 mb 0.00 in0.0 mm 0.00 in/hr0.0 mm/hr 0.00 in0.0 mm
09:58 AM 29.1°F-1.6°C -0.6°F-18.1°C 27% 8.3 mph N13.4 kmh N 16.8 mph27.0 kmh 30.25 in1024.4 mb 0.00 in0.0 mm 0.00 in/hr0.0 mm/hr 0.00 in0.0 mm
09:59 AM 28.9°F-1.7°C -0.8°F-18.2°C 27% 8.3 mph N13.4 kmh N 16.8 mph27.0 kmh 30.25 in1024.4 mb 0.00 in0.0 mm 0.00 in/hr0.0 mm/hr 0.00 in0.0 mm
10:00 AM 29.1°F-1.6°C 0.1°F-17.7°C 28% 9.2 mph N14.8 kmh N 16.8 mph27.0 kmh 30.25 in1024.4 mb 0.00 in0.0 mm 0.00 in/hr0.0 mm/hr 0.00 in0.0 mm
10:01 AM 29.5°F-1.4°C 0.5°F-17.5°C 28% 3.1 mph N5.0 kmh N 16.8 mph27.0 kmh 30.25 in1024.4 mb 0.00 in0.0 mm 0.00 in/hr0.0 mm/hr 0.00 in0.0 mm
10:02 AM 30.0°F-1.1°C 0.9°F-17.3°C 28% 9.2 mph N14.8 kmh N 18.3 mph29.5 kmh 30.25 in1024.4 mb 0.00 in0.0 mm 0.00 in/hr0.0 mm/hr 0.00 in0.0 mm
10:03 AM 29.3°F-1.5°C -0.5°F-18.1°C 27% 6.9 mph N11.1 kmh N 18.3 mph29.5 kmh 30.25 in1024.4 mb 0.00 in0.0 mm 0.00 in/hr0.0 mm/hr 0.00 in0.0 mm
10:04 AM 29.7°F-1.3°C -0.2°F-17.9°C 27% 5.4 mph N8.7 kmh N 18.3 mph29.5 kmh 30.25 in1024.4 mb 0.00 in0.0 mm 0.00 in/hr0.0 mm/hr 0.00 in0.0 mm
10:05 AM 29.1°F-1.6°C -0.6°F-18.1°C 27% 9.2 mph N14.8 kmh N 18.3 mph29.5 kmh 30.25 in1024.4 mb 0.00 in0.0 mm 0.00 in/hr0.0 mm/hr 0.00 in0.0 mm
10:06 AM 29.1°F-1.6°C -0.6°F-18.1°C 27% 7.6 mph N12.2 kmh N 18.3 mph29.5 kmh 30.26 in1024.7 mb 0.00 in0.0 mm 0.00 in/hr0.0 mm/hr 0.00 in0.0 mm
10:07 AM 28.9°F-1.7°C -1.6°F-18.7°C 26% 9.8 mph N15.8 kmh N 18.3 mph29.5 kmh 30.26 in1024.7 mb 0.00 in0.0 mm 0.00 in/hr0.0 mm/hr 0.00 in0.0 mm
10:08 AM 28.9°F-1.7°C -1.6°F-18.7°C 26% 9.8 mph N15.8 kmh N 18.3 mph29.5 kmh 30.25 in1024.4 mb 0.00 in0.0 mm 0.00 in/hr0.0 mm/hr 0.00 in0.0 mm
10:09 AM 29.1°F-1.6°C -1.4°F-18.6°C 26% 5.4 mph N8.7 kmh N 18.3 mph29.5 kmh 30.26 in1024.7 mb 0.00 in0.0 mm 0.00 in/hr0.0 mm/hr 0.00 in0.0 mm
10:10 AM 29.3°F-1.5°C -1.3°F-18.5°C 26% 4.5 mph NNW7.2 kmh NNW 18.3 mph29.5 kmh 30.25 in1024.4 mb 0.00 in0.0 mm 0.00 in/hr0.0 mm/hr 0.00 in0.0 mm
10:11 AM 29.5°F-1.4°C -1.1°F-18.4°C 26% 6.0 mph N9.7 kmh N 18.3 mph29.5 kmh 30.25 in1024.4 mb 0.00 in0.0 mm 0.00 in/hr0.0 mm/hr 0.00 in0.0 mm
10:12 AM 29.8°F-1.2°C -0.8°F-18.2°C 26% 8.3 mph N13.4 kmh N 18.3 mph29.5 kmh 30.26 in1024.7 mb 0.00 in0.0 mm 0.00 in/hr0.0 mm/hr 0.00 in0.0 mm
10:13 AM 29.8°F-1.2°C -0.8°F-18.2°C 26% 7.6 mph N12.2 kmh N 14.5 mph23.3 kmh 30.26 in1024.7 mb 0.00 in0.0 mm 0.00 in/hr0.0 mm/hr 0.00 in0.0 mm
10:14 AM 29.7°F-1.3°C -1.0°F-18.3°C 26% 7.6 mph N12.2 kmh N 14.5 mph23.3 kmh 30.26 in1024.7 mb 0.00 in0.0 mm 0.00 in/hr0.0 mm/hr 0.00 in0.0 mm
10:15 AM 29.3°F-1.5°C -1.3°F-18.5°C 26% 7.6 mph NNE12.2 kmh NNE 15.2 mph24.5 kmh 30.25 in1024.4 mb 0.00 in0.0 mm 0.00 in/hr0.0 mm/hr 0.00 in0.0 mm
10:16 AM 29.3°F-1.5°C -1.3°F-18.5°C 26% 8.3 mph NNE13.4 kmh NNE 15.2 mph24.5 kmh 30.25 in1024.4 mb 0.00 in0.0 mm 0.00 in/hr0.0 mm/hr 0.00 in0.0 mm
10:17 AM 29.5°F-1.4°C -1.9°F-18.8°C 25% 10.7 mph NE17.2 kmh NE 17.4 mph28.0 kmh 30.25 in1024.4 mb 0.00 in0.0 mm 0.00 in/hr0.0 mm/hr 0.00 in0.0 mm
10:18 AM 29.1°F-1.6°C -2.3°F-19.1°C 25% 8.3 mph NE13.4 kmh NE 17.4 mph28.0 kmh 30.26 in1024.7 mb 0.00 in0.0 mm 0.00 in/hr0.0 mm/hr 0.00 in0.0 mm
10:19 AM 29.7°F-1.3°C -1.8°F-18.8°C 25% 6.0 mph NE9.7 kmh NE 17.4 mph28.0 kmh 30.25 in1024.4 mb 0.00 in0.0 mm 0.00 in/hr0.0 mm/hr 0.00 in0.0 mm
10:20 AM 29.8°F-1.2°C -1.6°F-18.7°C 25% 9.2 mph NE14.8 kmh NE 17.4 mph28.0 kmh 30.26 in1024.7 mb 0.00 in0.0 mm 0.00 in/hr0.0 mm/hr 0.00 in0.0 mm
10:21 AM 29.8°F-1.2°C -1.6°F-18.7°C 25% 8.3 mph NE13.4 kmh NE 17.4 mph28.0 kmh 30.26 in1024.7 mb 0.00 in0.0 mm 0.00 in/hr0.0 mm/hr 0.00 in0.0 mm
10:22 AM 29.3°F-1.5°C -2.1°F-18.9°C 25% 6.0 mph NE9.7 kmh NE 17.4 mph28.0 kmh 30.26 in1024.7 mb 0.00 in0.0 mm 0.00 in/hr0.0 mm/hr 0.00 in0.0 mm
10:23 AM 29.8°F-1.2°C -1.6°F-18.7°C 25% 6.9 mph NE11.1 kmh NE 17.4 mph28.0 kmh 30.26 in1024.7 mb 0.00 in0.0 mm 0.00 in/hr0.0 mm/hr 0.00 in0.0 mm
10:24 AM 30.0°F-1.1°C -0.7°F-18.2°C 26% 7.6 mph NNE12.2 kmh NNE 17.4 mph28.0 kmh 30.26 in1024.7 mb 0.00 in0.0 mm 0.00 in/hr0.0 mm/hr 0.00 in0.0 mm
10:25 AM 30.7°F-0.7°C -0.9°F-18.3°C 25% 5.4 mph N8.7 kmh N 17.4 mph28.0 kmh 30.26 in1024.7 mb 0.00 in0.0 mm 0.00 in/hr0.0 mm/hr 0.00 in0.0 mm
10:26 AM 30.6°F-0.8°C -1.0°F-18.3°C 25% 5.4 mph N8.7 kmh N 17.4 mph28.0 kmh 30.26 in1024.7 mb 0.00 in0.0 mm 0.00 in/hr0.0 mm/hr 0.00 in0.0 mm
10:27 AM 30.6°F-0.8°C -1.0°F-18.3°C 25% 5.4 mph N8.7 kmh N 17.4 mph28.0 kmh 30.26 in1024.7 mb 0.00 in0.0 mm 0.00 in/hr0.0 mm/hr 0.00 in0.0 mm
10:28 AM 30.4°F-0.9°C -1.2°F-18.4°C 25% 13.6 mph N21.9 kmh N 20.6 mph33.2 kmh 30.27 in1025.1 mb 0.00 in0.0 mm 0.00 in/hr0.0 mm/hr 0.00 in0.0 mm
10:29 AM 30.7°F-0.7°C -0.9°F-18.3°C 25% 3.1 mph N5.0 kmh N 20.6 mph33.2 kmh 30.26 in1024.7 mb 0.00 in0.0 mm 0.00 in/hr0.0 mm/hr 0.00 in0.0 mm
10:30 AM 31.1°F-0.5°C -0.6°F-18.1°C 25% 3.8 mph N6.1 kmh N 20.6 mph33.2 kmh 30.26 in1024.7 mb 0.00 in0.0 mm 0.00 in/hr0.0 mm/hr 0.00 in0.0 mm
10:31 AM 31.1°F-0.5°C -0.6°F-18.1°C 25% 6.0 mph N9.7 kmh N 20.6 mph33.2 kmh 30.27 in1025.1 mb 0.00 in0.0 mm 0.00 in/hr0.0 mm/hr 0.00 in0.0 mm
10:32 AM 30.7°F-0.7°C -0.9°F-18.3°C 25% 6.9 mph N11.1 kmh N 20.6 mph33.2 kmh 30.27 in1025.1 mb 0.00 in0.0 mm 0.00 in/hr0.0 mm/hr 0.00 in0.0 mm
10:33 AM 30.0°F-1.1°C -1.5°F-18.6°C 25% 6.0 mph N9.7 kmh N 20.6 mph33.2 kmh 30.27 in1025.1 mb 0.00 in0.0 mm 0.00 in/hr0.0 mm/hr 0.00 in0.0 mm
10:34 AM 30.2°F-1.0°C -3.1°F-19.5°C 23% 8.3 mph N13.4 kmh N 20.6 mph33.2 kmh 30.27 in1025.1 mb 0.00 in0.0 mm 0.00 in/hr0.0 mm/hr 0.00 in0.0 mm
10:35 AM 30.0°F-1.1°C -1.5°F-18.6°C 25% 9.8 mph N15.8 kmh N 20.6 mph33.2 kmh 30.27 in1025.1 mb 0.00 in0.0 mm 0.00 in/hr0.0 mm/hr 0.00 in0.0 mm
10:36 AM 30.2°F-1.0°C -3.1°F-19.5°C 23% 9.2 mph N14.8 kmh N 20.6 mph33.2 kmh 30.27 in1025.1 mb 0.00 in0.0 mm 0.00 in/hr0.0 mm/hr 0.00 in0.0 mm
10:37 AM 30.7°F-0.7°C -2.6°F-19.2°C 23% 6.9 mph N11.1 kmh N 20.6 mph33.2 kmh 30.26 in1024.7 mb 0.00 in0.0 mm 0.00 in/hr0.0 mm/hr 0.00 in0.0 mm
10:38 AM 30.9°F-0.6°C -2.5°F-19.2°C 23% 4.5 mph N7.2 kmh N 15.9 mph25.6 kmh 30.26 in1024.7 mb 0.00 in0.0 mm 0.00 in/hr0.0 mm/hr 0.00 in0.0 mm
10:39 AM 31.3°F-0.4°C -2.2°F-19.0°C 23% 7.6 mph N12.2 kmh N 15.9 mph25.6 kmh 30.27 in1025.1 mb 0.00 in0.0 mm 0.00 in/hr0.0 mm/hr 0.00 in0.0 mm
10:40 AM 30.9°F-0.6°C -2.5°F-19.2°C 23% 6.9 mph N11.1 kmh N 15.9 mph25.6 kmh 30.27 in1025.1 mb 0.00 in0.0 mm 0.00 in/hr0.0 mm/hr 0.00 in0.0 mm
10:41 AM 30.9°F-0.6°C -2.5°F-19.2°C 23% 9.2 mph N14.8 kmh N 15.9 mph25.6 kmh 30.27 in1025.1 mb 0.00 in0.0 mm 0.00 in/hr0.0 mm/hr 0.00 in0.0 mm
10:42 AM 30.0°F-1.1°C -1.5°F-18.6°C 25% 9.2 mph N14.8 kmh N 15.9 mph25.6 kmh 30.27 in1025.1 mb 0.00 in0.0 mm 0.00 in/hr0.0 mm/hr 0.00 in0.0 mm
10:43 AM 30.0°F-1.1°C -1.5°F-18.6°C 25% 9.2 mph N14.8 kmh N 15.9 mph25.6 kmh 30.27 in1025.1 mb 0.00 in0.0 mm 0.00 in/hr0.0 mm/hr 0.00 in0.0 mm
10:44 AM 30.0°F-1.1°C -1.5°F-18.6°C 25% 9.8 mph N15.8 kmh N 15.9 mph25.6 kmh 30.27 in1025.1 mb 0.00 in0.0 mm 0.00 in/hr0.0 mm/hr 0.00 in0.0 mm
10:45 AM 30.2°F-1.0°C -3.1°F-19.5°C 23% 9.8 mph N15.8 kmh N 19.0 mph30.6 kmh 30.27 in1025.1 mb 0.00 in0.0 mm 0.00 in/hr0.0 mm/hr 0.00 in0.0 mm
10:46 AM 30.4°F-0.9°C -2.9°F-19.4°C 23% 12.1 mph NNE19.5 kmh NNE 19.0 mph30.6 kmh 30.27 in1025.1 mb 0.00 in0.0 mm 0.00 in/hr0.0 mm/hr 0.00 in0.0 mm
10:47 AM 30.4°F-0.9°C -2.9°F-19.4°C 23% 7.6 mph N12.2 kmh N 19.0 mph30.6 kmh 30.26 in1024.7 mb 0.00 in0.0 mm 0.00 in/hr0.0 mm/hr 0.00 in0.0 mm
10:48 AM 30.6°F-0.8°C -2.8°F-19.3°C 23% 9.8 mph N15.8 kmh N 19.0 mph30.6 kmh 30.27 in1025.1 mb 0.00 in0.0 mm 0.00 in/hr0.0 mm/hr 0.00 in0.0 mm
10:49 AM 30.6°F-0.8°C -2.8°F-19.3°C 23% 7.6 mph N12.2 kmh N 19.0 mph30.6 kmh 30.27 in1025.1 mb 0.00 in0.0 mm 0.00 in/hr0.0 mm/hr 0.00 in0.0 mm
10:50 AM 30.2°F-1.0°C -3.1°F-19.5°C 23% 7.6 mph N12.2 kmh N 19.0 mph30.6 kmh 30.27 in1025.1 mb 0.00 in0.0 mm 0.00 in/hr0.0 mm/hr 0.00 in0.0 mm
10:51 AM 30.7°F-0.7°C -2.6°F-19.2°C 23% 6.9 mph N11.1 kmh N 19.0 mph30.6 kmh 30.27 in1025.1 mb 0.00 in0.0 mm 0.00 in/hr0.0 mm/hr 0.00 in0.0 mm
10:52 AM 30.9°F-0.6°C -2.5°F-19.2°C 23% 9.8 mph N15.8 kmh N 19.0 mph30.6 kmh 30.27 in1025.1 mb 0.00 in0.0 mm 0.00 in/hr0.0 mm/hr 0.00 in0.0 mm
10:53 AM 30.7°F-0.7°C -2.6°F-19.2°C 23% 6.9 mph N11.1 kmh N 19.0 mph30.6 kmh 30.27 in1025.1 mb 0.00 in0.0 mm 0.00 in/hr0.0 mm/hr 0.00 in0.0 mm
10:54 AM 31.1°F-0.5°C -2.3°F-19.1°C 23% 6.9 mph N11.1 kmh N 19.0 mph30.6 kmh 30.27 in1025.1 mb 0.00 in0.0 mm 0.00 in/hr0.0 mm/hr 0.00 in0.0 mm
10:55 AM 30.9°F-0.6°C -2.5°F-19.2°C 23% 6.9 mph N11.1 kmh N 19.0 mph30.6 kmh 30.27 in1025.1 mb 0.00 in0.0 mm 0.00 in/hr0.0 mm/hr 0.00 in0.0 mm
10:56 AM 31.1°F-0.5°C -2.3°F-19.1°C 23% 10.7 mph N17.2 kmh N 17.4 mph28.0 kmh 30.27 in1025.1 mb 0.00 in0.0 mm 0.00 in/hr0.0 mm/hr 0.00 in0.0 mm
10:57 AM 31.5°F-0.3°C -2.0°F-18.9°C 23% 6.9 mph N11.1 kmh N 15.9 mph25.6 kmh 30.27 in1025.1 mb 0.00 in0.0 mm 0.00 in/hr0.0 mm/hr 0.00 in0.0 mm
10:58 AM 31.3°F-0.4°C -2.2°F-19.0°C 23% 9.2 mph N14.8 kmh N 14.5 mph23.3 kmh 30.27 in1025.1 mb 0.00 in0.0 mm 0.00 in/hr0.0 mm/hr 0.00 in0.0 mm
10:59 AM 30.9°F-0.6°C -2.5°F-19.2°C 23% 6.0 mph N9.7 kmh N 14.5 mph23.3 kmh 30.27 in1025.1 mb 0.00 in0.0 mm 0.00 in/hr0.0 mm/hr 0.00 in0.0 mm
11:00 AM 30.6°F-0.8°C -2.8°F-19.3°C 23% 7.6 mph N12.2 kmh N 14.5 mph23.3 kmh 30.27 in1025.1 mb 0.00 in0.0 mm 0.00 in/hr0.0 mm/hr 0.00 in0.0 mm
11:01 AM 30.6°F-0.8°C -2.8°F-19.3°C 23% 7.6 mph N12.2 kmh N 14.5 mph23.3 kmh 30.27 in1025.1 mb 0.00 in0.0 mm 0.00 in/hr0.0 mm/hr 0.00 in0.0 mm
11:02 AM 30.7°F-0.7°C -2.6°F-19.2°C 23% 6.9 mph N11.1 kmh N 14.5 mph23.3 kmh 30.27 in1025.1 mb 0.00 in0.0 mm 0.00 in/hr0.0 mm/hr 0.00 in0.0 mm
11:03 AM 31.1°F-0.5°C -2.3°F-19.1°C 23% 4.5 mph N7.2 kmh N 14.5 mph23.3 kmh 30.27 in1025.1 mb 0.00 in0.0 mm 0.00 in/hr0.0 mm/hr 0.00 in0.0 mm
11:04 AM 31.1°F-0.5°C -2.3°F-19.1°C 23% 4.5 mph N7.2 kmh N 14.5 mph23.3 kmh 30.27 in1025.1 mb 0.00 in0.0 mm 0.00 in/hr0.0 mm/hr 0.00 in0.0 mm
11:05 AM 31.5°F-0.3°C -2.0°F-18.9°C 23% 7.6 mph N12.2 kmh N 14.5 mph23.3 kmh 30.27 in1025.1 mb 0.00 in0.0 mm 0.00 in/hr0.0 mm/hr 0.00 in0.0 mm
11:06 AM 31.1°F-0.5°C -2.3°F-19.1°C 23% 8.3 mph NNW13.4 kmh NNW 13.6 mph21.9 kmh 30.27 in1025.1 mb 0.00 in0.0 mm 0.00 in/hr0.0 mm/hr 0.00 in0.0 mm
11:07 AM 30.9°F-0.6°C -2.5°F-19.2°C 23% 6.9 mph NNW11.1 kmh NNW 13.6 mph21.9 kmh 30.27 in1025.1 mb 0.00 in0.0 mm 0.00 in/hr0.0 mm/hr 0.00 in0.0 mm
11:08 AM 31.6°F-0.2°C -1.9°F-18.8°C 23% 6.0 mph N9.7 kmh N 13.6 mph21.9 kmh 30.26 in1024.7 mb 0.00 in0.0 mm 0.00 in/hr0.0 mm/hr 0.00 in0.0 mm
11:09 AM 31.8°F-0.1°C -1.7°F-18.7°C 23% 6.0 mph N9.7 kmh N 13.6 mph21.9 kmh 30.26 in1024.7 mb 0.00 in0.0 mm 0.00 in/hr0.0 mm/hr 0.00 in0.0 mm
11:10 AM 31.5°F-0.3°C -2.0°F-18.9°C 23% 3.8 mph N6.1 kmh N 13.6 mph21.9 kmh 30.26 in1024.7 mb 0.00 in0.0 mm 0.00 in/hr0.0 mm/hr 0.00 in0.0 mm
11:11 AM 32.0°F0.0°C -2.5°F-19.2°C 22% 5.4 mph N8.7 kmh N 13.6 mph21.9 kmh 30.27 in1025.1 mb 0.00 in0.0 mm 0.00 in/hr0.0 mm/hr 0.00 in0.0 mm
11:12 AM 31.8°F-0.1°C -1.7°F-18.7°C 23% 3.8 mph N6.1 kmh N 13.6 mph21.9 kmh 30.26 in1024.7 mb 0.00 in0.0 mm 0.00 in/hr0.0 mm/hr 0.00 in0.0 mm
11:13 AM 31.3°F-0.4°C -2.2°F-19.0°C 23% 9.8 mph N15.8 kmh N 14.5 mph23.3 kmh 30.26 in1024.7 mb 0.00 in0.0 mm 0.00 in/hr0.0 mm/hr 0.00 in0.0 mm
11:14 AM 30.7°F-0.7°C -2.6°F-19.2°C 23% 6.9 mph N11.1 kmh N 14.5 mph23.3 kmh 30.26 in1024.7 mb 0.00 in0.0 mm 0.00 in/hr0.0 mm/hr 0.00 in0.0 mm
11:15 AM 31.1°F-0.5°C -2.3°F-19.1°C 23% 6.9 mph N11.1 kmh N 14.5 mph23.3 kmh 30.26 in1024.7 mb 0.00 in0.0 mm 0.00 in/hr0.0 mm/hr 0.00 in0.0 mm
11:16 AM 31.1°F-0.5°C -2.3°F-19.1°C 23% 6.9 mph N11.1 kmh N 14.5 mph23.3 kmh 30.26 in1024.7 mb 0.00 in0.0 mm 0.00 in/hr0.0 mm/hr 0.00 in0.0 mm
11:17 AM 31.1°F-0.5°C -2.3°F-19.1°C 23% 9.2 mph N14.8 kmh N 16.8 mph27.0 kmh 30.27 in1025.1 mb 0.00 in0.0 mm 0.00 in/hr0.0 mm/hr 0.00 in0.0 mm
11:18 AM 31.3°F-0.4°C -2.2°F-19.0°C 23% 7.6 mph N12.2 kmh N 16.8 mph27.0 kmh 30.26 in1024.7 mb 0.00 in0.0 mm 0.00 in/hr0.0 mm/hr 0.00 in0.0 mm
11:19 AM 31.1°F-0.5°C -2.3°F-19.1°C 23% 8.3 mph N13.4 kmh N 16.8 mph27.0 kmh 30.26 in1024.7 mb 0.00 in0.0 mm 0.00 in/hr0.0 mm/hr 0.00 in0.0 mm
11:20 AM 31.5°F-0.3°C -2.0°F-18.9°C 23% 9.2 mph N14.8 kmh N 16.8 mph27.0 kmh 30.27 in1025.1 mb 0.00 in0.0 mm 0.00 in/hr0.0 mm/hr 0.00 in0.0 mm
11:21 AM 30.7°F-0.7°C -2.6°F-19.2°C 23% 6.0 mph N9.7 kmh N 16.8 mph27.0 kmh 30.26 in1024.7 mb 0.00 in0.0 mm 0.00 in/hr0.0 mm/hr 0.00 in0.0 mm
11:22 AM 31.3°F-0.4°C -2.2°F-19.0°C 23% 5.4 mph N8.7 kmh N 16.8 mph27.0 kmh 30.26 in1024.7 mb 0.00 in0.0 mm 0.00 in/hr0.0 mm/hr 0.00 in0.0 mm
11:23 AM 31.6°F-0.2°C -1.9°F-18.8°C 23% 7.6 mph N12.2 kmh N 16.8 mph27.0 kmh 30.27 in1025.1 mb 0.00 in0.0 mm 0.00 in/hr0.0 mm/hr 0.00 in0.0 mm
11:24 AM 31.5°F-0.3°C -2.0°F-18.9°C 23% 7.6 mph NNW12.2 kmh NNW 16.8 mph27.0 kmh 30.27 in1025.1 mb 0.00 in0.0 mm 0.00 in/hr0.0 mm/hr 0.00 in0.0 mm
11:25 AM 31.6°F-0.2°C -1.9°F-18.8°C 23% 9.8 mph N15.8 kmh N 16.8 mph27.0 kmh 30.26 in1024.7 mb 0.00 in0.0 mm 0.00 in/hr0.0 mm/hr 0.00 in0.0 mm
11:26 AM 31.1°F-0.5°C -2.3°F-19.1°C 23% 6.9 mph N11.1 kmh N 16.8 mph27.0 kmh 30.27 in1025.1 mb 0.00 in0.0 mm 0.00 in/hr0.0 mm/hr 0.00 in0.0 mm
11:27 AM 31.5°F-0.3°C -2.0°F-18.9°C 23% 6.9 mph N11.1 kmh N 16.8 mph27.0 kmh 30.27 in1025.1 mb 0.00 in0.0 mm 0.00 in/hr0.0 mm/hr 0.00 in0.0 mm
11:28 AM 30.7°F-0.7°C -2.6°F-19.2°C 23% 4.5 mph N7.2 kmh N 16.8 mph27.0 kmh 30.26 in1024.7 mb 0.00 in0.0 mm 0.00 in/hr0.0 mm/hr 0.00 in0.0 mm
11:29 AM 31.8°F-0.1°C -1.7°F-18.7°C 23% 10.7 mph N17.2 kmh N 18.3 mph29.5 kmh 30.27 in1025.1 mb 0.00 in0.0 mm 0.00 in/hr0.0 mm/hr 0.00 in0.0 mm
11:30 AM 31.3°F-0.4°C -2.2°F-19.0°C 23% 9.8 mph N15.8 kmh N 18.3 mph29.5 kmh 30.27 in1025.1 mb 0.00 in0.0 mm 0.00 in/hr0.0 mm/hr 0.00 in0.0 mm
11:31 AM 31.1°F-0.5°C -2.3°F-19.1°C 23% 7.6 mph N12.2 kmh N 18.3 mph29.5 kmh 30.27 in1025.1 mb 0.00 in0.0 mm 0.00 in/hr0.0 mm/hr 0.00 in0.0 mm
11:32 AM 30.9°F-0.6°C -2.5°F-19.2°C 23% 7.6 mph N12.2 kmh N 18.3 mph29.5 kmh 30.27 in1025.1 mb 0.00 in0.0 mm 0.00 in/hr0.0 mm/hr 0.00 in0.0 mm
11:33 AM 31.5°F-0.3°C -2.0°F-18.9°C 23% 3.1 mph N5.0 kmh N 18.3 mph29.5 kmh 30.26 in1024.7 mb 0.00 in0.0 mm 0.00 in/hr0.0 mm/hr 0.00 in0.0 mm
11:34 AM 32.4°F0.2°C -2.2°F-19.0°C 22% 5.4 mph N8.7 kmh N 18.3 mph29.5 kmh 30.26 in1024.7 mb 0.00 in0.0 mm 0.00 in/hr0.0 mm/hr 0.00 in0.0 mm
11:35 AM 31.8°F-0.1°C -1.7°F-18.7°C 23% 3.8 mph N6.1 kmh N 18.3 mph29.5 kmh 30.27 in1025.1 mb 0.00 in0.0 mm 0.00 in/hr0.0 mm/hr 0.00 in0.0 mm
11:36 AM 31.6°F-0.2°C -1.9°F-18.8°C 23% 3.8 mph N6.1 kmh N 18.3 mph29.5 kmh 30.27 in1025.1 mb 0.00 in0.0 mm 0.00 in/hr0.0 mm/hr 0.00 in0.0 mm
11:37 AM 31.3°F-0.4°C -2.2°F-19.0°C 23% 4.5 mph N7.2 kmh N 18.3 mph29.5 kmh 30.26 in1024.7 mb 0.00 in0.0 mm 0.00 in/hr0.0 mm/hr 0.00 in0.0 mm
11:38 AM 31.5°F-0.3°C -2.0°F-18.9°C 23% 6.0 mph N9.7 kmh N 18.3 mph29.5 kmh 30.26 in1024.7 mb 0.00 in0.0 mm 0.00 in/hr0.0 mm/hr 0.00 in0.0 mm
11:39 AM 31.5°F-0.3°C -2.0°F-18.9°C 23% 9.2 mph NNW14.8 kmh NNW 18.3 mph29.5 kmh 30.26 in1024.7 mb 0.00 in0.0 mm 0.00 in/hr0.0 mm/hr 0.00 in0.0 mm
11:40 AM 30.9°F-0.6°C -2.5°F-19.2°C 23% 8.3 mph N13.4 kmh N 16.8 mph27.0 kmh 30.27 in1025.1 mb 0.00 in0.0 mm 0.00 in/hr0.0 mm/hr 0.00 in0.0 mm
11:41 AM 32.0°F0.0°C -2.5°F-19.2°C 22% 3.8 mph N6.1 kmh N 16.8 mph27.0 kmh 30.26 in1024.7 mb 0.00 in0.0 mm 0.00 in/hr0.0 mm/hr 0.00 in0.0 mm
11:42 AM 32.2°F0.1°C -2.3°F-19.1°C 22% 5.4 mph N8.7 kmh N 16.8 mph27.0 kmh 30.26 in1024.7 mb 0.00 in0.0 mm 0.00 in/hr0.0 mm/hr 0.00 in0.0 mm
11:43 AM 32.5°F0.3°C -2.0°F-18.9°C 22% 6.0 mph N9.7 kmh N 16.8 mph27.0 kmh 30.26 in1024.7 mb 0.00 in0.0 mm 0.00 in/hr0.0 mm/hr 0.00 in0.0 mm
11:44 AM 32.4°F0.2°C -2.2°F-19.0°C 22% 3.1 mph N5.0 kmh N 16.8 mph27.0 kmh 30.26 in1024.7 mb 0.00 in0.0 mm 0.00 in/hr0.0 mm/hr 0.00 in0.0 mm
11:45 AM 32.2°F0.1°C -2.3°F-19.1°C 22% 4.5 mph N7.2 kmh N 16.8 mph27.0 kmh 30.26 in1024.7 mb 0.00 in0.0 mm 0.00 in/hr0.0 mm/hr 0.00 in0.0 mm
11:46 AM 31.5°F-0.3°C -2.0°F-18.9°C 23% 8.3 mph N13.4 kmh N 16.8 mph27.0 kmh 30.26 in1024.7 mb 0.00 in0.0 mm 0.00 in/hr0.0 mm/hr 0.00 in0.0 mm
11:47 AM 31.6°F-0.2°C -1.9°F-18.8°C 23% 8.3 mph NNE13.4 kmh NNE 16.8 mph27.0 kmh 30.27 in1025.1 mb 0.00 in0.0 mm 0.00 in/hr0.0 mm/hr 0.00 in0.0 mm
11:48 AM 31.5°F-0.3°C -2.0°F-18.9°C 23% 5.4 mph NNE8.7 kmh NNE 16.8 mph27.0 kmh 30.26 in1024.7 mb 0.00 in0.0 mm 0.00 in/hr0.0 mm/hr 0.00 in0.0 mm
11:49 AM 31.6°F-0.2°C -1.9°F-18.8°C 23% 5.4 mph NE8.7 kmh NE 16.8 mph27.0 kmh 30.26 in1024.7 mb 0.00 in0.0 mm 0.00 in/hr0.0 mm/hr 0.00 in0.0 mm
11:50 AM 31.1°F-0.5°C -2.3°F-19.1°C 23% 7.6 mph NE12.2 kmh NE 13.6 mph21.9 kmh 30.27 in1025.1 mb 0.00 in0.0 mm 0.00 in/hr0.0 mm/hr 0.00 in0.0 mm
11:51 AM 30.9°F-0.6°C -2.5°F-19.2°C 23% 8.3 mph NE13.4 kmh NE 13.6 mph21.9 kmh 30.26 in1024.7 mb 0.00 in0.0 mm 0.00 in/hr0.0 mm/hr 0.00 in0.0 mm
11:52 AM 30.9°F-0.6°C -2.5°F-19.2°C 23% 6.9 mph NE11.1 kmh NE 13.6 mph21.9 kmh 30.26 in1024.7 mb 0.00 in0.0 mm 0.00 in/hr0.0 mm/hr 0.00 in0.0 mm
11:53 AM 31.6°F-0.2°C -1.9°F-18.8°C 23% 8.3 mph NE13.4 kmh NE 13.6 mph21.9 kmh 30.27 in1025.1 mb 0.00 in0.0 mm 0.00 in/hr0.0 mm/hr 0.00 in0.0 mm
11:54 AM 32.0°F0.0°C -2.5°F-19.2°C 22% 9.8 mph NE15.8 kmh NE 15.2 mph24.5 kmh 30.26 in1024.7 mb 0.00 in0.0 mm 0.00 in/hr0.0 mm/hr 0.00 in0.0 mm
11:55 AM 31.6°F-0.2°C -1.9°F-18.8°C 23% 9.2 mph NNE14.8 kmh NNE 15.2 mph24.5 kmh 30.27 in1025.1 mb 0.00 in0.0 mm 0.00 in/hr0.0 mm/hr 0.00 in0.0 mm
11:56 AM 31.1°F-0.5°C -2.3°F-19.1°C 23% 7.6 mph NNE12.2 kmh NNE 15.2 mph24.5 kmh 30.26 in1024.7 mb 0.00 in0.0 mm 0.00 in/hr0.0 mm/hr 0.00 in0.0 mm
11:57 AM 31.5°F-0.3°C -2.0°F-18.9°C 23% 5.4 mph N8.7 kmh N 15.2 mph24.5 kmh 30.27 in1025.1 mb 0.00 in0.0 mm 0.00 in/hr0.0 mm/hr 0.00 in0.0 mm
11:58 AM 31.6°F-0.2°C -1.9°F-18.8°C 23% 4.5 mph N7.2 kmh N 15.2 mph24.5 kmh 30.26 in1024.7 mb 0.00 in0.0 mm 0.00 in/hr0.0 mm/hr 0.00 in0.0 mm
11:59 AM 32.0°F0.0°C -2.5°F-19.2°C 22% 6.0 mph N9.7 kmh N 15.2 mph24.5 kmh 30.26 in1024.7 mb 0.00 in0.0 mm 0.00 in/hr0.0 mm/hr 0.00 in0.0 mm
12:00 PM 32.0°F0.0°C -2.5°F-19.2°C 22% 3.8 mph N6.1 kmh N 15.2 mph24.5 kmh 30.26 in1024.7 mb 0.00 in0.0 mm 0.00 in/hr0.0 mm/hr 0.00 in0.0 mm
12:01 PM 32.0°F0.0°C -2.5°F-19.2°C 22% 9.2 mph NNW14.8 kmh NNW 16.8 mph27.0 kmh 30.26 in1024.7 mb 0.00 in0.0 mm 0.00 in/hr0.0 mm/hr 0.00 in0.0 mm
12:02 PM 31.8°F-0.1°C -1.7°F-18.7°C 23% 6.0 mph NNW9.7 kmh NNW 16.8 mph27.0 kmh 30.26 in1024.7 mb 0.00 in0.0 mm 0.00 in/hr0.0 mm/hr 0.00 in0.0 mm
12:03 PM 31.6°F-0.2°C -1.9°F-18.8°C 23% 6.9 mph NW11.1 kmh NW 16.8 mph27.0 kmh 30.26 in1024.7 mb 0.00 in0.0 mm 0.00 in/hr0.0 mm/hr 0.00 in0.0 mm
12:04 PM 32.2°F0.1°C -2.3°F-19.1°C 22% 6.9 mph NNW11.1 kmh NNW 16.8 mph27.0 kmh 30.26 in1024.7 mb 0.00 in0.0 mm 0.00 in/hr0.0 mm/hr 0.00 in0.0 mm
12:05 PM 32.4°F0.2°C -2.2°F-19.0°C 22% 3.8 mph NNW6.1 kmh NNW 16.8 mph27.0 kmh 30.26 in1024.7 mb 0.00 in0.0 mm 0.00 in/hr0.0 mm/hr 0.00 in0.0 mm
12:06 PM 33.1°F0.6°C -1.6°F-18.7°C 22% 4.5 mph N7.2 kmh N 16.8 mph27.0 kmh 30.26 in1024.7 mb 0.00 in0.0 mm 0.00 in/hr0.0 mm/hr 0.00 in0.0 mm
12:07 PM 32.7°F0.4°C -1.9°F-18.8°C 22% 9.8 mph N15.8 kmh N 16.8 mph27.0 kmh 30.26 in1024.7 mb 0.00 in0.0 mm 0.00 in/hr0.0 mm/hr 0.00 in0.0 mm
12:08 PM 32.7°F0.4°C -1.9°F-18.8°C 22% 5.4 mph N8.7 kmh N 16.8 mph27.0 kmh 30.27 in1025.1 mb 0.00 in0.0 mm 0.00 in/hr0.0 mm/hr 0.00 in0.0 mm
12:09 PM 33.6°F0.9°C -1.1°F-18.4°C 22% 3.8 mph N6.1 kmh N 16.8 mph27.0 kmh 30.26 in1024.7 mb 0.00 in0.0 mm 0.00 in/hr0.0 mm/hr 0.00 in0.0 mm
12:10 PM 33.3°F0.7°C -1.4°F-18.6°C 22% 5.4 mph N8.7 kmh N 16.8 mph27.0 kmh 30.26 in1024.7 mb 0.00 in0.0 mm 0.00 in/hr0.0 mm/hr 0.00 in0.0 mm
12:11 PM 32.9°F0.5°C -1.7°F-18.7°C 22% 6.9 mph N11.1 kmh N 13.6 mph21.9 kmh 30.26 in1024.7 mb 0.00 in0.0 mm 0.00 in/hr0.0 mm/hr 0.00 in0.0 mm
12:12 PM 32.5°F0.3°C -2.0°F-18.9°C 22% 7.6 mph N12.2 kmh N 17.4 mph28.0 kmh 30.26 in1024.7 mb 0.00 in0.0 mm 0.00 in/hr0.0 mm/hr 0.00 in0.0 mm
12:13 PM 32.5°F0.3°C -2.0°F-18.9°C 22% 5.4 mph NNE8.7 kmh NNE 17.4 mph28.0 kmh 30.26 in1024.7 mb 0.00 in0.0 mm 0.00 in/hr0.0 mm/hr 0.00 in0.0 mm
12:14 PM 32.9°F0.5°C -1.7°F-18.7°C 22% 9.2 mph N14.8 kmh N 17.4 mph28.0 kmh 30.27 in1025.1 mb 0.00 in0.0 mm 0.00 in/hr0.0 mm/hr 0.00 in0.0 mm
12:15 PM 32.7°F0.4°C -1.9°F-18.8°C 22% 7.6 mph N12.2 kmh N 17.4 mph28.0 kmh 30.26 in1024.7 mb 0.00 in0.0 mm 0.00 in/hr0.0 mm/hr 0.00 in0.0 mm
12:16 PM 32.5°F0.3°C -2.0°F-18.9°C 22% 8.3 mph N13.4 kmh N 17.4 mph28.0 kmh 30.26 in1024.7 mb 0.00 in0.0 mm 0.00 in/hr0.0 mm/hr 0.00 in0.0 mm
12:17 PM 32.4°F0.2°C -2.2°F-19.0°C 22% 6.0 mph N9.7 kmh N 17.4 mph28.0 kmh 30.27 in1025.1 mb 0.00 in0.0 mm 0.00 in/hr0.0 mm/hr 0.00 in0.0 mm
12:18 PM 32.9°F0.5°C -1.7°F-18.7°C 22% 9.2 mph N14.8 kmh N 17.4 mph28.0 kmh 30.27 in1025.1 mb 0.00 in0.0 mm 0.00 in/hr0.0 mm/hr 0.00 in0.0 mm
12:19 PM 32.5°F0.3°C -2.0°F-18.9°C 22% 7.6 mph N12.2 kmh N 17.4 mph28.0 kmh 30.27 in1025.1 mb 0.00 in0.0 mm 0.00 in/hr0.0 mm/hr 0.00 in0.0 mm
12:20 PM 32.5°F0.3°C -3.0°F-19.4°C 21% 3.1 mph N5.0 kmh N 17.4 mph28.0 kmh 30.26 in1024.7 mb 0.00 in0.0 mm 0.00 in/hr0.0 mm/hr 0.00 in0.0 mm
12:21 PM 32.9°F0.5°C -1.7°F-18.7°C 22% 6.9 mph NNE11.1 kmh NNE 17.4 mph28.0 kmh 30.26 in1024.7 mb 0.00 in0.0 mm 0.00 in/hr0.0 mm/hr 0.00 in0.0 mm
12:22 PM 33.1°F0.6°C -1.6°F-18.7°C 22% 5.4 mph N8.7 kmh N 17.4 mph28.0 kmh 30.27 in1025.1 mb 0.00 in0.0 mm 0.00 in/hr0.0 mm/hr 0.00 in0.0 mm
12:23 PM 33.1°F0.6°C -1.6°F-18.7°C 22% 9.2 mph N14.8 kmh N 15.2 mph24.5 kmh 30.26 in1024.7 mb 0.00 in0.0 mm 0.00 in/hr0.0 mm/hr 0.00 in0.0 mm
12:24 PM 32.4°F0.2°C -3.2°F-19.6°C 21% 7.6 mph N12.2 kmh N 15.2 mph24.5 kmh 30.27 in1025.1 mb 0.00 in0.0 mm 0.00 in/hr0.0 mm/hr 0.00 in0.0 mm
12:25 PM 32.4°F0.2°C -3.2°F-19.6°C 21% 7.6 mph N12.2 kmh N 15.2 mph24.5 kmh 30.27 in1025.1 mb 0.00 in0.0 mm 0.00 in/hr0.0 mm/hr 0.00 in0.0 mm
12:26 PM 32.4°F0.2°C -3.2°F-19.6°C 21% 9.8 mph N15.8 kmh N 15.2 mph24.5 kmh 30.27 in1025.1 mb 0.00 in0.0 mm 0.00 in/hr0.0 mm/hr 0.00 in0.0 mm
12:27 PM 32.4°F0.2°C -3.2°F-19.6°C 21% 7.6 mph N12.2 kmh N 15.2 mph24.5 kmh 30.27 in1025.1 mb 0.00 in0.0 mm 0.00 in/hr0.0 mm/hr 0.00 in0.0 mm
12:28 PM 32.5°F0.3°C -2.0°F-18.9°C 22% 6.0 mph N9.7 kmh N 16.8 mph27.0 kmh 30.27 in1025.1 mb 0.00 in0.0 mm 0.00 in/hr0.0 mm/hr 0.00 in0.0 mm
12:29 PM 32.9°F0.5°C -1.7°F-18.7°C 22% 6.0 mph NNW9.7 kmh NNW 16.8 mph27.0 kmh 30.27 in1025.1 mb 0.00 in0.0 mm 0.00 in/hr0.0 mm/hr 0.00 in0.0 mm
12:30 PM 33.8°F1.0°C -1.9°F-18.8°C 21% 11.4 mph NNW18.3 kmh NNW 16.8 mph27.0 kmh 30.27 in1025.1 mb 0.00 in0.0 mm 0.00 in/hr0.0 mm/hr 0.00 in0.0 mm
12:31 PM 32.5°F0.3°C -2.0°F-18.9°C 22% 6.9 mph NNW11.1 kmh NNW 16.8 mph27.0 kmh 30.27 in1025.1 mb 0.00 in0.0 mm 0.00 in/hr0.0 mm/hr 0.00 in0.0 mm
12:32 PM 32.9°F0.5°C -2.7°F-19.3°C 21% 5.4 mph NNW8.7 kmh NNW 16.8 mph27.0 kmh 30.27 in1025.1 mb 0.00 in0.0 mm 0.00 in/hr0.0 mm/hr 0.00 in0.0 mm
12:33 PM 33.4°F0.8°C -1.3°F-18.5°C 22% 6.0 mph N9.7 kmh N 16.8 mph27.0 kmh 30.27 in1025.1 mb 0.00 in0.0 mm 0.00 in/hr0.0 mm/hr 0.00 in0.0 mm
12:34 PM 33.3°F0.7°C -1.4°F-18.6°C 22% 9.8 mph N15.8 kmh N 16.8 mph27.0 kmh 30.27 in1025.1 mb 0.00 in0.0 mm 0.00 in/hr0.0 mm/hr 0.00 in0.0 mm
12:35 PM 32.7°F0.4°C -2.8°F-19.3°C 21% 7.6 mph N12.2 kmh N 16.8 mph27.0 kmh 30.27 in1025.1 mb 0.00 in0.0 mm 0.00 in/hr0.0 mm/hr 0.00 in0.0 mm
12:36 PM 33.1°F0.6°C -2.5°F-19.2°C 21% 6.9 mph N11.1 kmh N 16.8 mph27.0 kmh 30.27 in1025.1 mb 0.00 in0.0 mm 0.00 in/hr0.0 mm/hr 0.00 in0.0 mm
12:37 PM 32.9°F0.5°C -2.7°F-19.3°C 21% 3.8 mph N6.1 kmh N 16.8 mph27.0 kmh 30.27 in1025.1 mb 0.00 in0.0 mm 0.00 in/hr0.0 mm/hr 0.00 in0.0 mm
12:38 PM 33.8°F1.0°C -3.0°F-19.4°C 20% 6.9 mph NNE11.1 kmh NNE 16.8 mph27.0 kmh 30.27 in1025.1 mb 0.00 in0.0 mm 0.00 in/hr0.0 mm/hr 0.00 in0.0 mm
12:39 PM 32.9°F0.5°C -2.7°F-19.3°C 21% 10.7 mph NNE17.2 kmh NNE 16.8 mph27.0 kmh 30.27 in1025.1 mb 0.00 in0.0 mm 0.00 in/hr0.0 mm/hr 0.00 in0.0 mm
12:40 PM 32.7°F0.4°C -2.8°F-19.3°C 21% 4.5 mph NNE7.2 kmh NNE 16.8 mph27.0 kmh 30.27 in1025.1 mb 0.00 in0.0 mm 0.00 in/hr0.0 mm/hr 0.00 in0.0 mm
12:41 PM 33.4°F0.8°C -2.2°F-19.0°C 21% 8.3 mph NE13.4 kmh NE 16.8 mph27.0 kmh 30.27 in1025.1 mb 0.00 in0.0 mm 0.00 in/hr0.0 mm/hr 0.00 in0.0 mm
12:42 PM 33.1°F0.6°C -2.5°F-19.2°C 21% 9.8 mph NE15.8 kmh NE 16.8 mph27.0 kmh 30.27 in1025.1 mb 0.00 in0.0 mm 0.00 in/hr0.0 mm/hr 0.00 in0.0 mm
12:43 PM 33.1°F0.6°C -2.5°F-19.2°C 21% 6.9 mph NE11.1 kmh NE 16.8 mph27.0 kmh 30.27 in1025.1 mb 0.00 in0.0 mm 0.00 in/hr0.0 mm/hr 0.00 in0.0 mm
12:44 PM 33.3°F0.7°C -2.4°F-19.1°C 21% 11.4 mph NNE18.3 kmh NNE 19.7 mph31.7 kmh 30.27 in1025.1 mb 0.00 in0.0 mm 0.00 in/hr0.0 mm/hr 0.00 in0.0 mm
12:45 PM 33.3°F0.7°C -2.4°F-19.1°C 21% 6.0 mph N9.7 kmh N 19.7 mph31.7 kmh 30.27 in1025.1 mb 0.00 in0.0 mm 0.00 in/hr0.0 mm/hr 0.00 in0.0 mm
12:46 PM 33.4°F0.8°C -2.2°F-19.0°C 21% 6.9 mph NNE11.1 kmh NNE 19.7 mph31.7 kmh 30.27 in1025.1 mb 0.00 in0.0 mm 0.00 in/hr0.0 mm/hr 0.00 in0.0 mm
12:47 PM 33.3°F0.7°C -2.4°F-19.1°C 21% 5.4 mph N8.7 kmh N 19.7 mph31.7 kmh 30.27 in1025.1 mb 0.00 in0.0 mm 0.00 in/hr0.0 mm/hr 0.00 in0.0 mm
12:48 PM 33.4°F0.8°C -2.2°F-19.0°C 21% 6.0 mph NNE9.7 kmh NNE 19.7 mph31.7 kmh 30.27 in1025.1 mb 0.00 in0.0 mm 0.00 in/hr0.0 mm/hr 0.00 in0.0 mm
12:49 PM 32.9°F0.5°C -2.7°F-19.3°C 21% 6.0 mph NNE9.7 kmh NNE 19.7 mph31.7 kmh 30.27 in1025.1 mb 0.00 in0.0 mm 0.00 in/hr0.0 mm/hr 0.00 in0.0 mm
12:50 PM 33.3°F0.7°C -2.4°F-19.1°C 21% 8.3 mph NNE13.4 kmh NNE 19.7 mph31.7 kmh 30.27 in1025.1 mb 0.00 in0.0 mm 0.00 in/hr0.0 mm/hr 0.00 in0.0 mm
12:51 PM 33.1°F0.6°C -2.5°F-19.2°C 21% 8.3 mph NE13.4 kmh NE 19.7 mph31.7 kmh 30.27 in1025.1 mb 0.00 in0.0 mm 0.00 in/hr0.0 mm/hr 0.00 in0.0 mm
12:52 PM 33.1°F0.6°C -2.5°F-19.2°C 21% 5.4 mph NNE8.7 kmh NNE 19.7 mph31.7 kmh 30.27 in1025.1 mb 0.00 in0.0 mm 0.00 in/hr0.0 mm/hr 0.00 in0.0 mm
12:53 PM 33.1°F0.6°C -3.6°F-19.8°C 20% 6.9 mph NNE11.1 kmh NNE 19.7 mph31.7 kmh 30.27 in1025.1 mb 0.00 in0.0 mm 0.00 in/hr0.0 mm/hr 0.00 in0.0 mm
12:54 PM 33.6°F0.9°C -2.1°F-18.9°C 21% 9.8 mph NNE15.8 kmh NNE 15.2 mph24.5 kmh 30.27 in1025.1 mb 0.00 in0.0 mm 0.00 in/hr0.0 mm/hr 0.00 in0.0 mm
12:55 PM 33.1°F0.6°C -3.6°F-19.8°C 20% 4.5 mph NNE7.2 kmh NNE 15.2 mph24.5 kmh 30.27 in1025.1 mb 0.00 in0.0 mm 0.00 in/hr0.0 mm/hr 0.00 in0.0 mm
12:56 PM 34.0°F1.1°C -5.0°F-20.6°C 18% 5.4 mph NNE8.7 kmh NNE 15.2 mph24.5 kmh 30.27 in1025.1 mb 0.00 in0.0 mm 0.00 in/hr0.0 mm/hr 0.00 in0.0 mm
12:57 PM 34.2°F1.2°C -2.7°F-19.3°C 20% 5.4 mph NNE8.7 kmh NNE 15.2 mph24.5 kmh 30.27 in1025.1 mb 0.00 in0.0 mm 0.00 in/hr0.0 mm/hr 0.00 in0.0 mm
12:58 PM 34.0°F1.1°C -5.0°F-20.6°C 18% 4.5 mph N7.2 kmh N 15.2 mph24.5 kmh 30.27 in1025.1 mb 0.00 in0.0 mm 0.00 in/hr0.0 mm/hr 0.00 in0.0 mm
12:59 PM 33.8°F1.0°C -5.2°F-20.7°C 18% 7.6 mph N12.2 kmh N 15.2 mph24.5 kmh 30.27 in1025.1 mb 0.00 in0.0 mm 0.00 in/hr0.0 mm/hr 0.00 in0.0 mm
01:00 PM 33.8°F1.0°C -5.2°F-20.7°C 18% 9.2 mph NNE14.8 kmh NNE 15.2 mph24.5 kmh 30.27 in1025.1 mb 0.00 in0.0 mm 0.00 in/hr0.0 mm/hr 0.00 in0.0 mm
01:01 PM 33.3°F0.7°C -3.4°F-19.7°C 20% 5.4 mph N8.7 kmh N 15.2 mph24.5 kmh 30.27 in1025.1 mb 0.00 in0.0 mm 0.00 in/hr0.0 mm/hr 0.00 in0.0 mm
01:02 PM 33.4°F0.8°C -3.3°F-19.6°C 20% 6.9 mph NNE11.1 kmh NNE 15.2 mph24.5 kmh 30.27 in1025.1 mb 0.00 in0.0 mm 0.00 in/hr0.0 mm/hr 0.00 in0.0 mm
01:03 PM 33.3°F0.7°C -3.4°F-19.7°C 20% 5.4 mph NE8.7 kmh NE 15.2 mph24.5 kmh 30.27 in1025.1 mb 0.00 in0.0 mm 0.00 in/hr0.0 mm/hr 0.00 in0.0 mm
01:04 PM 33.8°F1.0°C -5.2°F-20.7°C 18% 5.4 mph NE8.7 kmh NE 15.2 mph24.5 kmh 30.27 in1025.1 mb 0.00 in0.0 mm 0.00 in/hr0.0 mm/hr 0.00 in0.0 mm
01:05 PM 34.0°F1.1°C -5.0°F-20.6°C 18% 6.9 mph NE11.1 kmh NE 12.1 mph19.5 kmh 30.27 in1025.1 mb 0.00 in0.0 mm 0.00 in/hr0.0 mm/hr 0.00 in0.0 mm
01:06 PM 34.3°F1.3°C -4.7°F-20.4°C 18% 11.4 mph NE18.3 kmh NE 14.5 mph23.3 kmh 30.27 in1025.1 mb 0.00 in0.0 mm 0.00 in/hr0.0 mm/hr 0.00 in0.0 mm
01:07 PM 33.3°F0.7°C -3.4°F-19.7°C 20% 9.2 mph NE14.8 kmh NE 14.5 mph23.3 kmh 30.27 in1025.1 mb 0.00 in0.0 mm 0.00 in/hr0.0 mm/hr 0.00 in0.0 mm
01:08 PM 33.3°F0.7°C -3.4°F-19.7°C 20% 9.8 mph NE15.8 kmh NE 15.9 mph25.6 kmh 30.27 in1025.1 mb 0.00 in0.0 mm 0.00 in/hr0.0 mm/hr 0.00 in0.0 mm
01:09 PM 33.3°F0.7°C -3.4°F-19.7°C 20% 7.6 mph NE12.2 kmh NE 18.3 mph29.5 kmh 30.27 in1025.1 mb 0.00 in0.0 mm 0.00 in/hr0.0 mm/hr 0.00 in0.0 mm
01:10 PM 33.3°F0.7°C -3.4°F-19.7°C 20% 9.8 mph NNE15.8 kmh NNE 18.3 mph29.5 kmh 30.27 in1025.1 mb 0.00 in0.0 mm 0.00 in/hr0.0 mm/hr 0.00 in0.0 mm
01:11 PM 32.9°F0.5°C -3.7°F-19.8°C 20% 13.0 mph NNE20.9 kmh NNE 18.3 mph29.5 kmh 30.27 in1025.1 mb 0.00 in0.0 mm 0.00 in/hr0.0 mm/hr 0.00 in0.0 mm
01:12 PM 32.5°F0.3°C -4.0°F-20.0°C 20% 9.8 mph N15.8 kmh N 18.3 mph29.5 kmh 30.27 in1025.1 mb 0.00 in0.0 mm 0.00 in/hr0.0 mm/hr 0.00 in0.0 mm
01:13 PM 32.9°F0.5°C -3.7°F-19.8°C 20% 12.1 mph N19.5 kmh N 18.3 mph29.5 kmh 30.27 in1025.1 mb 0.00 in0.0 mm 0.00 in/hr0.0 mm/hr 0.00 in0.0 mm
01:14 PM 32.9°F0.5°C -3.7°F-19.8°C 20% 7.6 mph N12.2 kmh N 18.3 mph29.5 kmh 30.27 in1025.1 mb 0.00 in0.0 mm 0.00 in/hr0.0 mm/hr 0.00 in0.0 mm
01:15 PM 32.9°F0.5°C -3.7°F-19.8°C 20% 9.2 mph NNE14.8 kmh NNE 18.3 mph29.5 kmh 30.27 in1025.1 mb 0.00 in0.0 mm 0.00 in/hr0.0 mm/hr 0.00 in0.0 mm
01:16 PM 32.9°F0.5°C -3.7°F-19.8°C 20% 7.6 mph N12.2 kmh N 18.3 mph29.5 kmh 30.27 in1025.1 mb 0.00 in0.0 mm 0.00 in/hr0.0 mm/hr 0.00 in0.0 mm
01:17 PM 32.9°F0.5°C -3.7°F-19.8°C 20% 7.6 mph NNE12.2 kmh NNE 18.3 mph29.5 kmh 30.27 in1025.1 mb 0.00 in0.0 mm 0.00 in/hr0.0 mm/hr 0.00 in0.0 mm
01:18 PM 33.4°F0.8°C -3.3°F-19.6°C 20% 10.7 mph N17.2 kmh N 18.3 mph29.5 kmh 30.27 in1025.1 mb 0.00 in0.0 mm 0.00 in/hr0.0 mm/hr 0.00 in0.0 mm
01:19 PM 32.9°F0.5°C -3.7°F-19.8°C 20% 6.9 mph NNE11.1 kmh NNE 18.3 mph29.5 kmh 30.27 in1025.1 mb 0.00 in0.0 mm 0.00 in/hr0.0 mm/hr 0.00 in0.0 mm
01:20 PM 33.3°F0.7°C -3.4°F-19.7°C 20% 5.4 mph NNE8.7 kmh NNE 17.4 mph28.0 kmh 30.27 in1025.1 mb 0.00 in0.0 mm 0.00 in/hr0.0 mm/hr 0.00 in0.0 mm
01:21 PM 33.3°F0.7°C -3.4°F-19.7°C 20% 9.2 mph NNE14.8 kmh NNE 17.4 mph28.0 kmh 30.27 in1025.1 mb 0.00 in0.0 mm 0.00 in/hr0.0 mm/hr 0.00 in0.0 mm
01:22 PM 33.3°F0.7°C -3.4°F-19.7°C 20% 6.9 mph NNE11.1 kmh NNE 17.4 mph28.0 kmh 30.27 in1025.1 mb 0.00 in0.0 mm 0.00 in/hr0.0 mm/hr 0.00 in0.0 mm
01:23 PM 33.4°F0.8°C -3.3°F-19.6°C 20% 12.1 mph NE19.5 kmh NE 17.4 mph28.0 kmh 30.27 in1025.1 mb 0.00 in0.0 mm 0.00 in/hr0.0 mm/hr 0.00 in0.0 mm
01:24 PM 33.3°F0.7°C -3.4°F-19.7°C 20% 9.8 mph NE15.8 kmh NE 16.8 mph27.0 kmh 30.27 in1025.1 mb 0.00 in0.0 mm 0.00 in/hr0.0 mm/hr 0.00 in0.0 mm
01:25 PM 33.8°F1.0°C -5.2°F-20.7°C 18% 7.6 mph NNE12.2 kmh NNE 16.8 mph27.0 kmh 30.27 in1025.1 mb 0.00 in0.0 mm 0.00 in/hr0.0 mm/hr 0.00 in0.0 mm
01:26 PM 34.0°F1.1°C -5.0°F-20.6°C 18% 6.9 mph NNE11.1 kmh NNE 16.8 mph27.0 kmh 30.27 in1025.1 mb 0.00 in0.0 mm 0.00 in/hr0.0 mm/hr 0.00 in0.0 mm
01:27 PM 34.3°F1.3°C -4.7°F-20.4°C 18% 8.3 mph NNE13.4 kmh NNE 16.8 mph27.0 kmh 30.27 in1025.1 mb 0.00 in0.0 mm 0.00 in/hr0.0 mm/hr 0.00 in0.0 mm
01:28 PM 33.8°F1.0°C -5.2°F-20.7°C 18% 9.2 mph NNE14.8 kmh NNE 16.8 mph27.0 kmh 30.27 in1025.1 mb 0.00 in0.0 mm 0.00 in/hr0.0 mm/hr 0.00 in0.0 mm
01:29 PM 33.8°F1.0°C -5.2°F-20.7°C 18% 6.9 mph NNE11.1 kmh NNE 16.8 mph27.0 kmh 30.27 in1025.1 mb 0.00 in0.0 mm 0.00 in/hr0.0 mm/hr 0.00 in0.0 mm
01:30 PM 33.6°F0.9°C -3.1°F-19.5°C 20% 6.9 mph NNE11.1 kmh NNE 16.8 mph27.0 kmh 30.27 in1025.1 mb 0.00 in0.0 mm 0.00 in/hr0.0 mm/hr 0.00 in0.0 mm
01:31 PM 33.6°F0.9°C -3.1°F-19.5°C 20% 6.9 mph NNE11.1 kmh NNE 16.8 mph27.0 kmh 30.27 in1025.1 mb 0.00 in0.0 mm 0.00 in/hr0.0 mm/hr 0.00 in0.0 mm
01:32 PM 34.0°F1.1°C -5.0°F-20.6°C 18% 3.8 mph NNE6.1 kmh NNE 16.8 mph27.0 kmh 30.28 in1025.4 mb 0.00 in0.0 mm 0.00 in/hr0.0 mm/hr 0.00 in0.0 mm
01:33 PM 34.7°F1.5°C -4.4°F-20.2°C 18% 3.1 mph N5.0 kmh N 16.8 mph27.0 kmh 30.27 in1025.1 mb 0.00 in0.0 mm 0.00 in/hr0.0 mm/hr 0.00 in0.0 mm
01:34 PM 34.7°F1.5°C -4.4°F-20.2°C 18% 6.9 mph N11.1 kmh N 15.2 mph24.5 kmh 30.27 in1025.1 mb 0.00 in0.0 mm 0.00 in/hr0.0 mm/hr 0.00 in0.0 mm
01:35 PM 34.3°F1.3°C -4.7°F-20.4°C 18% 4.5 mph N7.2 kmh N 15.2 mph24.5 kmh 30.28 in1025.4 mb 0.00 in0.0 mm 0.00 in/hr0.0 mm/hr 0.00 in0.0 mm
01:36 PM 34.5°F1.4°C -4.6°F-20.3°C 18% 8.3 mph N13.4 kmh N 15.2 mph24.5 kmh 30.28 in1025.4 mb 0.00 in0.0 mm 0.00 in/hr0.0 mm/hr 0.00 in0.0 mm
01:37 PM 34.2°F1.2°C -4.9°F-20.5°C 18% 8.3 mph N13.4 kmh N 12.1 mph19.5 kmh 30.28 in1025.4 mb 0.00 in0.0 mm 0.00 in/hr0.0 mm/hr 0.00 in0.0 mm
01:38 PM 33.4°F0.8°C -3.3°F-19.6°C 20% 6.9 mph N11.1 kmh N 12.1 mph19.5 kmh 30.28 in1025.4 mb 0.00 in0.0 mm 0.00 in/hr0.0 mm/hr 0.00 in0.0 mm
01:39 PM 33.3°F0.7°C -5.6°F-20.9°C 18% 5.4 mph N8.7 kmh N 12.1 mph19.5 kmh 30.28 in1025.4 mb 0.00 in0.0 mm 0.00 in/hr0.0 mm/hr 0.00 in0.0 mm
01:40 PM 33.6°F0.9°C -5.3°F-20.7°C 18% 8.3 mph NNW13.4 kmh NNW 12.1 mph19.5 kmh 30.28 in1025.4 mb 0.00 in0.0 mm 0.00 in/hr0.0 mm/hr 0.00 in0.0 mm
01:41 PM 33.3°F0.7°C -5.6°F-20.9°C 18% 9.2 mph NNW14.8 kmh NNW 14.5 mph23.3 kmh 30.28 in1025.4 mb 0.00 in0.0 mm 0.00 in/hr0.0 mm/hr 0.00 in0.0 mm
01:42 PM 33.1°F0.6°C -5.7°F-20.9°C 18% 7.6 mph NNW12.2 kmh NNW 14.5 mph23.3 kmh 30.28 in1025.4 mb 0.00 in0.0 mm 0.00 in/hr0.0 mm/hr 0.00 in0.0 mm
01:43 PM 33.4°F0.8°C -5.4°F-20.8°C 18% 6.0 mph NNW9.7 kmh NNW 14.5 mph23.3 kmh 30.28 in1025.4 mb 0.00 in0.0 mm 0.00 in/hr0.0 mm/hr 0.00 in0.0 mm
01:44 PM 33.6°F0.9°C -3.1°F-19.5°C 20% 6.0 mph NW9.7 kmh NW 14.5 mph23.3 kmh 30.28 in1025.4 mb 0.00 in0.0 mm 0.00 in/hr0.0 mm/hr 0.00 in0.0 mm
01:45 PM 34.0°F1.1°C -6.2°F-21.2°C 17% 5.4 mph NW8.7 kmh NW 14.5 mph23.3 kmh 30.28 in1025.4 mb 0.00 in0.0 mm 0.00 in/hr0.0 mm/hr 0.00 in0.0 mm
01:46 PM 34.2°F1.2°C -4.9°F-20.5°C 18% 9.2 mph NNW14.8 kmh NNW 14.5 mph23.3 kmh 30.28 in1025.4 mb 0.00 in0.0 mm 0.00 in/hr0.0 mm/hr 0.00 in0.0 mm
01:47 PM 33.6°F0.9°C -3.1°F-19.5°C 20% 4.5 mph NNW7.2 kmh NNW 14.5 mph23.3 kmh 30.28 in1025.4 mb 0.00 in0.0 mm 0.00 in/hr0.0 mm/hr 0.00 in0.0 mm
01:48 PM 34.0°F1.1°C -6.2°F-21.2°C 17% 2.2 mph NNW3.5 kmh NNW 14.5 mph23.3 kmh 30.28 in1025.4 mb 0.00 in0.0 mm 0.00 in/hr0.0 mm/hr 0.00 in0.0 mm
01:49 PM 34.5°F1.4°C -4.6°F-20.3°C 18% 3.8 mph NNW6.1 kmh NNW 14.5 mph23.3 kmh 30.28 in1025.4 mb 0.00 in0.0 mm 0.00 in/hr0.0 mm/hr 0.00 in0.0 mm
01:50 PM 34.5°F1.4°C -4.6°F-20.3°C 18% 4.5 mph NW7.2 kmh NW 14.5 mph23.3 kmh 30.28 in1025.4 mb 0.00 in0.0 mm 0.00 in/hr0.0 mm/hr 0.00 in0.0 mm
01:51 PM 34.3°F1.3°C -4.7°F-20.4°C 18% 5.4 mph NW8.7 kmh NW 13.0 mph20.9 kmh 30.28 in1025.4 mb 0.00 in0.0 mm 0.00 in/hr0.0 mm/hr 0.00 in0.0 mm
01:52 PM 34.7°F1.5°C -4.4°F-20.2°C 18% 7.6 mph NNW12.2 kmh NNW 11.4 mph18.3 kmh 30.28 in1025.4 mb 0.00 in0.0 mm 0.00 in/hr0.0 mm/hr 0.00 in0.0 mm
01:53 PM 34.2°F1.2°C -6.0°F-21.1°C 17% 5.4 mph NNW8.7 kmh NNW 11.4 mph18.3 kmh 30.28 in1025.4 mb 0.00 in0.0 mm 0.00 in/hr0.0 mm/hr 0.00 in0.0 mm
01:54 PM 34.0°F1.1°C -6.2°F-21.2°C 17% 6.0 mph N9.7 kmh N 12.1 mph19.5 kmh 30.28 in1025.4 mb 0.00 in0.0 mm 0.00 in/hr0.0 mm/hr 0.00 in0.0 mm
01:55 PM 34.5°F1.4°C -5.7°F-20.9°C 17% 6.0 mph NNW9.7 kmh NNW 12.1 mph19.5 kmh 30.28 in1025.4 mb 0.00 in0.0 mm 0.00 in/hr0.0 mm/hr 0.00 in0.0 mm
01:56 PM 34.9°F1.6°C -5.4°F-20.8°C 17% 8.3 mph NNW13.4 kmh NNW 13.0 mph20.9 kmh 30.28 in1025.4 mb 0.00 in0.0 mm 0.00 in/hr0.0 mm/hr 0.00 in0.0 mm
01:57 PM 34.3°F1.3°C -5.9°F-21.1°C 17% 9.2 mph NNW14.8 kmh NNW 16.8 mph27.0 kmh 30.28 in1025.4 mb 0.00 in0.0 mm 0.00 in/hr0.0 mm/hr 0.00 in0.0 mm
01:58 PM 34.0°F1.1°C -6.2°F-21.2°C 17% 6.0 mph N9.7 kmh N 16.8 mph27.0 kmh 30.28 in1025.4 mb 0.00 in0.0 mm 0.00 in/hr0.0 mm/hr 0.00 in0.0 mm
01:59 PM 34.5°F1.4°C -5.7°F-20.9°C 17% 7.6 mph N12.2 kmh N 16.8 mph27.0 kmh 30.28 in1025.4 mb 0.00 in0.0 mm 0.00 in/hr0.0 mm/hr 0.00 in0.0 mm
02:00 PM 34.5°F1.4°C -5.7°F-20.9°C 17% 5.4 mph N8.7 kmh N 16.8 mph27.0 kmh 30.28 in1025.4 mb 0.00 in0.0 mm 0.00 in/hr0.0 mm/hr 0.00 in0.0 mm
02:01 PM 34.5°F1.4°C -5.7°F-20.9°C 17% 4.5 mph N7.2 kmh N 16.8 mph27.0 kmh 30.28 in1025.4 mb 0.00 in0.0 mm 0.00 in/hr0.0 mm/hr 0.00 in0.0 mm
02:02 PM 34.9°F1.6°C -5.4°F-20.8°C 17% 6.0 mph NNE9.7 kmh NNE 16.8 mph27.0 kmh 30.28 in1025.4 mb 0.00 in0.0 mm 0.00 in/hr0.0 mm/hr 0.00 in0.0 mm
02:03 PM 34.5°F1.4°C -5.7°F-20.9°C 17% 4.5 mph NNE7.2 kmh NNE 16.8 mph27.0 kmh 30.29 in1025.7 mb 0.00 in0.0 mm 0.00 in/hr0.0 mm/hr 0.00 in0.0 mm
02:04 PM 34.7°F1.5°C -5.6°F-20.9°C 17% 8.3 mph NNE13.4 kmh NNE 16.8 mph27.0 kmh 30.29 in1025.7 mb 0.00 in0.0 mm 0.00 in/hr0.0 mm/hr 0.00 in0.0 mm
02:05 PM 34.9°F1.6°C -5.4°F-20.8°C 17% 8.3 mph NNE13.4 kmh NNE 16.8 mph27.0 kmh 30.29 in1025.7 mb 0.00 in0.0 mm 0.00 in/hr0.0 mm/hr 0.00 in0.0 mm
02:06 PM 33.8°F1.0°C -6.3°F-21.3°C 17% 10.7 mph NE17.2 kmh NE 16.8 mph27.0 kmh 30.29 in1025.7 mb 0.00 in0.0 mm 0.00 in/hr0.0 mm/hr 0.00 in0.0 mm
02:07 PM 33.3°F0.7°C -5.6°F-20.9°C 18% 5.4 mph NE8.7 kmh NE 16.8 mph27.0 kmh 30.29 in1025.7 mb 0.00 in0.0 mm 0.00 in/hr0.0 mm/hr 0.00 in0.0 mm
02:08 PM 33.8°F1.0°C -6.3°F-21.3°C 17% 5.4 mph NE8.7 kmh NE 15.9 mph25.6 kmh 30.29 in1025.7 mb 0.00 in0.0 mm 0.00 in/hr0.0 mm/hr 0.00 in0.0 mm
02:09 PM 34.9°F1.6°C -5.4°F-20.8°C 17% 3.8 mph NE6.1 kmh NE 15.9 mph25.6 kmh 30.29 in1025.7 mb 0.00 in0.0 mm 0.00 in/hr0.0 mm/hr 0.00 in0.0 mm
02:10 PM 35.2°F1.8°C -5.1°F-20.6°C 17% 6.0 mph NNE9.7 kmh NNE 15.9 mph25.6 kmh 30.29 in1025.7 mb 0.00 in0.0 mm 0.00 in/hr0.0 mm/hr 0.00 in0.0 mm
02:11 PM 34.5°F1.4°C -5.7°F-20.9°C 17% 3.8 mph NNE6.1 kmh NNE 15.9 mph25.6 kmh 30.29 in1025.7 mb 0.00 in0.0 mm 0.00 in/hr0.0 mm/hr 0.00 in0.0 mm
02:12 PM 34.3°F1.3°C -5.9°F-21.1°C 17% 4.5 mph NNE7.2 kmh NNE 15.9 mph25.6 kmh 30.29 in1025.7 mb 0.00 in0.0 mm 0.00 in/hr0.0 mm/hr 0.00 in0.0 mm
02:13 PM 34.9°F1.6°C -5.4°F-20.8°C 17% 7.6 mph N12.2 kmh N 15.9 mph25.6 kmh 30.29 in1025.7 mb 0.00 in0.0 mm 0.00 in/hr0.0 mm/hr 0.00 in0.0 mm
02:14 PM 34.5°F1.4°C -5.7°F-20.9°C 17% 5.4 mph NNE8.7 kmh NNE 15.9 mph25.6 kmh 30.29 in1025.7 mb 0.00 in0.0 mm 0.00 in/hr0.0 mm/hr 0.00 in0.0 mm
02:15 PM 35.2°F1.8°C -5.1°F-20.6°C 17% 3.8 mph NNE6.1 kmh NNE 15.9 mph25.6 kmh 30.29 in1025.7 mb 0.00 in0.0 mm 0.00 in/hr0.0 mm/hr 0.00 in0.0 mm
02:16 PM 35.4°F1.9°C -5.0°F-20.6°C 17% 8.3 mph NNE13.4 kmh NNE 15.9 mph25.6 kmh 30.29 in1025.7 mb 0.00 in0.0 mm 0.00 in/hr0.0 mm/hr 0.00 in0.0 mm
02:17 PM 34.0°F1.1°C -6.2°F-21.2°C 17% 12.1 mph N19.5 kmh N 15.9 mph25.6 kmh 30.29 in1025.7 mb 0.00 in0.0 mm 0.00 in/hr0.0 mm/hr 0.00 in0.0 mm
02:18 PM 34.0°F1.1°C -6.2°F-21.2°C 17% 9.2 mph NNW14.8 kmh NNW 18.3 mph29.5 kmh 30.29 in1025.7 mb 0.00 in0.0 mm 0.00 in/hr0.0 mm/hr 0.00 in0.0 mm
02:19 PM 33.6°F0.9°C -5.3°F-20.7°C 18% 6.9 mph N11.1 kmh N 18.3 mph29.5 kmh 30.29 in1025.7 mb 0.00 in0.0 mm 0.00 in/hr0.0 mm/hr 0.00 in0.0 mm
02:20 PM 33.8°F1.0°C -6.3°F-21.3°C 17% 6.9 mph N11.1 kmh N 18.3 mph29.5 kmh 30.29 in1025.7 mb 0.00 in0.0 mm 0.00 in/hr0.0 mm/hr 0.00 in0.0 mm
02:21 PM 34.5°F1.4°C -5.7°F-20.9°C 17% 4.5 mph N7.2 kmh N 18.3 mph29.5 kmh 30.29 in1025.7 mb 0.00 in0.0 mm 0.00 in/hr0.0 mm/hr 0.00 in0.0 mm
02:22 PM 34.9°F1.6°C -5.4°F-20.8°C 17% 5.4 mph N8.7 kmh N 18.3 mph29.5 kmh 30.29 in1025.7 mb 0.00 in0.0 mm 0.00 in/hr0.0 mm/hr 0.00 in0.0 mm
02:23 PM 34.9°F1.6°C -5.4°F-20.8°C 17% 8.3 mph NNE13.4 kmh NNE 18.3 mph29.5 kmh 30.29 in1025.7 mb 0.00 in0.0 mm 0.00 in/hr0.0 mm/hr 0.00 in0.0 mm
02:24 PM 34.2°F1.2°C -6.0°F-21.1°C 17% 6.9 mph NE11.1 kmh NE 18.3 mph29.5 kmh 30.29 in1025.7 mb 0.00 in0.0 mm 0.00 in/hr0.0 mm/hr 0.00 in0.0 mm
02:25 PM 33.8°F1.0°C -6.3°F-21.3°C 17% 9.2 mph NE14.8 kmh NE 18.3 mph29.5 kmh 30.29 in1025.7 mb 0.00 in0.0 mm 0.00 in/hr0.0 mm/hr 0.00 in0.0 mm
02:26 PM 34.0°F1.1°C -6.2°F-21.2°C 17% 6.0 mph NNE9.7 kmh NNE 18.3 mph29.5 kmh 30.29 in1025.7 mb 0.00 in0.0 mm 0.00 in/hr0.0 mm/hr 0.00 in0.0 mm
02:27 PM 34.2°F1.2°C -6.0°F-21.1°C 17% 4.5 mph NE7.2 kmh NE 18.3 mph29.5 kmh 30.29 in1025.7 mb 0.00 in0.0 mm 0.00 in/hr0.0 mm/hr 0.00 in0.0 mm
02:28 PM 34.5°F1.4°C -5.7°F-20.9°C 17% 8.3 mph NE13.4 kmh NE 18.3 mph29.5 kmh 30.29 in1025.7 mb 0.00 in0.0 mm 0.00 in/hr0.0 mm/hr 0.00 in0.0 mm
02:29 PM 34.3°F1.3°C -5.9°F-21.1°C 17% 9.8 mph NE15.8 kmh NE 15.9 mph25.6 kmh 30.29 in1025.7 mb 0.00 in0.0 mm 0.00 in/hr0.0 mm/hr 0.00 in0.0 mm
02:30 PM 34.3°F1.3°C -5.9°F-21.1°C 17% 7.6 mph NE12.2 kmh NE 15.9 mph25.6 kmh 30.29 in1025.7 mb 0.00 in0.0 mm 0.00 in/hr0.0 mm/hr 0.00 in0.0 mm
02:31 PM 34.3°F1.3°C -5.9°F-21.1°C 17% 6.0 mph NE9.7 kmh NE 15.9 mph25.6 kmh 30.29 in1025.7 mb 0.00 in0.0 mm 0.00 in/hr0.0 mm/hr 0.00 in0.0 mm
02:32 PM 34.3°F1.3°C -5.9°F-21.1°C 17% 7.6 mph NE12.2 kmh NE 15.9 mph25.6 kmh 30.29 in1025.7 mb 0.00 in0.0 mm 0.00 in/hr0.0 mm/hr 0.00 in0.0 mm
02:33 PM 33.8°F1.0°C -6.3°F-21.3°C 17% 6.9 mph NNE11.1 kmh NNE 15.9 mph25.6 kmh 30.29 in1025.7 mb 0.00 in0.0 mm 0.00 in/hr0.0 mm/hr 0.00 in0.0 mm
02:34 PM 34.2°F1.2°C -6.0°F-21.1°C 17% 13.0 mph N20.9 kmh N 18.3 mph29.5 kmh 30.29 in1025.7 mb 0.00 in0.0 mm 0.00 in/hr0.0 mm/hr 0.00 in0.0 mm
02:35 PM 34.2°F1.2°C -6.0°F-21.1°C 17% 10.7 mph N17.2 kmh N 18.3 mph29.5 kmh 30.29 in1025.7 mb 0.00 in0.0 mm 0.00 in/hr0.0 mm/hr 0.00 in0.0 mm
02:36 PM 34.0°F1.1°C -6.2°F-21.2°C 17% 5.4 mph N8.7 kmh N 18.3 mph29.5 kmh 30.29 in1025.7 mb 0.00 in0.0 mm 0.00 in/hr0.0 mm/hr 0.00 in0.0 mm
02:37 PM 34.3°F1.3°C -5.9°F-21.1°C 17% 8.3 mph N13.4 kmh N 18.3 mph29.5 kmh 30.29 in1025.7 mb 0.00 in0.0 mm 0.00 in/hr0.0 mm/hr 0.00 in0.0 mm
02:38 PM 34.5°F1.4°C -5.7°F-20.9°C 17% 9.2 mph N14.8 kmh N 18.3 mph29.5 kmh 30.29 in1025.7 mb 0.00 in0.0 mm 0.00 in/hr0.0 mm/hr 0.00 in0.0 mm
02:39 PM 34.2°F1.2°C -6.0°F-21.1°C 17% 8.3 mph N13.4 kmh N 18.3 mph29.5 kmh 30.29 in1025.7 mb 0.00 in0.0 mm 0.00 in/hr0.0 mm/hr 0.00 in0.0 mm
02:40 PM 33.8°F1.0°C -6.3°F-21.3°C 17% 7.6 mph N12.2 kmh N 18.3 mph29.5 kmh 30.29 in1025.7 mb 0.00 in0.0 mm 0.00 in/hr0.0 mm/hr 0.00 in0.0 mm
02:41 PM 34.3°F1.3°C -5.9°F-21.1°C 17% 6.0 mph N9.7 kmh N 18.3 mph29.5 kmh 30.29 in1025.7 mb 0.00 in0.0 mm 0.00 in/hr0.0 mm/hr 0.00 in0.0 mm
02:42 PM 34.3°F1.3°C -5.9°F-21.1°C 17% 3.8 mph N6.1 kmh N 18.3 mph29.5 kmh 30.29 in1025.7 mb 0.00 in0.0 mm 0.00 in/hr0.0 mm/hr 0.00 in0.0 mm
02:43 PM 34.9°F1.6°C -5.4°F-20.8°C 17% 5.4 mph N8.7 kmh N 18.3 mph29.5 kmh 30.29 in1025.7 mb 0.00 in0.0 mm 0.00 in/hr0.0 mm/hr 0.00 in0.0 mm
02:44 PM 34.9°F1.6°C -5.4°F-20.8°C 17% 6.0 mph N9.7 kmh N 18.3 mph29.5 kmh 30.30 in1026.1 mb 0.00 in0.0 mm 0.00 in/hr0.0 mm/hr 0.00 in0.0 mm
02:45 PM 34.7°F1.5°C -5.6°F-20.9°C 17% 4.5 mph NNE7.2 kmh NNE 14.5 mph23.3 kmh 30.29 in1025.7 mb 0.00 in0.0 mm 0.00 in/hr0.0 mm/hr 0.00 in0.0 mm
02:46 PM 34.7°F1.5°C -5.6°F-20.9°C 17% 4.5 mph NNE7.2 kmh NNE 14.5 mph23.3 kmh 30.29 in1025.7 mb 0.00 in0.0 mm 0.00 in/hr0.0 mm/hr 0.00 in0.0 mm
02:47 PM 34.5°F1.4°C -5.7°F-20.9°C 17% 4.5 mph NNE7.2 kmh NNE 14.5 mph23.3 kmh 30.30 in1026.1 mb 0.00 in0.0 mm 0.00 in/hr0.0 mm/hr 0.00 in0.0 mm
02:48 PM 34.9°F1.6°C -5.4°F-20.8°C 17% 6.0 mph NNE9.7 kmh NNE 13.0 mph20.9 kmh 30.29 in1025.7 mb 0.00 in0.0 mm 0.00 in/hr0.0 mm/hr 0.00 in0.0 mm
02:49 PM 34.2°F1.2°C -6.0°F-21.1°C 17% 4.5 mph NE7.2 kmh NE 12.1 mph19.5 kmh 30.30 in1026.1 mb 0.00 in0.0 mm 0.00 in/hr0.0 mm/hr 0.00 in0.0 mm
02:50 PM 34.7°F1.5°C -5.6°F-20.9°C 17% 5.4 mph NNE8.7 kmh NNE 11.4 mph18.3 kmh 30.30 in1026.1 mb 0.00 in0.0 mm 0.00 in/hr0.0 mm/hr 0.00 in0.0 mm
02:51 PM 34.7°F1.5°C -5.6°F-20.9°C 17% 6.9 mph NNE11.1 kmh NNE 11.4 mph18.3 kmh 30.29 in1025.7 mb 0.00 in0.0 mm 0.00 in/hr0.0 mm/hr 0.00 in0.0 mm
02:52 PM 34.2°F1.2°C -6.0°F-21.1°C 17% 6.0 mph NNE9.7 kmh NNE 11.4 mph18.3 kmh 30.30 in1026.1 mb 0.00 in0.0 mm 0.00 in/hr0.0 mm/hr 0.00 in0.0 mm
02:53 PM 34.3°F1.3°C -5.9°F-21.1°C 17% 6.9 mph NNE11.1 kmh NNE 11.4 mph18.3 kmh 30.30 in1026.1 mb 0.00 in0.0 mm 0.00 in/hr0.0 mm/hr 0.00 in0.0 mm
02:54 PM 34.2°F1.2°C -6.0°F-21.1°C 17% 4.5 mph N7.2 kmh N 11.4 mph18.3 kmh 30.30 in1026.1 mb 0.00 in0.0 mm 0.00 in/hr0.0 mm/hr 0.00 in0.0 mm
02:55 PM 34.7°F1.5°C -5.6°F-20.9°C 17% 5.4 mph N8.7 kmh N 11.4 mph18.3 kmh 30.30 in1026.1 mb 0.00 in0.0 mm 0.00 in/hr0.0 mm/hr 0.00 in0.0 mm
02:56 PM 34.5°F1.4°C -5.7°F-20.9°C 17% 6.0 mph N9.7 kmh N 11.4 mph18.3 kmh 30.30 in1026.1 mb 0.00 in0.0 mm 0.00 in/hr0.0 mm/hr 0.00 in0.0 mm
02:57 PM 34.7°F1.5°C -5.6°F-20.9°C 17% 7.6 mph N12.2 kmh N 11.4 mph18.3 kmh 30.31 in1026.4 mb 0.00 in0.0 mm 0.00 in/hr0.0 mm/hr 0.00 in0.0 mm
02:58 PM 34.2°F1.2°C -6.0°F-21.1°C 17% 6.0 mph N9.7 kmh N 11.4 mph18.3 kmh 30.31 in1026.4 mb 0.00 in0.0 mm 0.00 in/hr0.0 mm/hr 0.00 in0.0 mm
02:59 PM 34.2°F1.2°C -6.0°F-21.1°C 17% 6.0 mph NNE9.7 kmh NNE 11.4 mph18.3 kmh 30.31 in1026.4 mb 0.00 in0.0 mm 0.00 in/hr0.0 mm/hr 0.00 in0.0 mm
03:00 PM 34.0°F1.1°C -6.2°F-21.2°C 17% 3.1 mph NNE5.0 kmh NNE 11.4 mph18.3 kmh 30.31 in1026.4 mb 0.00 in0.0 mm 0.00 in/hr0.0 mm/hr 0.00 in0.0 mm
03:01 PM 34.2°F1.2°C -6.0°F-21.1°C 17% 3.1 mph NNE5.0 kmh NNE 11.4 mph18.3 kmh 30.30 in1026.1 mb 0.00 in0.0 mm 0.00 in/hr0.0 mm/hr 0.00 in0.0 mm
03:02 PM 34.3°F1.3°C -5.9°F-21.1°C 17% 3.8 mph NNE6.1 kmh NNE 11.4 mph18.3 kmh 30.31 in1026.4 mb 0.00 in0.0 mm 0.00 in/hr0.0 mm/hr 0.00 in0.0 mm
03:03 PM 34.5°F1.4°C -5.7°F-20.9°C 17% 3.1 mph NE5.0 kmh NE 11.4 mph18.3 kmh 30.31 in1026.4 mb 0.00 in0.0 mm 0.00 in/hr0.0 mm/hr 0.00 in0.0 mm
03:04 PM 34.7°F1.5°C -5.6°F-20.9°C 17% 6.0 mph NE9.7 kmh NE 10.7 mph17.2 kmh 30.31 in1026.4 mb 0.00 in0.0 mm 0.00 in/hr0.0 mm/hr 0.00 in0.0 mm
03:05 PM 34.2°F1.2°C -6.0°F-21.1°C 17% 4.5 mph NE7.2 kmh NE 10.7 mph17.2 kmh 30.31 in1026.4 mb 0.00 in0.0 mm 0.00 in/hr0.0 mm/hr 0.00 in0.0 mm
03:06 PM 34.2°F1.2°C -6.0°F-21.1°C 17% 6.0 mph NE9.7 kmh NE 10.7 mph17.2 kmh 30.31 in1026.4 mb 0.00 in0.0 mm 0.00 in/hr0.0 mm/hr 0.00 in0.0 mm
03:07 PM 34.5°F1.4°C -5.7°F-20.9°C 17% 3.1 mph NNE5.0 kmh NNE 10.7 mph17.2 kmh 30.31 in1026.4 mb 0.00 in0.0 mm 0.00 in/hr0.0 mm/hr 0.00 in0.0 mm
03:08 PM 35.2°F1.8°C -5.1°F-20.6°C 17% 6.0 mph NNE9.7 kmh NNE 9.2 mph14.8 kmh 30.31 in1026.4 mb 0.00 in0.0 mm 0.00 in/hr0.0 mm/hr 0.00 in0.0 mm
03:09 PM 34.7°F1.5°C -5.6°F-20.9°C 17% 3.1 mph NNE5.0 kmh NNE 9.2 mph14.8 kmh 30.31 in1026.4 mb 0.00 in0.0 mm 0.00 in/hr0.0 mm/hr 0.00 in0.0 mm
03:10 PM 34.7°F1.5°C -5.6°F-20.9°C 17% 6.0 mph N9.7 kmh N 9.2 mph14.8 kmh 30.31 in1026.4 mb 0.00 in0.0 mm 0.00 in/hr0.0 mm/hr 0.00 in0.0 mm
03:11 PM 34.3°F1.3°C -5.9°F-21.1°C 17% 4.5 mph N7.2 kmh N 9.2 mph14.8 kmh 30.31 in1026.4 mb 0.00 in0.0 mm 0.00 in/hr0.0 mm/hr 0.00 in0.0 mm
03:12 PM 34.7°F1.5°C -5.6°F-20.9°C 17% 2.2 mph N3.5 kmh N 9.2 mph14.8 kmh 30.31 in1026.4 mb 0.00 in0.0 mm 0.00 in/hr0.0 mm/hr 0.00 in0.0 mm
03:13 PM 35.4°F1.9°C -5.0°F-20.6°C 17% 5.4 mph N8.7 kmh N 9.2 mph14.8 kmh 30.31 in1026.4 mb 0.00 in0.0 mm 0.00 in/hr0.0 mm/hr 0.00 in0.0 mm
03:14 PM 34.7°F1.5°C -5.6°F-20.9°C 17% 7.6 mph NNE12.2 kmh NNE 11.4 mph18.3 kmh 30.32 in1026.8 mb 0.00 in0.0 mm 0.00 in/hr0.0 mm/hr 0.00 in0.0 mm
03:15 PM 34.0°F1.1°C -6.2°F-21.2°C 17% 6.9 mph NNE11.1 kmh NNE 11.4 mph18.3 kmh 30.31 in1026.4 mb 0.00 in0.0 mm 0.00 in/hr0.0 mm/hr 0.00 in0.0 mm
03:16 PM 34.0°F1.1°C -6.2°F-21.2°C 17% 4.5 mph NNE7.2 kmh NNE 11.4 mph18.3 kmh 30.31 in1026.4 mb 0.00 in0.0 mm 0.00 in/hr0.0 mm/hr 0.00 in0.0 mm
03:17 PM 33.8°F1.0°C -6.3°F-21.3°C 17% 8.3 mph NNE13.4 kmh NNE 11.4 mph18.3 kmh 30.32 in1026.8 mb 0.00 in0.0 mm 0.00 in/hr0.0 mm/hr 0.00 in0.0 mm
03:18 PM 34.0°F1.1°C -6.2°F-21.2°C 17% 4.5 mph N7.2 kmh N 11.4 mph18.3 kmh 30.32 in1026.8 mb 0.00 in0.0 mm 0.00 in/hr0.0 mm/hr 0.00 in0.0 mm
03:19 PM 34.0°F1.1°C -6.2°F-21.2°C 17% 5.4 mph N8.7 kmh N 11.4 mph18.3 kmh 30.32 in1026.8 mb 0.00 in0.0 mm 0.00 in/hr0.0 mm/hr 0.00 in0.0 mm
03:20 PM 34.2°F1.2°C -6.0°F-21.1°C 17% 4.5 mph N7.2 kmh N 11.4 mph18.3 kmh 30.32 in1026.8 mb 0.00 in0.0 mm 0.00 in/hr0.0 mm/hr 0.00 in0.0 mm
03:21 PM 34.9°F1.6°C -5.4°F-20.8°C 17% 4.5 mph N7.2 kmh N 11.4 mph18.3 kmh 30.32 in1026.8 mb 0.00 in0.0 mm 0.00 in/hr0.0 mm/hr 0.00 in0.0 mm
03:22 PM 34.5°F1.4°C -5.7°F-20.9°C 17% 4.5 mph N7.2 kmh N 11.4 mph18.3 kmh 30.32 in1026.8 mb 0.00 in0.0 mm 0.00 in/hr0.0 mm/hr 0.00 in0.0 mm
03:23 PM 34.2°F1.2°C -6.0°F-21.1°C 17% 3.1 mph N5.0 kmh N 11.4 mph18.3 kmh 30.31 in1026.4 mb 0.00 in0.0 mm 0.00 in/hr0.0 mm/hr 0.00 in0.0 mm
03:24 PM 34.3°F1.3°C -5.9°F-21.1°C 17% 6.0 mph N9.7 kmh N 11.4 mph18.3 kmh 30.32 in1026.8 mb 0.00 in0.0 mm 0.00 in/hr0.0 mm/hr 0.00 in0.0 mm
03:25 PM 34.2°F1.2°C -6.0°F-21.1°C 17% 5.4 mph NNW8.7 kmh NNW 10.7 mph17.2 kmh 30.32 in1026.8 mb 0.00 in0.0 mm 0.00 in/hr0.0 mm/hr 0.00 in0.0 mm
03:26 PM 33.8°F1.0°C -6.3°F-21.3°C 17% 6.0 mph N9.7 kmh N 10.7 mph17.2 kmh 30.32 in1026.8 mb 0.00 in0.0 mm 0.00 in/hr0.0 mm/hr 0.00 in0.0 mm
03:27 PM 33.6°F0.9°C -5.3°F-20.7°C 18% 6.0 mph N9.7 kmh N 10.7 mph17.2 kmh 30.32 in1026.8 mb 0.00 in0.0 mm 0.00 in/hr0.0 mm/hr 0.00 in0.0 mm
03:28 PM 33.8°F1.0°C -6.3°F-21.3°C 17% 5.4 mph N8.7 kmh N 9.8 mph15.8 kmh 30.32 in1026.8 mb 0.00 in0.0 mm 0.00 in/hr0.0 mm/hr 0.00 in0.0 mm
03:29 PM 34.0°F1.1°C -6.2°F-21.2°C 17% 4.5 mph N7.2 kmh N 9.8 mph15.8 kmh 30.31 in1026.4 mb 0.00 in0.0 mm 0.00 in/hr0.0 mm/hr 0.00 in0.0 mm
03:30 PM 33.8°F1.0°C -6.3°F-21.3°C 17% 5.4 mph N8.7 kmh N 9.8 mph15.8 kmh 30.32 in1026.8 mb 0.00 in0.0 mm 0.00 in/hr0.0 mm/hr 0.00 in0.0 mm
03:31 PM 34.0°F1.1°C -6.2°F-21.2°C 17% 6.9 mph N11.1 kmh N 9.8 mph15.8 kmh 30.32 in1026.8 mb 0.00 in0.0 mm 0.00 in/hr0.0 mm/hr 0.00 in0.0 mm
03:32 PM 33.6°F0.9°C -5.3°F-20.7°C 18% 4.5 mph N7.2 kmh N 9.8 mph15.8 kmh 30.32 in1026.8 mb 0.00 in0.0 mm 0.00 in/hr0.0 mm/hr 0.00 in0.0 mm
03:33 PM 33.8°F1.0°C -6.3°F-21.3°C 17% 5.4 mph N8.7 kmh N 9.8 mph15.8 kmh 30.32 in1026.8 mb 0.00 in0.0 mm 0.00 in/hr0.0 mm/hr 0.00 in0.0 mm
03:34 PM 33.6°F0.9°C -5.3°F-20.7°C 18% 6.0 mph N9.7 kmh N 9.8 mph15.8 kmh 30.32 in1026.8 mb 0.00 in0.0 mm 0.00 in/hr0.0 mm/hr 0.00 in0.0 mm
03:35 PM 33.6°F0.9°C -5.3°F-20.7°C 18% 3.1 mph N5.0 kmh N 9.8 mph15.8 kmh 30.32 in1026.8 mb 0.00 in0.0 mm 0.00 in/hr0.0 mm/hr 0.00 in0.0 mm
03:36 PM 33.8°F1.0°C -6.3°F-21.3°C 17% 6.0 mph N9.7 kmh N 9.8 mph15.8 kmh 30.32 in1026.8 mb 0.00 in0.0 mm 0.00 in/hr0.0 mm/hr 0.00 in0.0 mm
03:37 PM 33.6°F0.9°C -5.3°F-20.7°C 18% 5.4 mph NNE8.7 kmh NNE 9.8 mph15.8 kmh 30.32 in1026.8 mb 0.00 in0.0 mm 0.00 in/hr0.0 mm/hr 0.00 in0.0 mm
03:38 PM 33.6°F0.9°C -5.3°F-20.7°C 18% 6.0 mph N9.7 kmh N 9.8 mph15.8 kmh 30.32 in1026.8 mb 0.00 in0.0 mm 0.00 in/hr0.0 mm/hr 0.00 in0.0 mm
03:39 PM 34.0°F1.1°C -5.0°F-20.6°C 18% 6.9 mph N11.1 kmh N 9.8 mph15.8 kmh 30.32 in1026.8 mb 0.00 in0.0 mm 0.00 in/hr0.0 mm/hr 0.00 in0.0 mm
03:40 PM 33.8°F1.0°C -6.3°F-21.3°C 17% 6.0 mph N9.7 kmh N 9.8 mph15.8 kmh 30.32 in1026.8 mb 0.00 in0.0 mm 0.00 in/hr0.0 mm/hr 0.00 in0.0 mm
03:41 PM 33.6°F0.9°C -5.3°F-20.7°C 18% 6.0 mph N9.7 kmh N 9.8 mph15.8 kmh 30.32 in1026.8 mb 0.00 in0.0 mm 0.00 in/hr0.0 mm/hr 0.00 in0.0 mm
03:42 PM 33.6°F0.9°C -5.3°F-20.7°C 18% 6.9 mph N11.1 kmh N 9.8 mph15.8 kmh 30.32 in1026.8 mb 0.00 in0.0 mm 0.00 in/hr0.0 mm/hr 0.00 in0.0 mm
03:43 PM 33.8°F1.0°C -6.3°F-21.3°C 17% 5.4 mph N8.7 kmh N 10.7 mph17.2 kmh 30.32 in1026.8 mb 0.00 in0.0 mm 0.00 in/hr0.0 mm/hr 0.00 in0.0 mm
03:44 PM 33.8°F1.0°C -6.3°F-21.3°C 17% 3.8 mph N6.1 kmh N 10.7 mph17.2 kmh 30.32 in1026.8 mb 0.00 in0.0 mm 0.00 in/hr0.0 mm/hr 0.00 in0.0 mm
03:45 PM 34.2°F1.2°C -4.9°F-20.5°C 18% 7.6 mph N12.2 kmh N 10.7 mph17.2 kmh 30.32 in1026.8 mb 0.00 in0.0 mm 0.00 in/hr0.0 mm/hr 0.00 in0.0 mm
03:46 PM 34.2°F1.2°C -4.9°F-20.5°C 18% 7.6 mph NNW12.2 kmh NNW 10.7 mph17.2 kmh 30.33 in1027.1 mb 0.00 in0.0 mm 0.00 in/hr0.0 mm/hr 0.00 in0.0 mm
03:47 PM 33.8°F1.0°C -6.3°F-21.3°C 17% 7.6 mph NNW12.2 kmh NNW 10.7 mph17.2 kmh 30.33 in1027.1 mb 0.00 in0.0 mm 0.00 in/hr0.0 mm/hr 0.00 in0.0 mm
03:48 PM 33.6°F0.9°C -5.3°F-20.7°C 18% 2.2 mph NNW3.5 kmh NNW 10.7 mph17.2 kmh 30.33 in1027.1 mb 0.00 in0.0 mm 0.00 in/hr0.0 mm/hr 0.00 in0.0 mm
03:49 PM 34.0°F1.1°C -6.2°F-21.2°C 17% 3.1 mph NW5.0 kmh NW 10.7 mph17.2 kmh 30.33 in1027.1 mb 0.00 in0.0 mm 0.00 in/hr0.0 mm/hr 0.00 in0.0 mm
03:50 PM 34.5°F1.4°C -4.6°F-20.3°C 18% 3.8 mph NW6.1 kmh NW 10.7 mph17.2 kmh 30.33 in1027.1 mb 0.00 in0.0 mm 0.00 in/hr0.0 mm/hr 0.00 in0.0 mm
03:51 PM 34.2°F1.2°C -4.9°F-20.5°C 18% 5.4 mph NW8.7 kmh NW 10.7 mph17.2 kmh 30.33 in1027.1 mb 0.00 in0.0 mm 0.00 in/hr0.0 mm/hr 0.00 in0.0 mm
03:52 PM 33.6°F0.9°C -3.1°F-19.5°C 20% 5.4 mph NW8.7 kmh NW 10.7 mph17.2 kmh 30.33 in1027.1 mb 0.00 in0.0 mm 0.00 in/hr0.0 mm/hr 0.00 in0.0 mm
03:53 PM 33.6°F0.9°C -3.1°F-19.5°C 20% 3.8 mph NW6.1 kmh NW 10.7 mph17.2 kmh 30.33 in1027.1 mb 0.00 in0.0 mm 0.00 in/hr0.0 mm/hr 0.00 in0.0 mm
03:54 PM 33.4°F0.8°C -5.4°F-20.8°C 18% 4.5 mph NW7.2 kmh NW 9.8 mph15.8 kmh 30.33 in1027.1 mb 0.00 in0.0 mm 0.00 in/hr0.0 mm/hr 0.00 in0.0 mm
03:55 PM 33.4°F0.8°C -5.4°F-20.8°C 18% 3.1 mph NW5.0 kmh NW 9.8 mph15.8 kmh 30.33 in1027.1 mb 0.00 in0.0 mm 0.00 in/hr0.0 mm/hr 0.00 in0.0 mm
03:56 PM 33.6°F0.9°C -3.1°F-19.5°C 20% 3.1 mph NNW5.0 kmh NNW 9.8 mph15.8 kmh 30.34 in1027.4 mb 0.00 in0.0 mm 0.00 in/hr0.0 mm/hr 0.00 in0.0 mm
03:57 PM 33.8°F1.0°C -5.2°F-20.7°C 18% 4.5 mph NNW7.2 kmh NNW 9.2 mph14.8 kmh 30.34 in1027.4 mb 0.00 in0.0 mm 0.00 in/hr0.0 mm/hr 0.00 in0.0 mm
03:58 PM 33.4°F0.8°C -3.3°F-19.6°C 20% 3.8 mph N6.1 kmh N 9.2 mph14.8 kmh 30.34 in1027.4 mb 0.00 in0.0 mm 0.00 in/hr0.0 mm/hr 0.00 in0.0 mm
03:59 PM 33.4°F0.8°C -3.3°F-19.6°C 20% 3.8 mph N6.1 kmh N 9.2 mph14.8 kmh 30.34 in1027.4 mb 0.00 in0.0 mm 0.00 in/hr0.0 mm/hr 0.00 in0.0 mm
04:00 PM 33.6°F0.9°C -3.1°F-19.5°C 20% 2.2 mph N3.5 kmh N 9.2 mph14.8 kmh 30.33 in1027.1 mb 0.00 in0.0 mm 0.00 in/hr0.0 mm/hr 0.00 in0.0 mm
04:01 PM 33.6°F0.9°C -3.1°F-19.5°C 20% 3.1 mph N5.0 kmh N 9.2 mph14.8 kmh 30.33 in1027.1 mb 0.00 in0.0 mm 0.00 in/hr0.0 mm/hr 0.00 in0.0 mm
04:02 PM 33.6°F0.9°C -3.1°F-19.5°C 20% 5.4 mph N8.7 kmh N 7.6 mph12.2 kmh 30.34 in1027.4 mb 0.00 in0.0 mm 0.00 in/hr0.0 mm/hr 0.00 in0.0 mm
04:03 PM 33.4°F0.8°C -3.3°F-19.6°C 20% 4.5 mph N7.2 kmh N 6.9 mph11.1 kmh 30.34 in1027.4 mb 0.00 in0.0 mm 0.00 in/hr0.0 mm/hr 0.00 in0.0 mm
04:04 PM 33.4°F0.8°C -3.3°F-19.6°C 20% 4.5 mph N7.2 kmh N 6.9 mph11.1 kmh 30.34 in1027.4 mb 0.00 in0.0 mm 0.00 in/hr0.0 mm/hr 0.00 in0.0 mm
04:05 PM 33.6°F0.9°C -5.3°F-20.7°C 18% 5.4 mph N8.7 kmh N 7.6 mph12.2 kmh 30.34 in1027.4 mb 0.00 in0.0 mm 0.00 in/hr0.0 mm/hr 0.00 in0.0 mm
04:06 PM 33.4°F0.8°C -5.4°F-20.8°C 18% 4.5 mph N7.2 kmh N 7.6 mph12.2 kmh 30.34 in1027.4 mb 0.00 in0.0 mm 0.00 in/hr0.0 mm/hr 0.00 in0.0 mm
04:07 PM 33.6°F0.9°C -5.3°F-20.7°C 18% 5.4 mph N8.7 kmh N 7.6 mph12.2 kmh 30.34 in1027.4 mb 0.00 in0.0 mm 0.00 in/hr0.0 mm/hr 0.00 in0.0 mm
04:08 PM 33.4°F0.8°C -5.4°F-20.8°C 18% 5.4 mph NNW8.7 kmh NNW 7.6 mph12.2 kmh 30.34 in1027.4 mb 0.00 in0.0 mm 0.00 in/hr0.0 mm/hr 0.00 in0.0 mm
04:09 PM 33.6°F0.9°C -3.1°F-19.5°C 20% 3.1 mph NNW5.0 kmh NNW 7.6 mph12.2 kmh 30.34 in1027.4 mb 0.00 in0.0 mm 0.00 in/hr0.0 mm/hr 0.00 in0.0 mm
04:10 PM 33.4°F0.8°C -3.3°F-19.6°C 20% 3.8 mph NNW6.1 kmh NNW 7.6 mph12.2 kmh 30.34 in1027.4 mb 0.00 in0.0 mm 0.00 in/hr0.0 mm/hr 0.00 in0.0 mm
04:11 PM 33.4°F0.8°C -5.4°F-20.8°C 18% 6.9 mph NNW11.1 kmh NNW 9.2 mph14.8 kmh 30.34 in1027.4 mb 0.00 in0.0 mm 0.00 in/hr0.0 mm/hr 0.00 in0.0 mm
04:12 PM 33.1°F0.6°C -5.7°F-20.9°C 18% 6.0 mph NNW9.7 kmh NNW 9.8 mph15.8 kmh 30.34 in1027.4 mb 0.00 in0.0 mm 0.00 in/hr0.0 mm/hr 0.00 in0.0 mm
04:13 PM 32.9°F0.5°C -5.9°F-21.1°C 18% 3.8 mph NNW6.1 kmh NNW 9.8 mph15.8 kmh 30.34 in1027.4 mb 0.00 in0.0 mm 0.00 in/hr0.0 mm/hr 0.00 in0.0 mm
04:14 PM 32.5°F0.3°C -6.2°F-21.2°C 18% 4.5 mph NNW7.2 kmh NNW 9.8 mph15.8 kmh 30.34 in1027.4 mb 0.00 in0.0 mm 0.00 in/hr0.0 mm/hr 0.00 in0.0 mm
04:15 PM 32.4°F0.2°C -4.2°F-20.1°C 20% 3.8 mph NNW6.1 kmh NNW 9.8 mph15.8 kmh 30.34 in1027.4 mb 0.00 in0.0 mm 0.00 in/hr0.0 mm/hr 0.00 in0.0 mm
04:16 PM 32.4°F0.2°C -4.2°F-20.1°C 20% 4.5 mph NNW7.2 kmh NNW 9.8 mph15.8 kmh 30.34 in1027.4 mb 0.00 in0.0 mm 0.00 in/hr0.0 mm/hr 0.00 in0.0 mm
04:17 PM 32.4°F0.2°C -4.2°F-20.1°C 20% 3.1 mph NNW5.0 kmh NNW 9.8 mph15.8 kmh 30.34 in1027.4 mb 0.00 in0.0 mm 0.00 in/hr0.0 mm/hr 0.00 in0.0 mm
04:18 PM 32.4°F0.2°C -4.2°F-20.1°C 20% 3.1 mph NNW5.0 kmh NNW 9.8 mph15.8 kmh 30.34 in1027.4 mb 0.00 in0.0 mm 0.00 in/hr0.0 mm/hr 0.00 in0.0 mm
04:19 PM 32.5°F0.3°C -4.0°F-20.0°C 20% 3.8 mph NNW6.1 kmh NNW 9.8 mph15.8 kmh 30.34 in1027.4 mb 0.00 in0.0 mm 0.00 in/hr0.0 mm/hr 0.00 in0.0 mm
04:20 PM 32.5°F0.3°C -4.0°F-20.0°C 20% 5.4 mph NNW8.7 kmh NNW 9.8 mph15.8 kmh 30.34 in1027.4 mb 0.00 in0.0 mm 0.00 in/hr0.0 mm/hr 0.00 in0.0 mm
04:21 PM 32.4°F0.2°C -4.2°F-20.1°C 20% 3.8 mph NNW6.1 kmh NNW 9.8 mph15.8 kmh 30.34 in1027.4 mb 0.00 in0.0 mm 0.00 in/hr0.0 mm/hr 0.00 in0.0 mm
04:22 PM 32.2°F0.1°C -3.3°F-19.6°C 21% 3.8 mph NNW6.1 kmh NNW 7.6 mph12.2 kmh 30.34 in1027.4 mb 0.00 in0.0 mm 0.00 in/hr0.0 mm/hr 0.00 in0.0 mm
04:23 PM 32.2°F0.1°C -3.3°F-19.6°C 21% 5.4 mph NNW8.7 kmh NNW 7.6 mph12.2 kmh 30.34 in1027.4 mb 0.00 in0.0 mm 0.00 in/hr0.0 mm/hr 0.00 in0.0 mm
04:24 PM 32.2°F0.1°C -3.3°F-19.6°C 21% 3.8 mph NNW6.1 kmh NNW 7.6 mph12.2 kmh 30.34 in1027.4 mb 0.00 in0.0 mm 0.00 in/hr0.0 mm/hr 0.00 in0.0 mm
04:25 PM 32.0°F0.0°C -3.5°F-19.7°C 21% 3.8 mph NW6.1 kmh NW 7.6 mph12.2 kmh 30.34 in1027.4 mb 0.00 in0.0 mm 0.00 in/hr0.0 mm/hr 0.00 in0.0 mm
04:26 PM 32.0°F0.0°C -3.5°F-19.7°C 21% 4.5 mph NNW7.2 kmh NNW 7.6 mph12.2 kmh 30.34 in1027.4 mb 0.00 in0.0 mm 0.00 in/hr0.0 mm/hr 0.00 in0.0 mm
04:27 PM 32.0°F0.0°C -3.5°F-19.7°C 21% 3.1 mph NNW5.0 kmh NNW 7.6 mph12.2 kmh 30.34 in1027.4 mb 0.00 in0.0 mm 0.00 in/hr0.0 mm/hr 0.00 in0.0 mm
04:28 PM 32.0°F0.0°C -3.5°F-19.7°C 21% 3.8 mph NNW6.1 kmh NNW 7.6 mph12.2 kmh 30.34 in1027.4 mb 0.00 in0.0 mm 0.00 in/hr0.0 mm/hr 0.00 in0.0 mm
04:29 PM 31.8°F-0.1°C -2.6°F-19.2°C 22% 2.2 mph NNW3.5 kmh NNW 7.6 mph12.2 kmh 30.34 in1027.4 mb 0.00 in0.0 mm 0.00 in/hr0.0 mm/hr 0.00 in0.0 mm
04:30 PM 31.8°F-0.1°C -2.6°F-19.2°C 22% 3.1 mph N5.0 kmh N 7.6 mph12.2 kmh 30.34 in1027.4 mb 0.00 in0.0 mm 0.00 in/hr0.0 mm/hr 0.00 in0.0 mm
04:31 PM 31.8°F-0.1°C -2.6°F-19.2°C 22% 3.1 mph N5.0 kmh N 7.6 mph12.2 kmh 30.34 in1027.4 mb 0.00 in0.0 mm 0.00 in/hr0.0 mm/hr 0.00 in0.0 mm
04:32 PM 31.8°F-0.1°C -2.6°F-19.2°C 22% 3.8 mph N6.1 kmh N 7.6 mph12.2 kmh 30.34 in1027.4 mb 0.00 in0.0 mm 0.00 in/hr0.0 mm/hr 0.00 in0.0 mm
04:33 PM 31.8°F-0.1°C -2.6°F-19.2°C 22% 3.1 mph N5.0 kmh N 9.2 mph14.8 kmh 30.34 in1027.4 mb 0.00 in0.0 mm 0.00 in/hr0.0 mm/hr 0.00 in0.0 mm
04:34 PM 31.6°F-0.2°C -2.8°F-19.3°C 22% 2.2 mph N3.5 kmh N 9.2 mph14.8 kmh 30.34 in1027.4 mb 0.00 in0.0 mm 0.00 in/hr0.0 mm/hr 0.00 in0.0 mm
04:35 PM 31.6°F-0.2°C -2.8°F-19.3°C 22% 4.5 mph N7.2 kmh N 9.2 mph14.8 kmh 30.34 in1027.4 mb 0.00 in0.0 mm 0.00 in/hr0.0 mm/hr 0.00 in0.0 mm
04:36 PM 31.6°F-0.2°C -2.8°F-19.3°C 22% 3.1 mph N5.0 kmh N 9.2 mph14.8 kmh 30.35 in1027.8 mb 0.00 in0.0 mm 0.00 in/hr0.0 mm/hr 0.00 in0.0 mm
04:37 PM 31.6°F-0.2°C -2.8°F-19.3°C 22% 4.5 mph N7.2 kmh N 9.2 mph14.8 kmh 30.35 in1027.8 mb 0.00 in0.0 mm 0.00 in/hr0.0 mm/hr 0.00 in0.0 mm
04:38 PM 31.6°F-0.2°C -2.8°F-19.3°C 22% 4.5 mph N7.2 kmh N 9.2 mph14.8 kmh 30.35 in1027.8 mb 0.00 in0.0 mm 0.00 in/hr0.0 mm/hr 0.00 in0.0 mm
04:39 PM 31.6°F-0.2°C -2.8°F-19.3°C 22% 3.1 mph N5.0 kmh N 9.2 mph14.8 kmh 30.35 in1027.8 mb 0.00 in0.0 mm 0.00 in/hr0.0 mm/hr 0.00 in0.0 mm
04:40 PM 31.5°F-0.3°C -2.0°F-18.9°C 23% 3.8 mph N6.1 kmh N 9.2 mph14.8 kmh 30.35 in1027.8 mb 0.00 in0.0 mm 0.00 in/hr0.0 mm/hr 0.00 in0.0 mm
04:41 PM 31.5°F-0.3°C -2.9°F-19.4°C 22% 3.1 mph N5.0 kmh N 9.2 mph14.8 kmh 30.34 in1027.4 mb 0.00 in0.0 mm 0.00 in/hr0.0 mm/hr 0.00 in0.0 mm
04:42 PM 31.5°F-0.3°C -2.0°F-18.9°C 23% 3.8 mph N6.1 kmh N 9.2 mph14.8 kmh 30.35 in1027.8 mb 0.00 in0.0 mm 0.00 in/hr0.0 mm/hr 0.00 in0.0 mm
04:43 PM 31.5°F-0.3°C -2.0°F-18.9°C 23% 5.4 mph N8.7 kmh N 8.3 mph13.4 kmh 30.35 in1027.8 mb 0.00 in0.0 mm 0.00 in/hr0.0 mm/hr 0.00 in0.0 mm
04:44 PM 31.5°F-0.3°C -2.0°F-18.9°C 23% 3.8 mph N6.1 kmh N 8.3 mph13.4 kmh 30.35 in1027.8 mb 0.00 in0.0 mm 0.00 in/hr0.0 mm/hr 0.00 in0.0 mm
04:45 PM 31.5°F-0.3°C -2.0°F-18.9°C 23% 3.8 mph N6.1 kmh N 8.3 mph13.4 kmh 30.35 in1027.8 mb 0.00 in0.0 mm 0.00 in/hr0.0 mm/hr 0.00 in0.0 mm
04:46 PM 31.5°F-0.3°C -2.0°F-18.9°C 23% 3.1 mph NNW5.0 kmh NNW 8.3 mph13.4 kmh 30.35 in1027.8 mb 0.00 in0.0 mm 0.00 in/hr0.0 mm/hr 0.00 in0.0 mm
04:47 PM 31.3°F-0.4°C -2.2°F-19.0°C 23% 3.8 mph NNW6.1 kmh NNW 8.3 mph13.4 kmh 30.35 in1027.8 mb 0.00 in0.0 mm 0.00 in/hr0.0 mm/hr 0.00 in0.0 mm
04:48 PM 31.3°F-0.4°C -2.2°F-19.0°C 23% 5.4 mph NNW8.7 kmh NNW 8.3 mph13.4 kmh 30.35 in1027.8 mb 0.00 in0.0 mm 0.00 in/hr0.0 mm/hr 0.00 in0.0 mm
04:49 PM 31.3°F-0.4°C -2.2°F-19.0°C 23% 4.5 mph NNW7.2 kmh NNW 8.3 mph13.4 kmh 30.35 in1027.8 mb 0.00 in0.0 mm 0.00 in/hr0.0 mm/hr 0.00 in0.0 mm
04:50 PM 31.3°F-0.4°C -2.2°F-19.0°C 23% 3.8 mph NNW6.1 kmh NNW 8.3 mph13.4 kmh 30.35 in1027.8 mb 0.00 in0.0 mm 0.00 in/hr0.0 mm/hr 0.00 in0.0 mm
04:51 PM 31.1°F-0.5°C -2.3°F-19.1°C 23% 5.4 mph N8.7 kmh N 8.3 mph13.4 kmh 30.35 in1027.8 mb 0.00 in0.0 mm 0.00 in/hr0.0 mm/hr 0.00 in0.0 mm
04:52 PM 31.1°F-0.5°C -2.3°F-19.1°C 23% 4.5 mph N7.2 kmh N 8.3 mph13.4 kmh 30.35 in1027.8 mb 0.00 in0.0 mm 0.00 in/hr0.0 mm/hr 0.00 in0.0 mm
04:53 PM 31.1°F-0.5°C -2.3°F-19.1°C 23% 3.1 mph N5.0 kmh N 8.3 mph13.4 kmh 30.36 in1028.1 mb 0.00 in0.0 mm 0.00 in/hr0.0 mm/hr 0.00 in0.0 mm
04:54 PM 31.1°F-0.5°C -2.3°F-19.1°C 23% 4.5 mph N7.2 kmh N 8.3 mph13.4 kmh 30.36 in1028.1 mb 0.00 in0.0 mm 0.00 in/hr0.0 mm/hr 0.00 in0.0 mm
04:55 PM 31.1°F-0.5°C -2.3°F-19.1°C 23% 3.1 mph N5.0 kmh N 8.3 mph13.4 kmh 30.35 in1027.8 mb 0.00 in0.0 mm 0.00 in/hr0.0 mm/hr 0.00 in0.0 mm
04:56 PM 30.9°F-0.6°C -2.5°F-19.2°C 23% 1.6 mph N2.6 kmh N 8.3 mph13.4 kmh 30.35 in1027.8 mb 0.00 in0.0 mm 0.00 in/hr0.0 mm/hr 0.00 in0.0 mm
04:57 PM 30.7°F-0.7°C -2.6°F-19.2°C 23% 3.1 mph N5.0 kmh N 8.3 mph13.4 kmh 30.35 in1027.8 mb 0.00 in0.0 mm 0.00 in/hr0.0 mm/hr 0.00 in0.0 mm
04:58 PM 30.7°F-0.7°C -2.6°F-19.2°C 23% 3.1 mph N5.0 kmh N 6.9 mph11.1 kmh 30.35 in1027.8 mb 0.00 in0.0 mm 0.00 in/hr0.0 mm/hr 0.00 in0.0 mm
04:59 PM 30.7°F-0.7°C -2.6°F-19.2°C 23% 3.1 mph N5.0 kmh N 6.9 mph11.1 kmh 30.36 in1028.1 mb 0.00 in0.0 mm 0.00 in/hr0.0 mm/hr 0.00 in0.0 mm
05:00 PM 30.7°F-0.7°C -2.6°F-19.2°C 23% 3.1 mph N5.0 kmh N 6.9 mph11.1 kmh 30.36 in1028.1 mb 0.00 in0.0 mm 0.00 in/hr0.0 mm/hr 0.00 in0.0 mm
05:01 PM 30.7°F-0.7°C -2.6°F-19.2°C 23% 4.5 mph NNW7.2 kmh NNW 6.9 mph11.1 kmh 30.36 in1028.1 mb 0.00 in0.0 mm 0.00 in/hr0.0 mm/hr 0.00 in0.0 mm
05:02 PM 30.9°F-0.6°C -2.5°F-19.2°C 23% 3.8 mph NNW6.1 kmh NNW 6.9 mph11.1 kmh 30.36 in1028.1 mb 0.00 in0.0 mm 0.00 in/hr0.0 mm/hr 0.00 in0.0 mm
05:03 PM 30.7°F-0.7°C -0.9°F-18.3°C 25% 3.1 mph N5.0 kmh N 6.9 mph11.1 kmh 30.36 in1028.1 mb 0.00 in0.0 mm 0.00 in/hr0.0 mm/hr 0.00 in0.0 mm
05:04 PM 30.7°F-0.7°C -0.9°F-18.3°C 25% 3.1 mph N5.0 kmh N 7.6 mph12.2 kmh 30.36 in1028.1 mb 0.00 in0.0 mm 0.00 in/hr0.0 mm/hr 0.00 in0.0 mm
05:05 PM 30.7°F-0.7°C -0.9°F-18.3°C 25% 3.8 mph N6.1 kmh N 7.6 mph12.2 kmh 30.36 in1028.1 mb 0.00 in0.0 mm 0.00 in/hr0.0 mm/hr 0.00 in0.0 mm
05:06 PM 30.7°F-0.7°C -0.9°F-18.3°C 25% 3.1 mph N5.0 kmh N 7.6 mph12.2 kmh 30.36 in1028.1 mb 0.00 in0.0 mm 0.00 in/hr0.0 mm/hr 0.00 in0.0 mm
05:07 PM 30.6°F-0.8°C -1.0°F-18.3°C 25% 3.1 mph N5.0 kmh N 7.6 mph12.2 kmh 30.36 in1028.1 mb 0.00 in0.0 mm 0.00 in/hr0.0 mm/hr 0.00 in0.0 mm
05:08 PM 30.6°F-0.8°C -1.0°F-18.3°C 25% 4.5 mph NNW7.2 kmh NNW 7.6 mph12.2 kmh 30.36 in1028.1 mb 0.00 in0.0 mm 0.00 in/hr0.0 mm/hr 0.00 in0.0 mm
05:09 PM 30.6°F-0.8°C -1.0°F-18.3°C 25% 3.8 mph NNW6.1 kmh NNW 7.6 mph12.2 kmh 30.36 in1028.1 mb 0.00 in0.0 mm 0.00 in/hr0.0 mm/hr 0.00 in0.0 mm
05:10 PM 30.6°F-0.8°C -1.0°F-18.3°C 25% 3.8 mph NNW6.1 kmh NNW 7.6 mph12.2 kmh 30.36 in1028.1 mb 0.00 in0.0 mm 0.00 in/hr0.0 mm/hr 0.00 in0.0 mm
05:11 PM 30.6°F-0.8°C -1.0°F-18.3°C 25% 3.8 mph NNW6.1 kmh NNW 7.6 mph12.2 kmh 30.36 in1028.1 mb 0.00 in0.0 mm 0.00 in/hr0.0 mm/hr 0.00 in0.0 mm
05:12 PM 30.6°F-0.8°C -0.2°F-17.9°C 26% 3.1 mph NNW5.0 kmh NNW 7.6 mph12.2 kmh 30.36 in1028.1 mb 0.00 in0.0 mm 0.00 in/hr0.0 mm/hr 0.00 in0.0 mm
05:13 PM 30.4°F-0.9°C -0.3°F-17.9°C 26% 3.8 mph NNW6.1 kmh NNW 7.6 mph12.2 kmh 30.36 in1028.1 mb 0.00 in0.0 mm 0.00 in/hr0.0 mm/hr 0.00 in0.0 mm
05:14 PM 30.4°F-0.9°C -0.3°F-17.9°C 26% 5.4 mph NNW8.7 kmh NNW 6.0 mph9.7 kmh 30.37 in1028.4 mb 0.00 in0.0 mm 0.00 in/hr0.0 mm/hr 0.00 in0.0 mm
05:15 PM 30.4°F-0.9°C -0.3°F-17.9°C 26% 3.1 mph NNW5.0 kmh NNW 6.0 mph9.7 kmh 30.36 in1028.1 mb 0.00 in0.0 mm 0.00 in/hr0.0 mm/hr 0.00 in0.0 mm
05:16 PM 30.4°F-0.9°C -0.3°F-17.9°C 26% 3.1 mph NNW5.0 kmh NNW 6.0 mph9.7 kmh 30.36 in1028.1 mb 0.00 in0.0 mm 0.00 in/hr0.0 mm/hr 0.00 in0.0 mm
05:17 PM 30.4°F-0.9°C -0.3°F-17.9°C 26% 3.8 mph NNW6.1 kmh NNW 6.9 mph11.1 kmh 30.37 in1028.4 mb 0.00 in0.0 mm 0.00 in/hr0.0 mm/hr 0.00 in0.0 mm
05:18 PM 30.4°F-0.9°C -0.3°F-17.9°C 26% 2.2 mph NNW3.5 kmh NNW 6.9 mph11.1 kmh 30.37 in1028.4 mb 0.00 in0.0 mm 0.00 in/hr0.0 mm/hr 0.00 in0.0 mm
05:19 PM 30.2°F-1.0°C -0.5°F-18.1°C 26% 2.2 mph NNW3.5 kmh NNW 6.9 mph11.1 kmh 30.37 in1028.4 mb 0.00 in0.0 mm 0.00 in/hr0.0 mm/hr 0.00 in0.0 mm
05:20 PM 30.0°F-1.1°C 0.1°F-17.7°C 27% 3.8 mph N6.1 kmh N 6.9 mph11.1 kmh 30.37 in1028.4 mb 0.00 in0.0 mm 0.00 in/hr0.0 mm/hr 0.00 in0.0 mm
05:21 PM 30.0°F-1.1°C 0.9°F-17.3°C 28% 3.8 mph N6.1 kmh N 6.9 mph11.1 kmh 30.37 in1028.4 mb 0.00 in0.0 mm 0.00 in/hr0.0 mm/hr 0.00 in0.0 mm
05:22 PM 30.0°F-1.1°C 0.9°F-17.3°C 28% 3.1 mph N5.0 kmh N 6.9 mph11.1 kmh 30.37 in1028.4 mb 0.00 in0.0 mm 0.00 in/hr0.0 mm/hr 0.00 in0.0 mm
05:23 PM 30.0°F-1.1°C 0.9°F-17.3°C 28% 3.8 mph N6.1 kmh N 6.9 mph11.1 kmh 30.37 in1028.4 mb 0.00 in0.0 mm 0.00 in/hr0.0 mm/hr 0.00 in0.0 mm
05:24 PM 30.0°F-1.1°C 0.9°F-17.3°C 28% 1.6 mph N2.6 kmh N 6.9 mph11.1 kmh 30.37 in1028.4 mb 0.00 in0.0 mm 0.00 in/hr0.0 mm/hr 0.00 in0.0 mm
05:25 PM 29.8°F-1.2°C 0.8°F-17.3°C 28% 2.2 mph N3.5 kmh N 6.9 mph11.1 kmh 30.37 in1028.4 mb 0.00 in0.0 mm 0.00 in/hr0.0 mm/hr 0.00 in0.0 mm
05:26 PM 29.8°F-1.2°C 0.8°F-17.3°C 28% 3.1 mph N5.0 kmh N 6.9 mph11.1 kmh 30.37 in1028.4 mb 0.00 in0.0 mm 0.00 in/hr0.0 mm/hr 0.00 in0.0 mm
05:27 PM 29.8°F-1.2°C 0.8°F-17.3°C 28% 1.6 mph N2.6 kmh N 6.0 mph9.7 kmh 30.37 in1028.4 mb 0.00 in0.0 mm 0.00 in/hr0.0 mm/hr 0.00 in0.0 mm
05:28 PM 29.7°F-1.3°C 0.6°F-17.4°C 28% 3.1 mph NNW5.0 kmh NNW 5.4 mph8.7 kmh 30.38 in1028.8 mb 0.00 in0.0 mm 0.00 in/hr0.0 mm/hr 0.00 in0.0 mm
05:29 PM 29.7°F-1.3°C 0.6°F-17.4°C 28% 3.1 mph N5.0 kmh N 6.0 mph9.7 kmh 30.37 in1028.4 mb 0.00 in0.0 mm 0.00 in/hr0.0 mm/hr 0.00 in0.0 mm
05:30 PM 29.7°F-1.3°C 0.6°F-17.4°C 28% 1.6 mph N2.6 kmh N 6.0 mph9.7 kmh 30.38 in1028.8 mb 0.00 in0.0 mm 0.00 in/hr0.0 mm/hr 0.00 in0.0 mm
05:31 PM 29.5°F-1.4°C 1.9°F-16.7°C 30% 1.6 mph N2.6 kmh N 6.0 mph9.7 kmh 30.37 in1028.4 mb 0.00 in0.0 mm 0.00 in/hr0.0 mm/hr 0.00 in0.0 mm
05:32 PM 29.5°F-1.4°C 1.9°F-16.7°C 30% 3.1 mph N5.0 kmh N 6.0 mph9.7 kmh 30.38 in1028.8 mb 0.00 in0.0 mm 0.00 in/hr0.0 mm/hr 0.00 in0.0 mm
05:33 PM 29.5°F-1.4°C 1.9°F-16.7°C 30% 1.6 mph NNW2.6 kmh NNW 6.0 mph9.7 kmh 30.37 in1028.4 mb 0.00 in0.0 mm 0.00 in/hr0.0 mm/hr 0.00 in0.0 mm
05:34 PM 29.5°F-1.4°C 1.9°F-16.7°C 30% 2.2 mph NNW3.5 kmh NNW 6.0 mph9.7 kmh 30.37 in1028.4 mb 0.00 in0.0 mm 0.00 in/hr0.0 mm/hr 0.00 in0.0 mm
05:35 PM 29.5°F-1.4°C 1.9°F-16.7°C 30% 1.6 mph NNW2.6 kmh NNW 6.0 mph9.7 kmh 30.37 in1028.4 mb 0.00 in0.0 mm 0.00 in/hr0.0 mm/hr 0.00 in0.0 mm
05:36 PM 29.5°F-1.4°C 2.6°F-16.3°C 31% 1.6 mph NNW2.6 kmh NNW 6.0 mph9.7 kmh 30.37 in1028.4 mb 0.00 in0.0 mm 0.00 in/hr0.0 mm/hr 0.00 in0.0 mm
05:37 PM 29.5°F-1.4°C 2.6°F-16.3°C 31% 2.2 mph NNW3.5 kmh NNW 6.0 mph9.7 kmh 30.37 in1028.4 mb 0.00 in0.0 mm 0.00 in/hr0.0 mm/hr 0.00 in0.0 mm
05:38 PM 29.5°F-1.4°C 2.6°F-16.3°C 31% 3.1 mph NNW5.0 kmh NNW 6.0 mph9.7 kmh 30.37 in1028.4 mb 0.00 in0.0 mm 0.00 in/hr0.0 mm/hr 0.00 in0.0 mm
05:39 PM 29.5°F-1.4°C 2.6°F-16.3°C 31% 2.2 mph NNW3.5 kmh NNW 6.0 mph9.7 kmh 30.37 in1028.4 mb 0.00 in0.0 mm 0.00 in/hr0.0 mm/hr 0.00 in0.0 mm
05:40 PM 29.5°F-1.4°C 2.6°F-16.3°C 31% 3.8 mph NNW6.1 kmh NNW 6.0 mph9.7 kmh 30.37 in1028.4 mb 0.00 in0.0 mm 0.00 in/hr0.0 mm/hr 0.00 in0.0 mm
05:41 PM 29.5°F-1.4°C 2.6°F-16.3°C 31% 3.8 mph NNW6.1 kmh NNW 6.0 mph9.7 kmh 30.38 in1028.8 mb 0.00 in0.0 mm 0.00 in/hr0.0 mm/hr 0.00 in0.0 mm
05:42 PM 29.5°F-1.4°C 3.3°F-15.9°C 32% 3.8 mph NNW6.1 kmh NNW 6.0 mph9.7 kmh 30.38 in1028.8 mb 0.00 in0.0 mm 0.00 in/hr0.0 mm/hr 0.00 in0.0 mm
05:43 PM 29.5°F-1.4°C 3.3°F-15.9°C 32% 2.2 mph NNW3.5 kmh NNW 6.0 mph9.7 kmh 30.37 in1028.4 mb 0.00 in0.0 mm 0.00 in/hr0.0 mm/hr 0.00 in0.0 mm
05:44 PM 29.5°F-1.4°C 3.3°F-15.9°C 32% 3.1 mph NNW5.0 kmh NNW 6.0 mph9.7 kmh 30.37 in1028.4 mb 0.00 in0.0 mm 0.00 in/hr0.0 mm/hr 0.00 in0.0 mm
05:45 PM 29.3°F-1.5°C 3.2°F-16.0°C 32% 3.1 mph NNW5.0 kmh NNW 6.0 mph9.7 kmh 30.37 in1028.4 mb 0.00 in0.0 mm 0.00 in/hr0.0 mm/hr 0.00 in0.0 mm
05:46 PM 29.5°F-1.4°C 3.3°F-15.9°C 32% 1.6 mph NNW2.6 kmh NNW 6.0 mph9.7 kmh 30.38 in1028.8 mb 0.00 in0.0 mm 0.00 in/hr0.0 mm/hr 0.00 in0.0 mm
05:47 PM 29.3°F-1.5°C 3.2°F-16.0°C 32% 2.2 mph NNW3.5 kmh NNW 5.4 mph8.7 kmh 30.38 in1028.8 mb 0.00 in0.0 mm 0.00 in/hr0.0 mm/hr 0.00 in0.0 mm
05:48 PM 29.3°F-1.5°C 3.2°F-16.0°C 32% 3.8 mph NNW6.1 kmh NNW 5.4 mph8.7 kmh 30.37 in1028.4 mb 0.00 in0.0 mm 0.00 in/hr0.0 mm/hr 0.00 in0.0 mm
05:49 PM 29.5°F-1.4°C 3.3°F-15.9°C 32% 2.2 mph NNW3.5 kmh NNW 5.4 mph8.7 kmh 30.37 in1028.4 mb 0.00 in0.0 mm 0.00 in/hr0.0 mm/hr 0.00 in0.0 mm
05:50 PM 29.3°F-1.5°C 3.2°F-16.0°C 32% 3.1 mph NNW5.0 kmh NNW 5.4 mph8.7 kmh 30.37 in1028.4 mb 0.00 in0.0 mm 0.00 in/hr0.0 mm/hr 0.00 in0.0 mm
05:51 PM 29.3°F-1.5°C 3.2°F-16.0°C 32% 3.8 mph NNW6.1 kmh NNW 6.9 mph11.1 kmh 30.37 in1028.4 mb 0.00 in0.0 mm 0.00 in/hr0.0 mm/hr 0.00 in0.0 mm
05:52 PM 29.3°F-1.5°C 3.2°F-16.0°C 32% 3.8 mph NNW6.1 kmh NNW 6.9 mph11.1 kmh 30.37 in1028.4 mb 0.00 in0.0 mm 0.00 in/hr0.0 mm/hr 0.00 in0.0 mm
05:53 PM 29.3°F-1.5°C 3.2°F-16.0°C 32% 5.4 mph NNW8.7 kmh NNW 8.3 mph13.4 kmh 30.37 in1028.4 mb 0.00 in0.0 mm 0.00 in/hr0.0 mm/hr 0.00 in0.0 mm
05:54 PM 29.3°F-1.5°C 3.8°F-15.7°C 33% 3.8 mph NNW6.1 kmh NNW 8.3 mph13.4 kmh 30.37 in1028.4 mb 0.00 in0.0 mm 0.00 in/hr0.0 mm/hr 0.00 in0.0 mm
05:55 PM 29.1°F-1.6°C 3.0°F-16.1°C 32% 3.8 mph NNW6.1 kmh NNW 8.3 mph13.4 kmh 30.37 in1028.4 mb 0.00 in0.0 mm 0.00 in/hr0.0 mm/hr 0.00 in0.0 mm
05:56 PM 29.3°F-1.5°C 3.8°F-15.7°C 33% 5.4 mph NNW8.7 kmh NNW 8.3 mph13.4 kmh 30.37 in1028.4 mb 0.00 in0.0 mm 0.00 in/hr0.0 mm/hr 0.00 in0.0 mm
05:57 PM 29.3°F-1.5°C 3.8°F-15.7°C 33% 3.1 mph NNW5.0 kmh NNW 8.3 mph13.4 kmh 30.37 in1028.4 mb 0.00 in0.0 mm 0.00 in/hr0.0 mm/hr 0.00 in0.0 mm
05:58 PM 29.3°F-1.5°C 3.8°F-15.7°C 33% 3.1 mph NNW5.0 kmh NNW 8.3 mph13.4 kmh 30.37 in1028.4 mb 0.00 in0.0 mm 0.00 in/hr0.0 mm/hr 0.00 in0.0 mm
05:59 PM 29.3°F-1.5°C 3.8°F-15.7°C 33% 3.8 mph NNW6.1 kmh NNW 8.3 mph13.4 kmh 30.37 in1028.4 mb 0.00 in0.0 mm 0.00 in/hr0.0 mm/hr 0.00 in0.0 mm
06:00 PM 29.3°F-1.5°C 3.8°F-15.7°C 33% 2.2 mph NNW3.5 kmh NNW 8.3 mph13.4 kmh 30.37 in1028.4 mb 0.00 in0.0 mm 0.00 in/hr0.0 mm/hr 0.00 in0.0 mm
06:01 PM 29.3°F-1.5°C 3.8°F-15.7°C 33% 2.2 mph N3.5 kmh N 8.3 mph13.4 kmh 30.37 in1028.4 mb 0.00 in0.0 mm 0.00 in/hr0.0 mm/hr 0.00 in0.0 mm
06:02 PM 29.3°F-1.5°C 3.8°F-15.7°C 33% 2.2 mph N3.5 kmh N 8.3 mph13.4 kmh 30.38 in1028.8 mb 0.00 in0.0 mm 0.00 in/hr0.0 mm/hr 0.00 in0.0 mm
06:03 PM 29.3°F-1.5°C 3.8°F-15.7°C 33% 2.2 mph N3.5 kmh N 7.6 mph12.2 kmh 30.38 in1028.8 mb 0.00 in0.0 mm 0.00 in/hr0.0 mm/hr 0.00 in0.0 mm
06:04 PM 29.1°F-1.6°C 3.7°F-15.7°C 33% 4.5 mph N7.2 kmh N 8.3 mph13.4 kmh 30.37 in1028.4 mb 0.00 in0.0 mm 0.00 in/hr0.0 mm/hr 0.00 in0.0 mm
06:05 PM 29.1°F-1.6°C 3.7°F-15.7°C 33% 3.8 mph N6.1 kmh N 8.3 mph13.4 kmh 30.38 in1028.8 mb 0.00 in0.0 mm 0.00 in/hr0.0 mm/hr 0.00 in0.0 mm
06:06 PM 29.1°F-1.6°C 3.7°F-15.7°C 33% 3.1 mph N5.0 kmh N 8.3 mph13.4 kmh 30.38 in1028.8 mb 0.00 in0.0 mm 0.00 in/hr0.0 mm/hr 0.00 in0.0 mm
06:07 PM 29.3°F-1.5°C 3.8°F-15.7°C 33% 3.8 mph N6.1 kmh N 8.3 mph13.4 kmh 30.38 in1028.8 mb 0.00 in0.0 mm 0.00 in/hr0.0 mm/hr 0.00 in0.0 mm
06:08 PM 29.3°F-1.5°C 3.8°F-15.7°C 33% 3.1 mph N5.0 kmh N 8.3 mph13.4 kmh 30.38 in1028.8 mb 0.00 in0.0 mm 0.00 in/hr0.0 mm/hr 0.00 in0.0 mm
06:09 PM 29.1°F-1.6°C 3.7°F-15.7°C 33% 3.1 mph N5.0 kmh N 8.3 mph13.4 kmh 30.38 in1028.8 mb 0.00 in0.0 mm 0.00 in/hr0.0 mm/hr 0.00 in0.0 mm
06:10 PM 29.1°F-1.6°C 3.0°F-16.1°C 32% 2.2 mph N3.5 kmh N 8.3 mph13.4 kmh 30.38 in1028.8 mb 0.00 in0.0 mm 0.00 in/hr0.0 mm/hr 0.00 in0.0 mm
06:11 PM 29.1°F-1.6°C 3.0°F-16.1°C 32% 3.1 mph NNW5.0 kmh NNW 8.3 mph13.4 kmh 30.38 in1028.8 mb 0.00 in0.0 mm 0.00 in/hr0.0 mm/hr 0.00 in0.0 mm
06:12 PM 29.1°F-1.6°C 3.0°F-16.1°C 32% 2.2 mph NNW3.5 kmh NNW 8.3 mph13.4 kmh 30.38 in1028.8 mb 0.00 in0.0 mm 0.00 in/hr0.0 mm/hr 0.00 in0.0 mm
06:13 PM 28.9°F-1.7°C 3.5°F-15.8°C 33% 2.2 mph NNW3.5 kmh NNW 8.3 mph13.4 kmh 30.39 in1029.1 mb 0.00 in0.0 mm 0.00 in/hr0.0 mm/hr 0.00 in0.0 mm
06:14 PM 28.9°F-1.7°C 3.5°F-15.8°C 33% 0.7 mph NNW1.1 kmh NNW 6.0 mph9.7 kmh 30.39 in1029.1 mb 0.00 in0.0 mm 0.00 in/hr0.0 mm/hr 0.00 in0.0 mm
06:15 PM 28.8°F-1.8°C 3.3°F-15.9°C 33% 1.6 mph NW2.6 kmh NW 5.4 mph8.7 kmh 30.39 in1029.1 mb 0.00 in0.0 mm 0.00 in/hr0.0 mm/hr 0.00 in0.0 mm
06:16 PM 28.8°F-1.8°C 3.3°F-15.9°C 33% 0.7 mph NNW1.1 kmh NNW 5.4 mph8.7 kmh 30.39 in1029.1 mb 0.00 in0.0 mm 0.00 in/hr0.0 mm/hr 0.00 in0.0 mm
06:17 PM 28.6°F-1.9°C 3.2°F-16.0°C 33% 1.6 mph NNW2.6 kmh NNW 4.5 mph7.2 kmh 30.39 in1029.1 mb 0.00 in0.0 mm 0.00 in/hr0.0 mm/hr 0.00 in0.0 mm
06:18 PM 28.6°F-1.9°C 3.2°F-16.0°C 33% 1.6 mph NW2.6 kmh NW 4.5 mph7.2 kmh 30.39 in1029.1 mb 0.00 in0.0 mm 0.00 in/hr0.0 mm/hr 0.00 in0.0 mm
06:19 PM 28.6°F-1.9°C 3.2°F-16.0°C 33% 1.6 mph NW2.6 kmh NW 4.5 mph7.2 kmh 30.39 in1029.1 mb 0.00 in0.0 mm 0.00 in/hr0.0 mm/hr 0.00 in0.0 mm
06:20 PM 28.4°F-2.0°C 3.0°F-16.1°C 33% 0.7 mph NW1.1 kmh NW 4.5 mph7.2 kmh 30.39 in1029.1 mb 0.00 in0.0 mm 0.00 in/hr0.0 mm/hr 0.00 in0.0 mm
06:21 PM 28.2°F-2.1°C 0.8°F-17.3°C 30% 2.2 mph NW3.5 kmh NW 4.5 mph7.2 kmh 30.39 in1029.1 mb 0.00 in0.0 mm 0.00 in/hr0.0 mm/hr 0.00 in0.0 mm
06:22 PM 28.4°F-2.0°C 4.3°F-15.4°C 35% 2.2 mph WNW3.5 kmh WNW 4.5 mph7.2 kmh 30.39 in1029.1 mb 0.00 in0.0 mm 0.00 in/hr0.0 mm/hr 0.00 in0.0 mm
06:23 PM 28.4°F-2.0°C 4.3°F-15.4°C 35% 0.7 mph W1.1 kmh W 4.5 mph7.2 kmh 30.39 in1029.1 mb 0.00 in0.0 mm 0.00 in/hr0.0 mm/hr 0.00 in0.0 mm
06:24 PM 28.2°F-2.1°C 0.8°F-17.3°C 30% 1.6 mph W2.6 kmh W 3.8 mph6.1 kmh 30.39 in1029.1 mb 0.00 in0.0 mm 0.00 in/hr0.0 mm/hr 0.00 in0.0 mm
06:25 PM 28.2°F-2.1°C 1.5°F-16.9°C 31% 0.7 mph WNW1.1 kmh WNW 3.8 mph6.1 kmh 30.39 in1029.1 mb 0.00 in0.0 mm 0.00 in/hr0.0 mm/hr 0.00 in0.0 mm
06:26 PM 28.0°F-2.2°C 1.4°F-17.0°C 31% 2.2 mph W3.5 kmh W 3.8 mph6.1 kmh 30.39 in1029.1 mb 0.00 in0.0 mm 0.00 in/hr0.0 mm/hr 0.00 in0.0 mm
06:27 PM 28.0°F-2.2°C 1.4°F-17.0°C 31% Calm Calm 3.8 mph6.1 kmh 30.39 in1029.1 mb 0.00 in0.0 mm 0.00 in/hr0.0 mm/hr 0.00 in0.0 mm
06:28 PM 28.0°F-2.2°C 1.4°F-17.0°C 31% 0.7 mph WNW1.1 kmh WNW 3.8 mph6.1 kmh 30.39 in1029.1 mb 0.00 in0.0 mm 0.00 in/hr0.0 mm/hr 0.00 in0.0 mm
06:29 PM 28.0°F-2.2°C 1.4°F-17.0°C 31% 0.7 mph NW1.1 kmh NW 3.8 mph6.1 kmh 30.39 in1029.1 mb 0.00 in0.0 mm 0.00 in/hr0.0 mm/hr 0.00 in0.0 mm
06:30 PM 28.0°F-2.2°C 1.4°F-17.0°C 31% 0.7 mph NW1.1 kmh NW 3.8 mph6.1 kmh 30.39 in1029.1 mb 0.00 in0.0 mm 0.00 in/hr0.0 mm/hr 0.00 in0.0 mm
06:31 PM 28.0°F-2.2°C 1.4°F-17.0°C 31% 3.1 mph NW5.0 kmh NW 3.8 mph6.1 kmh 30.39 in1029.1 mb 0.00 in0.0 mm 0.00 in/hr0.0 mm/hr 0.00 in0.0 mm
06:32 PM 28.2°F-2.1°C 1.5°F-16.9°C 31% 1.6 mph NW2.6 kmh NW 3.8 mph6.1 kmh 30.39 in1029.1 mb 0.00 in0.0 mm 0.00 in/hr0.0 mm/hr 0.00 in0.0 mm
06:33 PM 28.2°F-2.1°C 2.2°F-16.6°C 32% 1.6 mph NW2.6 kmh NW 4.5 mph7.2 kmh 30.39 in1029.1 mb 0.00 in0.0 mm 0.00 in/hr0.0 mm/hr 0.00 in0.0 mm
06:34 PM 28.2°F-2.1°C 2.2°F-16.6°C 32% 1.6 mph NW2.6 kmh NW 4.5 mph7.2 kmh 30.39 in1029.1 mb 0.00 in0.0 mm 0.00 in/hr0.0 mm/hr 0.00 in0.0 mm
06:35 PM 28.0°F-2.2°C 2.0°F-16.7°C 32% 4.5 mph NNW7.2 kmh NNW 5.4 mph8.7 kmh 30.39 in1029.1 mb 0.00 in0.0 mm 0.00 in/hr0.0 mm/hr 0.00 in0.0 mm
06:36 PM 28.2°F-2.1°C 2.2°F-16.6°C 32% 3.1 mph NNW5.0 kmh NNW 5.4 mph8.7 kmh 30.39 in1029.1 mb 0.00 in0.0 mm 0.00 in/hr0.0 mm/hr 0.00 in0.0 mm
06:37 PM 28.2°F-2.1°C 2.2°F-16.6°C 32% 1.6 mph NNW2.6 kmh NNW 5.4 mph8.7 kmh 30.39 in1029.1 mb 0.00 in0.0 mm 0.00 in/hr0.0 mm/hr 0.00 in0.0 mm
06:38 PM 28.2°F-2.1°C 2.2°F-16.6°C 32% 2.2 mph NNW3.5 kmh NNW 5.4 mph8.7 kmh 30.39 in1029.1 mb 0.00 in0.0 mm 0.00 in/hr0.0 mm/hr 0.00 in0.0 mm
06:39 PM 28.0°F-2.2°C 2.0°F-16.7°C 32% 1.6 mph NNW2.6 kmh NNW 5.4 mph8.7 kmh 30.39 in1029.1 mb 0.00 in0.0 mm 0.00 in/hr0.0 mm/hr 0.00 in0.0 mm
06:40 PM 28.0°F-2.2°C 2.0°F-16.7°C 32% 3.8 mph NNW6.1 kmh NNW 5.4 mph8.7 kmh 30.39 in1029.1 mb 0.00 in0.0 mm 0.00 in/hr0.0 mm/hr 0.00 in0.0 mm
06:41 PM 28.0°F-2.2°C 2.0°F-16.7°C 32% 2.2 mph NNW3.5 kmh NNW 5.4 mph8.7 kmh 30.39 in1029.1 mb 0.00 in0.0 mm 0.00 in/hr0.0 mm/hr 0.00 in0.0 mm
06:42 PM 28.0°F-2.2°C 2.0°F-16.7°C 32% 1.6 mph NNW2.6 kmh NNW 5.4 mph8.7 kmh 30.39 in1029.1 mb 0.00 in0.0 mm 0.00 in/hr0.0 mm/hr 0.00 in0.0 mm
06:43 PM 28.0°F-2.2°C 2.0°F-16.7°C 32% 3.1 mph NNW5.0 kmh NNW 5.4 mph8.7 kmh 30.39 in1029.1 mb 0.00 in0.0 mm 0.00 in/hr0.0 mm/hr 0.00 in0.0 mm
06:44 PM 28.0°F-2.2°C 2.0°F-16.7°C 32% 3.1 mph NNW5.0 kmh NNW 5.4 mph8.7 kmh 30.39 in1029.1 mb 0.00 in0.0 mm 0.00 in/hr0.0 mm/hr 0.00 in0.0 mm
06:45 PM 28.0°F-2.2°C 2.0°F-16.7°C 32% 1.6 mph NNW2.6 kmh NNW 5.4 mph8.7 kmh 30.39 in1029.1 mb 0.00 in0.0 mm 0.00 in/hr0.0 mm/hr 0.00 in0.0 mm
06:46 PM 27.9°F-2.3°C 1.9°F-16.7°C 32% 2.2 mph NNW3.5 kmh NNW 5.4 mph8.7 kmh 30.39 in1029.1 mb 0.00 in0.0 mm 0.00 in/hr0.0 mm/hr 0.00 in0.0 mm
06:47 PM 28.0°F-2.2°C 2.0°F-16.7°C 32% 2.2 mph NNW3.5 kmh NNW 5.4 mph8.7 kmh 30.39 in1029.1 mb 0.00 in0.0 mm 0.00 in/hr0.0 mm/hr 0.00 in0.0 mm
06:48 PM 28.0°F-2.2°C 2.0°F-16.7°C 32% 2.2 mph NNW3.5 kmh NNW 5.4 mph8.7 kmh 30.39 in1029.1 mb 0.00 in0.0 mm 0.00 in/hr0.0 mm/hr 0.00 in0.0 mm
06:49 PM 28.0°F-2.2°C 2.0°F-16.7°C 32% 2.2 mph NNW3.5 kmh NNW 5.4 mph8.7 kmh 30.39 in1029.1 mb 0.00 in0.0 mm 0.00 in/hr0.0 mm/hr 0.00 in0.0 mm
06:50 PM 27.9°F-2.3°C 2.5°F-16.4°C 33% 2.2 mph NNW3.5 kmh NNW 5.4 mph8.7 kmh 30.39 in1029.1 mb 0.00 in0.0 mm 0.00 in/hr0.0 mm/hr 0.00 in0.0 mm
06:51 PM 27.9°F-2.3°C 2.5°F-16.4°C 33% 3.1 mph NNW5.0 kmh NNW 5.4 mph8.7 kmh 30.39 in1029.1 mb 0.00 in0.0 mm 0.00 in/hr0.0 mm/hr 0.00 in0.0 mm
06:52 PM 27.9°F-2.3°C 2.5°F-16.4°C 33% 2.2 mph NNW3.5 kmh NNW 5.4 mph8.7 kmh 30.39 in1029.1 mb 0.00 in0.0 mm 0.00 in/hr0.0 mm/hr 0.00 in0.0 mm
06:53 PM 27.9°F-2.3°C 2.5°F-16.4°C 33% 2.2 mph NNW3.5 kmh NNW 5.4 mph8.7 kmh 30.39 in1029.1 mb 0.00 in0.0 mm 0.00 in/hr0.0 mm/hr 0.00 in0.0 mm
06:54 PM 27.9°F-2.3°C 2.5°F-16.4°C 33% 1.6 mph NNW2.6 kmh NNW 5.4 mph8.7 kmh 30.39 in1029.1 mb 0.00 in0.0 mm 0.00 in/hr0.0 mm/hr 0.00 in0.0 mm
06:55 PM 27.9°F-2.3°C 2.5°F-16.4°C 33% 1.6 mph NNW2.6 kmh NNW 5.4 mph8.7 kmh 30.39 in1029.1 mb 0.00 in0.0 mm 0.00 in/hr0.0 mm/hr 0.00 in0.0 mm
06:56 PM 27.7°F-2.4°C 2.4°F-16.4°C 33% 2.2 mph NNW3.5 kmh NNW 5.4 mph8.7 kmh 30.39 in1029.1 mb 0.00 in0.0 mm 0.00 in/hr0.0 mm/hr 0.00 in0.0 mm
06:57 PM 27.9°F-2.3°C 2.5°F-16.4°C 33% 2.2 mph NNW3.5 kmh NNW 5.4 mph8.7 kmh 30.39 in1029.1 mb 0.00 in0.0 mm 0.00 in/hr0.0 mm/hr 0.00 in0.0 mm
06:58 PM 27.9°F-2.3°C 2.5°F-16.4°C 33% 2.2 mph NNW3.5 kmh NNW 5.4 mph8.7 kmh 30.39 in1029.1 mb 0.00 in0.0 mm 0.00 in/hr0.0 mm/hr 0.00 in0.0 mm
06:59 PM 27.9°F-2.3°C 2.5°F-16.4°C 33% 1.6 mph NNW2.6 kmh NNW 5.4 mph8.7 kmh 30.39 in1029.1 mb 0.00 in0.0 mm 0.00 in/hr0.0 mm/hr 0.00 in0.0 mm
07:00 PM 27.9°F-2.3°C 2.5°F-16.4°C 33% 3.1 mph N5.0 kmh N 5.4 mph8.7 kmh 30.39 in1029.1 mb 0.00 in0.0 mm 0.00 in/hr0.0 mm/hr 0.00 in0.0 mm
07:01 PM 27.9°F-2.3°C 2.5°F-16.4°C 33% 3.1 mph N5.0 kmh N 4.5 mph7.2 kmh 30.39 in1029.1 mb 0.00 in0.0 mm 0.00 in/hr0.0 mm/hr 0.00 in0.0 mm
07:02 PM 27.9°F-2.3°C 2.5°F-16.4°C 33% 2.2 mph NNW3.5 kmh NNW 4.5 mph7.2 kmh 30.39 in1029.1 mb 0.00 in0.0 mm 0.00 in/hr0.0 mm/hr 0.00 in0.0 mm
07:03 PM 27.9°F-2.3°C 2.5°F-16.4°C 33% 2.2 mph NNW3.5 kmh NNW 4.5 mph7.2 kmh 30.39 in1029.1 mb 0.00 in0.0 mm 0.00 in/hr0.0 mm/hr 0.00 in0.0 mm
07:04 PM 27.9°F-2.3°C 3.8°F-15.7°C 35% 3.1 mph NNW5.0 kmh NNW 4.5 mph7.2 kmh 30.39 in1029.1 mb 0.00 in0.0 mm 0.00 in/hr0.0 mm/hr 0.00 in0.0 mm
07:05 PM 27.9°F-2.3°C 3.8°F-15.7°C 35% 3.1 mph NNW5.0 kmh NNW 4.5 mph7.2 kmh 30.39 in1029.1 mb 0.00 in0.0 mm 0.00 in/hr0.0 mm/hr 0.00 in0.0 mm
07:06 PM 27.9°F-2.3°C 3.8°F-15.7°C 35% 3.1 mph NNW5.0 kmh NNW 4.5 mph7.2 kmh 30.39 in1029.1 mb 0.00 in0.0 mm 0.00 in/hr0.0 mm/hr 0.00 in0.0 mm
07:07 PM 27.9°F-2.3°C 3.8°F-15.7°C 35% 3.1 mph NNW5.0 kmh NNW 5.4 mph8.7 kmh 30.39 in1029.1 mb 0.00 in0.0 mm 0.00 in/hr0.0 mm/hr 0.00 in0.0 mm
07:08 PM 27.9°F-2.3°C 3.8°F-15.7°C 35% 3.1 mph NNW5.0 kmh NNW 5.4 mph8.7 kmh 30.39 in1029.1 mb 0.00 in0.0 mm 0.00 in/hr0.0 mm/hr 0.00 in0.0 mm
07:09 PM 27.9°F-2.3°C 2.5°F-16.4°C 33% 1.6 mph NNW2.6 kmh NNW 5.4 mph8.7 kmh 30.40 in1029.5 mb 0.00 in0.0 mm 0.00 in/hr0.0 mm/hr 0.00 in0.0 mm
07:10 PM 27.9°F-2.3°C 2.5°F-16.4°C 33% 1.6 mph NW2.6 kmh NW 5.4 mph8.7 kmh 30.40 in1029.5 mb 0.00 in0.0 mm 0.00 in/hr0.0 mm/hr 0.00 in0.0 mm
07:11 PM 27.9°F-2.3°C 2.5°F-16.4°C 33% 1.6 mph NW2.6 kmh NW 5.4 mph8.7 kmh 30.40 in1029.5 mb 0.00 in0.0 mm 0.00 in/hr0.0 mm/hr 0.00 in0.0 mm
07:12 PM 27.5°F-2.5°C 2.2°F-16.6°C 33% 0.7 mph NNW1.1 kmh NNW 5.4 mph8.7 kmh 30.40 in1029.5 mb 0.00 in0.0 mm 0.00 in/hr0.0 mm/hr 0.00 in0.0 mm
07:13 PM 27.5°F-2.5°C 3.5°F-15.8°C 35% Calm Calm 5.4 mph8.7 kmh 30.40 in1029.5 mb 0.00 in0.0 mm 0.00 in/hr0.0 mm/hr 0.00 in0.0 mm
07:14 PM 27.3°F-2.6°C 3.3°F-15.9°C 35% Calm Calm 5.4 mph8.7 kmh 30.40 in1029.5 mb 0.00 in0.0 mm 0.00 in/hr0.0 mm/hr 0.00 in0.0 mm
07:15 PM 27.1°F-2.7°C 3.2°F-16.0°C 35% Calm Calm 5.4 mph8.7 kmh 30.40 in1029.5 mb 0.00 in0.0 mm 0.00 in/hr0.0 mm/hr 0.00 in0.0 mm
07:16 PM 27.1°F-2.7°C 3.2°F-16.0°C 35% Calm Calm 5.4 mph8.7 kmh 30.40 in1029.5 mb 0.00 in0.0 mm 0.00 in/hr0.0 mm/hr 0.00 in0.0 mm
07:17 PM 27.0°F-2.8°C 3.0°F-16.1°C 35% Calm Calm 5.4 mph8.7 kmh 30.40 in1029.5 mb</